<?xml version="1.0" encoding="UTF-8" standalone="no" ?>
<gpx xmlns="http://www.topografix.com/GPX/1/1" xmlns:xsi="http://www.w3.org/2001/XMLSchema-instance" xsi:schemaLocation="http://www.topografix.com/GPX/1/1 http://www.topografix.com/GPX/1/1/gpx.xsd" version="1.1" creator="VisuGPX - https://www.visugpx.com">
  <metadata>
    <name>TOUR QUEYRAS_JOUR 5 : ABRIES - LES FONDS par variante Pic du Malrif</name>
    <desc><![CDATA[

]]></desc>
  </metadata>
  <trk>
    <name><![CDATA[TOUR QUEYRAS_JOUR 5 : ABRIES - LES FONDS par variante Pic du Malrif]]></name>
    <extensions>
      <line xmlns="http://www.topografix.com/GPX/gpx_style/0/2">
        <color>FF00FF</color>
        <width>4</width>
      </line>
    </extensions>
    <trkseg>
      <trkpt lat="44.79511" lon="6.9279">
        <ele>1553.15</ele>
        <time>2018-09-13T05:02:56Z</time>
      </trkpt>
      <trkpt lat="44.79505" lon="6.92789">
        <ele>1554.11</ele>
        <time>2018-09-13T05:05:31Z</time>
      </trkpt>
      <trkpt lat="44.79501" lon="6.92772">
        <ele>1553.15</ele>
        <time>2018-09-13T05:05:44Z</time>
      </trkpt>
      <trkpt lat="44.79501" lon="6.92756">
        <ele>1553.15</ele>
        <time>2018-09-13T05:05:54Z</time>
      </trkpt>
      <trkpt lat="44.795" lon="6.92742">
        <ele>1553.15</ele>
        <time>2018-09-13T05:06:03Z</time>
      </trkpt>
      <trkpt lat="44.79496" lon="6.92732">
        <ele>1553.15</ele>
        <time>2018-09-13T05:06:12Z</time>
      </trkpt>
      <trkpt lat="44.79503" lon="6.9272">
        <ele>1553.15</ele>
        <time>2018-09-13T05:06:22Z</time>
      </trkpt>
      <trkpt lat="44.79508" lon="6.92707">
        <ele>1552.67</ele>
        <time>2018-09-13T05:06:32Z</time>
      </trkpt>
      <trkpt lat="44.79514" lon="6.92694">
        <ele>1553.15</ele>
        <time>2018-09-13T05:06:42Z</time>
      </trkpt>
      <trkpt lat="44.79521" lon="6.92683">
        <ele>1554.59</ele>
        <time>2018-09-13T05:06:54Z</time>
      </trkpt>
      <trkpt lat="44.79527" lon="6.92672">
        <ele>1556.03</ele>
        <time>2018-09-13T05:07:07Z</time>
      </trkpt>
      <trkpt lat="44.79532" lon="6.92659">
        <ele>1557.47</ele>
        <time>2018-09-13T05:07:24Z</time>
      </trkpt>
      <trkpt lat="44.79538" lon="6.92643">
        <ele>1562.28</ele>
        <time>2018-09-13T05:07:54Z</time>
      </trkpt>
      <trkpt lat="44.79542" lon="6.92633">
        <ele>1562.28</ele>
        <time>2018-09-13T05:08:13Z</time>
      </trkpt>
      <trkpt lat="44.79554" lon="6.92613">
        <ele>1569.97</ele>
        <time>2018-09-13T05:09:00Z</time>
      </trkpt>
      <trkpt lat="44.79563" lon="6.92612">
        <ele>1571.89</ele>
        <time>2018-09-13T05:09:22Z</time>
      </trkpt>
      <trkpt lat="44.79573" lon="6.92617">
        <ele>1574.78</ele>
        <time>2018-09-13T05:09:39Z</time>
      </trkpt>
      <trkpt lat="44.79568" lon="6.92604">
        <ele>1576.7</ele>
        <time>2018-09-13T05:09:57Z</time>
      </trkpt>
      <trkpt lat="44.79566" lon="6.92589">
        <ele>1578.62</ele>
        <time>2018-09-13T05:10:15Z</time>
      </trkpt>
      <trkpt lat="44.79561" lon="6.92574">
        <ele>1580.06</ele>
        <time>2018-09-13T05:10:34Z</time>
      </trkpt>
      <trkpt lat="44.79558" lon="6.92561">
        <ele>1582.47</ele>
        <time>2018-09-13T05:10:51Z</time>
      </trkpt>
      <trkpt lat="44.79553" lon="6.92554">
        <ele>1583.91</ele>
        <time>2018-09-13T05:11:07Z</time>
      </trkpt>
      <trkpt lat="44.79548" lon="6.92546">
        <ele>1585.35</ele>
        <time>2018-09-13T05:11:20Z</time>
      </trkpt>
      <trkpt lat="44.79541" lon="6.92537">
        <ele>1586.79</ele>
        <time>2018-09-13T05:11:34Z</time>
      </trkpt>
      <trkpt lat="44.79536" lon="6.92525">
        <ele>1588.24</ele>
        <time>2018-09-13T05:11:49Z</time>
      </trkpt>
      <trkpt lat="44.79534" lon="6.92511">
        <ele>1590.64</ele>
        <time>2018-09-13T05:12:07Z</time>
      </trkpt>
      <trkpt lat="44.79532" lon="6.92499">
        <ele>1592.08</ele>
        <time>2018-09-13T05:12:23Z</time>
      </trkpt>
      <trkpt lat="44.79532" lon="6.92487">
        <ele>1594.48</ele>
        <time>2018-09-13T05:12:40Z</time>
      </trkpt>
      <trkpt lat="44.79534" lon="6.92476">
        <ele>1596.89</ele>
        <time>2018-09-13T05:12:59Z</time>
      </trkpt>
      <trkpt lat="44.79532" lon="6.92462">
        <ele>1599.77</ele>
        <time>2018-09-13T05:13:18Z</time>
      </trkpt>
      <trkpt lat="44.79535" lon="6.92451">
        <ele>1601.69</ele>
        <time>2018-09-13T05:13:35Z</time>
      </trkpt>
      <trkpt lat="44.79534" lon="6.9244">
        <ele>1605.06</ele>
        <time>2018-09-13T05:13:56Z</time>
      </trkpt>
      <trkpt lat="44.79538" lon="6.92434">
        <ele>1606.98</ele>
        <time>2018-09-13T05:14:13Z</time>
      </trkpt>
      <trkpt lat="44.7955" lon="6.92441">
        <ele>1610.35</ele>
        <time>2018-09-13T05:14:39Z</time>
      </trkpt>
      <trkpt lat="44.79551" lon="6.92423">
        <ele>1615.15</ele>
        <time>2018-09-13T05:16:05Z</time>
      </trkpt>
      <trkpt lat="44.79548" lon="6.92408">
        <ele>1618.04</ele>
        <time>2018-09-13T05:16:23Z</time>
      </trkpt>
      <trkpt lat="44.79542" lon="6.92398">
        <ele>1620.44</ele>
        <time>2018-09-13T05:16:40Z</time>
      </trkpt>
      <trkpt lat="44.79538" lon="6.92386">
        <ele>1622.36</ele>
        <time>2018-09-13T05:17:00Z</time>
      </trkpt>
      <trkpt lat="44.79536" lon="6.92385">
        <ele>1624.28</ele>
        <time>2018-09-13T05:18:34Z</time>
      </trkpt>
      <trkpt lat="44.79532" lon="6.92371">
        <ele>1625.25</ele>
        <time>2018-09-13T05:18:53Z</time>
      </trkpt>
      <trkpt lat="44.79531" lon="6.92358">
        <ele>1627.17</ele>
        <time>2018-09-13T05:19:07Z</time>
      </trkpt>
      <trkpt lat="44.79531" lon="6.92345">
        <ele>1629.09</ele>
        <time>2018-09-13T05:19:23Z</time>
      </trkpt>
      <trkpt lat="44.79531" lon="6.92332">
        <ele>1631.49</ele>
        <time>2018-09-13T05:19:38Z</time>
      </trkpt>
      <trkpt lat="44.7953" lon="6.92319">
        <ele>1633.42</ele>
        <time>2018-09-13T05:19:52Z</time>
      </trkpt>
      <trkpt lat="44.79531" lon="6.92303">
        <ele>1634.38</ele>
        <time>2018-09-13T05:20:07Z</time>
      </trkpt>
      <trkpt lat="44.7953" lon="6.92287">
        <ele>1635.34</ele>
        <time>2018-09-13T05:20:20Z</time>
      </trkpt>
      <trkpt lat="44.7953" lon="6.92274">
        <ele>1636.3</ele>
        <time>2018-09-13T05:20:31Z</time>
      </trkpt>
      <trkpt lat="44.79531" lon="6.92261">
        <ele>1637.26</ele>
        <time>2018-09-13T05:20:42Z</time>
      </trkpt>
      <trkpt lat="44.79531" lon="6.92247">
        <ele>1637.74</ele>
        <time>2018-09-13T05:20:54Z</time>
      </trkpt>
      <trkpt lat="44.79534" lon="6.92232">
        <ele>1639.19</ele>
        <time>2018-09-13T05:21:08Z</time>
      </trkpt>
      <trkpt lat="44.79533" lon="6.92219">
        <ele>1639.67</ele>
        <time>2018-09-13T05:21:21Z</time>
      </trkpt>
      <trkpt lat="44.79534" lon="6.92206">
        <ele>1640.15</ele>
        <time>2018-09-13T05:21:32Z</time>
      </trkpt>
      <trkpt lat="44.79535" lon="6.92192">
        <ele>1640.63</ele>
        <time>2018-09-13T05:21:43Z</time>
      </trkpt>
      <trkpt lat="44.79534" lon="6.92179">
        <ele>1641.11</ele>
        <time>2018-09-13T05:21:54Z</time>
      </trkpt>
      <trkpt lat="44.79534" lon="6.92168">
        <ele>1640.63</ele>
        <time>2018-09-13T05:22:14Z</time>
      </trkpt>
      <trkpt lat="44.79535" lon="6.92153">
        <ele>1640.15</ele>
        <time>2018-09-13T05:22:24Z</time>
      </trkpt>
      <trkpt lat="44.79537" lon="6.92141">
        <ele>1640.15</ele>
        <time>2018-09-13T05:22:33Z</time>
      </trkpt>
      <trkpt lat="44.7954" lon="6.92131">
        <ele>1639.67</ele>
        <time>2018-09-13T05:22:41Z</time>
      </trkpt>
      <trkpt lat="44.79542" lon="6.92118">
        <ele>1639.67</ele>
        <time>2018-09-13T05:22:50Z</time>
      </trkpt>
      <trkpt lat="44.79544" lon="6.92104">
        <ele>1639.67</ele>
        <time>2018-09-13T05:22:59Z</time>
      </trkpt>
      <trkpt lat="44.79546" lon="6.92087">
        <ele>1639.67</ele>
        <time>2018-09-13T05:23:08Z</time>
      </trkpt>
      <trkpt lat="44.79549" lon="6.92073">
        <ele>1640.15</ele>
        <time>2018-09-13T05:23:17Z</time>
      </trkpt>
      <trkpt lat="44.79551" lon="6.92059">
        <ele>1640.63</ele>
        <time>2018-09-13T05:23:26Z</time>
      </trkpt>
      <trkpt lat="44.79551" lon="6.92047">
        <ele>1641.11</ele>
        <time>2018-09-13T05:23:35Z</time>
      </trkpt>
      <trkpt lat="44.79551" lon="6.92034">
        <ele>1641.11</ele>
        <time>2018-09-13T05:23:44Z</time>
      </trkpt>
      <trkpt lat="44.7955" lon="6.9202">
        <ele>1641.59</ele>
        <time>2018-09-13T05:23:53Z</time>
      </trkpt>
      <trkpt lat="44.79547" lon="6.92007">
        <ele>1642.55</ele>
        <time>2018-09-13T05:24:04Z</time>
      </trkpt>
      <trkpt lat="44.79547" lon="6.91994">
        <ele>1643.99</ele>
        <time>2018-09-13T05:24:15Z</time>
      </trkpt>
      <trkpt lat="44.79549" lon="6.9198">
        <ele>1645.43</ele>
        <time>2018-09-13T05:24:27Z</time>
      </trkpt>
      <trkpt lat="44.79554" lon="6.91969">
        <ele>1647.84</ele>
        <time>2018-09-13T05:24:44Z</time>
      </trkpt>
      <trkpt lat="44.79556" lon="6.91957">
        <ele>1649.76</ele>
        <time>2018-09-13T05:24:59Z</time>
      </trkpt>
      <trkpt lat="44.79563" lon="6.91947">
        <ele>1652.16</ele>
        <time>2018-09-13T05:25:14Z</time>
      </trkpt>
      <trkpt lat="44.79568" lon="6.91935">
        <ele>1653.6</ele>
        <time>2018-09-13T05:25:28Z</time>
      </trkpt>
      <trkpt lat="44.79575" lon="6.91925">
        <ele>1655.05</ele>
        <time>2018-09-13T05:25:43Z</time>
      </trkpt>
      <trkpt lat="44.7958" lon="6.91914">
        <ele>1656.49</ele>
        <time>2018-09-13T05:25:55Z</time>
      </trkpt>
      <trkpt lat="44.79583" lon="6.91902">
        <ele>1656.49</ele>
        <time>2018-09-13T05:26:05Z</time>
      </trkpt>
      <trkpt lat="44.79582" lon="6.91889">
        <ele>1657.93</ele>
        <time>2018-09-13T05:26:16Z</time>
      </trkpt>
      <trkpt lat="44.79582" lon="6.91877">
        <ele>1658.89</ele>
        <time>2018-09-13T05:26:28Z</time>
      </trkpt>
      <trkpt lat="44.79585" lon="6.91863">
        <ele>1661.3</ele>
        <time>2018-09-13T05:26:42Z</time>
      </trkpt>
      <trkpt lat="44.79592" lon="6.91854">
        <ele>1663.22</ele>
        <time>2018-09-13T05:26:56Z</time>
      </trkpt>
      <trkpt lat="44.79599" lon="6.91849">
        <ele>1664.18</ele>
        <time>2018-09-13T05:28:07Z</time>
      </trkpt>
      <trkpt lat="44.79605" lon="6.91837">
        <ele>1668.02</ele>
        <time>2018-09-13T05:29:46Z</time>
      </trkpt>
      <trkpt lat="44.79612" lon="6.9183">
        <ele>1670.43</ele>
        <time>2018-09-13T05:30:00Z</time>
      </trkpt>
      <trkpt lat="44.79611" lon="6.91823">
        <ele>1672.35</ele>
        <time>2018-09-13T05:30:16Z</time>
      </trkpt>
      <trkpt lat="44.79616" lon="6.91816">
        <ele>1674.27</ele>
        <time>2018-09-13T05:30:34Z</time>
      </trkpt>
      <trkpt lat="44.79615" lon="6.91802">
        <ele>1678.12</ele>
        <time>2018-09-13T05:30:53Z</time>
      </trkpt>
      <trkpt lat="44.79615" lon="6.91788">
        <ele>1679.08</ele>
        <time>2018-09-13T05:31:07Z</time>
      </trkpt>
      <trkpt lat="44.79615" lon="6.91775">
        <ele>1680.52</ele>
        <time>2018-09-13T05:31:21Z</time>
      </trkpt>
      <trkpt lat="44.79617" lon="6.91762">
        <ele>1682.44</ele>
        <time>2018-09-13T05:31:34Z</time>
      </trkpt>
      <trkpt lat="44.79622" lon="6.91752">
        <ele>1684.37</ele>
        <time>2018-09-13T05:31:48Z</time>
      </trkpt>
      <trkpt lat="44.79626" lon="6.9174">
        <ele>1684.85</ele>
        <time>2018-09-13T05:32:01Z</time>
      </trkpt>
      <trkpt lat="44.79632" lon="6.91727">
        <ele>1686.29</ele>
        <time>2018-09-13T05:32:15Z</time>
      </trkpt>
      <trkpt lat="44.79637" lon="6.91714">
        <ele>1688.21</ele>
        <time>2018-09-13T05:32:29Z</time>
      </trkpt>
      <trkpt lat="44.79644" lon="6.91704">
        <ele>1690.14</ele>
        <time>2018-09-13T05:32:44Z</time>
      </trkpt>
      <trkpt lat="44.79651" lon="6.91708">
        <ele>1692.54</ele>
        <time>2018-09-13T05:33:03Z</time>
      </trkpt>
      <trkpt lat="44.79656" lon="6.917">
        <ele>1695.42</ele>
        <time>2018-09-13T05:33:21Z</time>
      </trkpt>
      <trkpt lat="44.79659" lon="6.91688">
        <ele>1699.27</ele>
        <time>2018-09-13T05:33:45Z</time>
      </trkpt>
      <trkpt lat="44.79658" lon="6.91674">
        <ele>1702.63</ele>
        <time>2018-09-13T05:34:03Z</time>
      </trkpt>
      <trkpt lat="44.79661" lon="6.91663">
        <ele>1705.52</ele>
        <time>2018-09-13T05:34:22Z</time>
      </trkpt>
      <trkpt lat="44.79664" lon="6.91651">
        <ele>1707.44</ele>
        <time>2018-09-13T05:34:39Z</time>
      </trkpt>
      <trkpt lat="44.79669" lon="6.9164">
        <ele>1708.4</ele>
        <time>2018-09-13T05:34:52Z</time>
      </trkpt>
      <trkpt lat="44.79671" lon="6.91627">
        <ele>1710.32</ele>
        <time>2018-09-13T05:35:06Z</time>
      </trkpt>
      <trkpt lat="44.79678" lon="6.91617">
        <ele>1711.76</ele>
        <time>2018-09-13T05:35:18Z</time>
      </trkpt>
      <trkpt lat="44.79683" lon="6.91605">
        <ele>1712.25</ele>
        <time>2018-09-13T05:35:29Z</time>
      </trkpt>
      <trkpt lat="44.79688" lon="6.91594">
        <ele>1713.69</ele>
        <time>2018-09-13T05:35:39Z</time>
      </trkpt>
      <trkpt lat="44.79696" lon="6.91585">
        <ele>1713.69</ele>
        <time>2018-09-13T05:35:49Z</time>
      </trkpt>
      <trkpt lat="44.79704" lon="6.91577">
        <ele>1714.65</ele>
        <time>2018-09-13T05:35:59Z</time>
      </trkpt>
      <trkpt lat="44.79711" lon="6.91569">
        <ele>1715.13</ele>
        <time>2018-09-13T05:36:09Z</time>
      </trkpt>
      <trkpt lat="44.79717" lon="6.9156">
        <ele>1716.09</ele>
        <time>2018-09-13T05:36:20Z</time>
      </trkpt>
      <trkpt lat="44.79721" lon="6.91548">
        <ele>1717.53</ele>
        <time>2018-09-13T05:36:32Z</time>
      </trkpt>
      <trkpt lat="44.79728" lon="6.91541">
        <ele>1719.46</ele>
        <time>2018-09-13T05:36:45Z</time>
      </trkpt>
      <trkpt lat="44.79729" lon="6.91528">
        <ele>1720.9</ele>
        <time>2018-09-13T05:36:57Z</time>
      </trkpt>
      <trkpt lat="44.7973" lon="6.91514">
        <ele>1720.9</ele>
        <time>2018-09-13T05:37:09Z</time>
      </trkpt>
      <trkpt lat="44.7973" lon="6.915">
        <ele>1722.34</ele>
        <time>2018-09-13T05:37:21Z</time>
      </trkpt>
      <trkpt lat="44.79731" lon="6.91487">
        <ele>1724.26</ele>
        <time>2018-09-13T05:37:33Z</time>
      </trkpt>
      <trkpt lat="44.79733" lon="6.91474">
        <ele>1725.22</ele>
        <time>2018-09-13T05:37:46Z</time>
      </trkpt>
      <trkpt lat="44.79732" lon="6.91461">
        <ele>1726.67</ele>
        <time>2018-09-13T05:37:58Z</time>
      </trkpt>
      <trkpt lat="44.79735" lon="6.91447">
        <ele>1728.11</ele>
        <time>2018-09-13T05:38:09Z</time>
      </trkpt>
      <trkpt lat="44.79741" lon="6.91437">
        <ele>1729.07</ele>
        <time>2018-09-13T05:38:20Z</time>
      </trkpt>
      <trkpt lat="44.79744" lon="6.91424">
        <ele>1730.51</ele>
        <time>2018-09-13T05:38:31Z</time>
      </trkpt>
      <trkpt lat="44.79745" lon="6.91411">
        <ele>1730.99</ele>
        <time>2018-09-13T05:38:41Z</time>
      </trkpt>
      <trkpt lat="44.7975" lon="6.91399">
        <ele>1730.99</ele>
        <time>2018-09-13T05:38:51Z</time>
      </trkpt>
      <trkpt lat="44.79754" lon="6.91387">
        <ele>1731.47</ele>
        <time>2018-09-13T05:39:01Z</time>
      </trkpt>
      <trkpt lat="44.7976" lon="6.91373">
        <ele>1732.43</ele>
        <time>2018-09-13T05:39:11Z</time>
      </trkpt>
      <trkpt lat="44.79765" lon="6.91361">
        <ele>1731.95</ele>
        <time>2018-09-13T05:39:20Z</time>
      </trkpt>
      <trkpt lat="44.79768" lon="6.91349">
        <ele>1731.47</ele>
        <time>2018-09-13T05:39:29Z</time>
      </trkpt>
      <trkpt lat="44.79772" lon="6.91335">
        <ele>1731.47</ele>
        <time>2018-09-13T05:39:39Z</time>
      </trkpt>
      <trkpt lat="44.79779" lon="6.91324">
        <ele>1733.88</ele>
        <time>2018-09-13T05:39:52Z</time>
      </trkpt>
      <trkpt lat="44.79779" lon="6.9131">
        <ele>1733.88</ele>
        <time>2018-09-13T05:40:02Z</time>
      </trkpt>
      <trkpt lat="44.79783" lon="6.91297">
        <ele>1734.36</ele>
        <time>2018-09-13T05:40:19Z</time>
      </trkpt>
      <trkpt lat="44.79782" lon="6.91284">
        <ele>1733.88</ele>
        <time>2018-09-13T05:40:36Z</time>
      </trkpt>
      <trkpt lat="44.79778" lon="6.91278">
        <ele>1731.95</ele>
        <time>2018-09-13T05:40:55Z</time>
      </trkpt>
      <trkpt lat="44.79775" lon="6.91267">
        <ele>1733.39</ele>
        <time>2018-09-13T05:41:04Z</time>
      </trkpt>
      <trkpt lat="44.7977" lon="6.91255">
        <ele>1734.36</ele>
        <time>2018-09-13T05:41:14Z</time>
      </trkpt>
      <trkpt lat="44.79768" lon="6.9124">
        <ele>1735.32</ele>
        <time>2018-09-13T05:41:25Z</time>
      </trkpt>
      <trkpt lat="44.79764" lon="6.91228">
        <ele>1735.32</ele>
        <time>2018-09-13T05:41:35Z</time>
      </trkpt>
      <trkpt lat="44.79758" lon="6.91218">
        <ele>1735.8</ele>
        <time>2018-09-13T05:41:59Z</time>
      </trkpt>
      <trkpt lat="44.79753" lon="6.91208">
        <ele>1735.32</ele>
        <time>2018-09-13T05:42:08Z</time>
      </trkpt>
      <trkpt lat="44.79747" lon="6.91199">
        <ele>1734.84</ele>
        <time>2018-09-13T05:42:17Z</time>
      </trkpt>
      <trkpt lat="44.79744" lon="6.91185">
        <ele>1734.36</ele>
        <time>2018-09-13T05:42:27Z</time>
      </trkpt>
      <trkpt lat="44.79742" lon="6.9117">
        <ele>1732.91</ele>
        <time>2018-09-13T05:42:37Z</time>
      </trkpt>
      <trkpt lat="44.79741" lon="6.91156">
        <ele>1731.95</ele>
        <time>2018-09-13T05:42:48Z</time>
      </trkpt>
      <trkpt lat="44.7974" lon="6.91144">
        <ele>1732.91</ele>
        <time>2018-09-13T05:43:07Z</time>
      </trkpt>
      <trkpt lat="44.79737" lon="6.9113">
        <ele>1732.43</ele>
        <time>2018-09-13T05:43:18Z</time>
      </trkpt>
      <trkpt lat="44.79739" lon="6.91116">
        <ele>1732.91</ele>
        <time>2018-09-13T05:43:29Z</time>
      </trkpt>
      <trkpt lat="44.79741" lon="6.911">
        <ele>1733.39</ele>
        <time>2018-09-13T05:43:41Z</time>
      </trkpt>
      <trkpt lat="44.79749" lon="6.91088">
        <ele>1734.36</ele>
        <time>2018-09-13T05:43:53Z</time>
      </trkpt>
      <trkpt lat="44.79758" lon="6.91079">
        <ele>1733.88</ele>
        <time>2018-09-13T05:44:05Z</time>
      </trkpt>
      <trkpt lat="44.79759" lon="6.91067">
        <ele>1733.88</ele>
        <time>2018-09-13T05:44:16Z</time>
      </trkpt>
      <trkpt lat="44.79759" lon="6.91052">
        <ele>1735.32</ele>
        <time>2018-09-13T05:45:18Z</time>
      </trkpt>
      <trkpt lat="44.79751" lon="6.91044">
        <ele>1735.32</ele>
        <time>2018-09-13T05:45:30Z</time>
      </trkpt>
      <trkpt lat="44.79742" lon="6.91036">
        <ele>1736.28</ele>
        <time>2018-09-13T05:45:41Z</time>
      </trkpt>
      <trkpt lat="44.79739" lon="6.91023">
        <ele>1736.28</ele>
        <time>2018-09-13T05:45:51Z</time>
      </trkpt>
      <trkpt lat="44.79741" lon="6.91007">
        <ele>1736.76</ele>
        <time>2018-09-13T05:46:02Z</time>
      </trkpt>
      <trkpt lat="44.79744" lon="6.90993">
        <ele>1737.72</ele>
        <time>2018-09-13T05:46:13Z</time>
      </trkpt>
      <trkpt lat="44.79748" lon="6.90979">
        <ele>1738.68</ele>
        <time>2018-09-13T05:46:24Z</time>
      </trkpt>
      <trkpt lat="44.7975" lon="6.90966">
        <ele>1740.12</ele>
        <time>2018-09-13T05:46:35Z</time>
      </trkpt>
      <trkpt lat="44.79745" lon="6.90958">
        <ele>1741.08</ele>
        <time>2018-09-13T05:46:45Z</time>
      </trkpt>
      <trkpt lat="44.79739" lon="6.9095">
        <ele>1743.01</ele>
        <time>2018-09-13T05:46:56Z</time>
      </trkpt>
      <trkpt lat="44.79732" lon="6.90938">
        <ele>1743.01</ele>
        <time>2018-09-13T05:47:22Z</time>
      </trkpt>
      <trkpt lat="44.7973" lon="6.90926">
        <ele>1743.97</ele>
        <time>2018-09-13T05:47:31Z</time>
      </trkpt>
      <trkpt lat="44.79727" lon="6.90914">
        <ele>1743.49</ele>
        <time>2018-09-13T05:47:39Z</time>
      </trkpt>
      <trkpt lat="44.79724" lon="6.90901">
        <ele>1743.49</ele>
        <time>2018-09-13T05:47:48Z</time>
      </trkpt>
      <trkpt lat="44.79721" lon="6.90888">
        <ele>1743.49</ele>
        <time>2018-09-13T05:47:56Z</time>
      </trkpt>
      <trkpt lat="44.79718" lon="6.90875">
        <ele>1743.01</ele>
        <time>2018-09-13T05:48:04Z</time>
      </trkpt>
      <trkpt lat="44.79716" lon="6.90862">
        <ele>1742.53</ele>
        <time>2018-09-13T05:48:13Z</time>
      </trkpt>
      <trkpt lat="44.79713" lon="6.90848">
        <ele>1742.53</ele>
        <time>2018-09-13T05:48:22Z</time>
      </trkpt>
      <trkpt lat="44.79713" lon="6.90832">
        <ele>1742.53</ele>
        <time>2018-09-13T05:48:31Z</time>
      </trkpt>
      <trkpt lat="44.79717" lon="6.90816">
        <ele>1742.05</ele>
        <time>2018-09-13T05:48:40Z</time>
      </trkpt>
      <trkpt lat="44.79723" lon="6.90805">
        <ele>1742.53</ele>
        <time>2018-09-13T05:48:50Z</time>
      </trkpt>
      <trkpt lat="44.79725" lon="6.90793">
        <ele>1743.01</ele>
        <time>2018-09-13T05:49:00Z</time>
      </trkpt>
      <trkpt lat="44.79718" lon="6.90786">
        <ele>1744.93</ele>
        <time>2018-09-13T05:49:11Z</time>
      </trkpt>
      <trkpt lat="44.7971" lon="6.90777">
        <ele>1746.37</ele>
        <time>2018-09-13T05:49:23Z</time>
      </trkpt>
      <trkpt lat="44.79705" lon="6.90766">
        <ele>1748.29</ele>
        <time>2018-09-13T05:49:38Z</time>
      </trkpt>
      <trkpt lat="44.79705" lon="6.90752">
        <ele>1750.7</ele>
        <time>2018-09-13T05:49:54Z</time>
      </trkpt>
      <trkpt lat="44.79699" lon="6.9074">
        <ele>1752.62</ele>
        <time>2018-09-13T05:50:09Z</time>
      </trkpt>
      <trkpt lat="44.79695" lon="6.90727">
        <ele>1755.02</ele>
        <time>2018-09-13T05:50:28Z</time>
      </trkpt>
      <trkpt lat="44.79691" lon="6.90712">
        <ele>1755.5</ele>
        <time>2018-09-13T05:50:39Z</time>
      </trkpt>
      <trkpt lat="44.79686" lon="6.907">
        <ele>1755.99</ele>
        <time>2018-09-13T05:50:50Z</time>
      </trkpt>
      <trkpt lat="44.79684" lon="6.90686">
        <ele>1757.91</ele>
        <time>2018-09-13T05:51:03Z</time>
      </trkpt>
      <trkpt lat="44.7968" lon="6.90673">
        <ele>1758.39</ele>
        <time>2018-09-13T05:51:13Z</time>
      </trkpt>
      <trkpt lat="44.79675" lon="6.9066">
        <ele>1758.87</ele>
        <time>2018-09-13T05:51:23Z</time>
      </trkpt>
      <trkpt lat="44.79668" lon="6.9065">
        <ele>1760.31</ele>
        <time>2018-09-13T05:51:34Z</time>
      </trkpt>
      <trkpt lat="44.79663" lon="6.9064">
        <ele>1760.79</ele>
        <time>2018-09-13T05:51:44Z</time>
      </trkpt>
      <trkpt lat="44.79661" lon="6.90625">
        <ele>1762.71</ele>
        <time>2018-09-13T05:51:56Z</time>
      </trkpt>
      <trkpt lat="44.79658" lon="6.90612">
        <ele>1763.68</ele>
        <time>2018-09-13T05:52:12Z</time>
      </trkpt>
      <trkpt lat="44.79655" lon="6.90597">
        <ele>1764.16</ele>
        <time>2018-09-13T05:52:22Z</time>
      </trkpt>
      <trkpt lat="44.79653" lon="6.90584">
        <ele>1764.16</ele>
        <time>2018-09-13T05:52:32Z</time>
      </trkpt>
      <trkpt lat="44.79652" lon="6.90569">
        <ele>1766.08</ele>
        <time>2018-09-13T05:52:45Z</time>
      </trkpt>
      <trkpt lat="44.7965" lon="6.90554">
        <ele>1768.48</ele>
        <time>2018-09-13T05:52:58Z</time>
      </trkpt>
      <trkpt lat="44.79648" lon="6.90539">
        <ele>1769.44</ele>
        <time>2018-09-13T05:53:09Z</time>
      </trkpt>
      <trkpt lat="44.79646" lon="6.90526">
        <ele>1769.92</ele>
        <time>2018-09-13T05:53:27Z</time>
      </trkpt>
      <trkpt lat="44.79645" lon="6.90511">
        <ele>1770.41</ele>
        <time>2018-09-13T05:53:37Z</time>
      </trkpt>
      <trkpt lat="44.79643" lon="6.90496">
        <ele>1770.41</ele>
        <time>2018-09-13T05:53:47Z</time>
      </trkpt>
      <trkpt lat="44.79641" lon="6.90482">
        <ele>1770.89</ele>
        <time>2018-09-13T05:53:56Z</time>
      </trkpt>
      <trkpt lat="44.79641" lon="6.90468">
        <ele>1770.89</ele>
        <time>2018-09-13T05:54:05Z</time>
      </trkpt>
      <trkpt lat="44.79643" lon="6.90453">
        <ele>1771.37</ele>
        <time>2018-09-13T05:54:15Z</time>
      </trkpt>
      <trkpt lat="44.79645" lon="6.9044">
        <ele>1773.29</ele>
        <time>2018-09-13T05:54:28Z</time>
      </trkpt>
      <trkpt lat="44.79649" lon="6.90425">
        <ele>1772.33</ele>
        <time>2018-09-13T05:54:38Z</time>
      </trkpt>
      <trkpt lat="44.79652" lon="6.90411">
        <ele>1772.81</ele>
        <time>2018-09-13T05:54:49Z</time>
      </trkpt>
      <trkpt lat="44.79654" lon="6.90396">
        <ele>1773.29</ele>
        <time>2018-09-13T05:55:01Z</time>
      </trkpt>
      <trkpt lat="44.79655" lon="6.90381">
        <ele>1774.25</ele>
        <time>2018-09-13T05:55:12Z</time>
      </trkpt>
      <trkpt lat="44.79658" lon="6.90365">
        <ele>1775.69</ele>
        <time>2018-09-13T05:55:28Z</time>
      </trkpt>
      <trkpt lat="44.7966" lon="6.90351">
        <ele>1777.13</ele>
        <time>2018-09-13T05:55:40Z</time>
      </trkpt>
      <trkpt lat="44.79661" lon="6.90336">
        <ele>1777.13</ele>
        <time>2018-09-13T05:55:51Z</time>
      </trkpt>
      <trkpt lat="44.79663" lon="6.90321">
        <ele>1777.13</ele>
        <time>2018-09-13T05:56:03Z</time>
      </trkpt>
      <trkpt lat="44.79663" lon="6.90307">
        <ele>1777.61</ele>
        <time>2018-09-13T05:56:15Z</time>
      </trkpt>
      <trkpt lat="44.79664" lon="6.90291">
        <ele>1777.13</ele>
        <time>2018-09-13T05:56:26Z</time>
      </trkpt>
      <trkpt lat="44.79665" lon="6.90276">
        <ele>1777.61</ele>
        <time>2018-09-13T05:56:36Z</time>
      </trkpt>
      <trkpt lat="44.79666" lon="6.90263">
        <ele>1779.54</ele>
        <time>2018-09-13T05:56:47Z</time>
      </trkpt>
      <trkpt lat="44.79667" lon="6.90249">
        <ele>1781.94</ele>
        <time>2018-09-13T05:57:01Z</time>
      </trkpt>
      <trkpt lat="44.79669" lon="6.90236">
        <ele>1783.38</ele>
        <time>2018-09-13T05:57:14Z</time>
      </trkpt>
      <trkpt lat="44.79671" lon="6.90222">
        <ele>1784.82</ele>
        <time>2018-09-13T05:57:26Z</time>
      </trkpt>
      <trkpt lat="44.7967" lon="6.90209">
        <ele>1787.71</ele>
        <time>2018-09-13T05:57:50Z</time>
      </trkpt>
      <trkpt lat="44.79672" lon="6.90193">
        <ele>1789.15</ele>
        <time>2018-09-13T05:58:02Z</time>
      </trkpt>
      <trkpt lat="44.79677" lon="6.90181">
        <ele>1789.63</ele>
        <time>2018-09-13T05:58:12Z</time>
      </trkpt>
      <trkpt lat="44.79685" lon="6.90171">
        <ele>1789.63</ele>
        <time>2018-09-13T05:58:24Z</time>
      </trkpt>
      <trkpt lat="44.79692" lon="6.90162">
        <ele>1791.07</ele>
        <time>2018-09-13T05:58:36Z</time>
      </trkpt>
      <trkpt lat="44.797" lon="6.90151">
        <ele>1792.52</ele>
        <time>2018-09-13T05:58:49Z</time>
      </trkpt>
      <trkpt lat="44.79709" lon="6.90141">
        <ele>1793</ele>
        <time>2018-09-13T05:58:59Z</time>
      </trkpt>
      <trkpt lat="44.79717" lon="6.90134">
        <ele>1793.96</ele>
        <time>2018-09-13T05:59:09Z</time>
      </trkpt>
      <trkpt lat="44.79726" lon="6.90126">
        <ele>1793.96</ele>
        <time>2018-09-13T05:59:20Z</time>
      </trkpt>
      <trkpt lat="44.79731" lon="6.90113">
        <ele>1795.4</ele>
        <time>2018-09-13T05:59:31Z</time>
      </trkpt>
      <trkpt lat="44.79735" lon="6.901">
        <ele>1796.84</ele>
        <time>2018-09-13T05:59:42Z</time>
      </trkpt>
      <trkpt lat="44.79742" lon="6.90088">
        <ele>1796.36</ele>
        <time>2018-09-13T05:59:52Z</time>
      </trkpt>
      <trkpt lat="44.79748" lon="6.90077">
        <ele>1796.84</ele>
        <time>2018-09-13T06:00:03Z</time>
      </trkpt>
      <trkpt lat="44.79756" lon="6.90067">
        <ele>1798.28</ele>
        <time>2018-09-13T06:00:13Z</time>
      </trkpt>
      <trkpt lat="44.79761" lon="6.90056">
        <ele>1798.28</ele>
        <time>2018-09-13T06:00:23Z</time>
      </trkpt>
      <trkpt lat="44.79767" lon="6.90045">
        <ele>1798.76</ele>
        <time>2018-09-13T06:00:33Z</time>
      </trkpt>
      <trkpt lat="44.79774" lon="6.90035">
        <ele>1798.28</ele>
        <time>2018-09-13T06:00:42Z</time>
      </trkpt>
      <trkpt lat="44.79782" lon="6.90026">
        <ele>1799.24</ele>
        <time>2018-09-13T06:00:51Z</time>
      </trkpt>
      <trkpt lat="44.79789" lon="6.90015">
        <ele>1800.69</ele>
        <time>2018-09-13T06:01:02Z</time>
      </trkpt>
      <trkpt lat="44.79798" lon="6.9001">
        <ele>1802.61</ele>
        <time>2018-09-13T06:01:14Z</time>
      </trkpt>
      <trkpt lat="44.79807" lon="6.90007">
        <ele>1803.57</ele>
        <time>2018-09-13T06:01:26Z</time>
      </trkpt>
      <trkpt lat="44.79817" lon="6.90002">
        <ele>1805.01</ele>
        <time>2018-09-13T06:01:38Z</time>
      </trkpt>
      <trkpt lat="44.79826" lon="6.89994">
        <ele>1805.49</ele>
        <time>2018-09-13T06:01:49Z</time>
      </trkpt>
      <trkpt lat="44.79831" lon="6.89984">
        <ele>1804.53</ele>
        <time>2018-09-13T06:01:58Z</time>
      </trkpt>
      <trkpt lat="44.79838" lon="6.89974">
        <ele>1805.01</ele>
        <time>2018-09-13T06:02:07Z</time>
      </trkpt>
      <trkpt lat="44.79845" lon="6.89964">
        <ele>1805.49</ele>
        <time>2018-09-13T06:02:17Z</time>
      </trkpt>
      <trkpt lat="44.79853" lon="6.89955">
        <ele>1805.01</ele>
        <time>2018-09-13T06:02:26Z</time>
      </trkpt>
      <trkpt lat="44.79861" lon="6.89947">
        <ele>1805.01</ele>
        <time>2018-09-13T06:02:36Z</time>
      </trkpt>
      <trkpt lat="44.79869" lon="6.8994">
        <ele>1806.45</ele>
        <time>2018-09-13T06:02:46Z</time>
      </trkpt>
      <trkpt lat="44.79878" lon="6.89932">
        <ele>1807.42</ele>
        <time>2018-09-13T06:02:56Z</time>
      </trkpt>
      <trkpt lat="44.79887" lon="6.89925">
        <ele>1806.94</ele>
        <time>2018-09-13T06:03:05Z</time>
      </trkpt>
      <trkpt lat="44.79893" lon="6.89915">
        <ele>1808.86</ele>
        <time>2018-09-13T06:03:15Z</time>
      </trkpt>
      <trkpt lat="44.79899" lon="6.89903">
        <ele>1808.38</ele>
        <time>2018-09-13T06:03:24Z</time>
      </trkpt>
      <trkpt lat="44.79905" lon="6.89893">
        <ele>1808.86</ele>
        <time>2018-09-13T06:03:34Z</time>
      </trkpt>
      <trkpt lat="44.79911" lon="6.89883">
        <ele>1808.38</ele>
        <time>2018-09-13T06:03:43Z</time>
      </trkpt>
      <trkpt lat="44.79917" lon="6.89871">
        <ele>1808.86</ele>
        <time>2018-09-13T06:03:52Z</time>
      </trkpt>
      <trkpt lat="44.79919" lon="6.89855">
        <ele>1809.34</ele>
        <time>2018-09-13T06:04:09Z</time>
      </trkpt>
      <trkpt lat="44.79923" lon="6.89844">
        <ele>1808.86</ele>
        <time>2018-09-13T06:04:19Z</time>
      </trkpt>
      <trkpt lat="44.79929" lon="6.89834">
        <ele>1808.86</ele>
        <time>2018-09-13T06:04:28Z</time>
      </trkpt>
      <trkpt lat="44.79934" lon="6.89823">
        <ele>1808.86</ele>
        <time>2018-09-13T06:04:37Z</time>
      </trkpt>
      <trkpt lat="44.79938" lon="6.8981">
        <ele>1810.3</ele>
        <time>2018-09-13T06:04:48Z</time>
      </trkpt>
      <trkpt lat="44.79946" lon="6.89801">
        <ele>1810.3</ele>
        <time>2018-09-13T06:04:58Z</time>
      </trkpt>
      <trkpt lat="44.79955" lon="6.89794">
        <ele>1810.78</ele>
        <time>2018-09-13T06:05:08Z</time>
      </trkpt>
      <trkpt lat="44.79964" lon="6.89787">
        <ele>1811.74</ele>
        <time>2018-09-13T06:05:18Z</time>
      </trkpt>
      <trkpt lat="44.79971" lon="6.89779">
        <ele>1812.22</ele>
        <time>2018-09-13T06:05:28Z</time>
      </trkpt>
      <trkpt lat="44.79982" lon="6.89775">
        <ele>1811.74</ele>
        <time>2018-09-13T06:05:38Z</time>
      </trkpt>
      <trkpt lat="44.79988" lon="6.8977">
        <ele>1813.66</ele>
        <time>2018-09-13T06:05:48Z</time>
      </trkpt>
      <trkpt lat="44.79989" lon="6.89756">
        <ele>1814.15</ele>
        <time>2018-09-13T06:05:59Z</time>
      </trkpt>
      <trkpt lat="44.79991" lon="6.89743">
        <ele>1815.11</ele>
        <time>2018-09-13T06:06:11Z</time>
      </trkpt>
      <trkpt lat="44.79996" lon="6.89729">
        <ele>1817.51</ele>
        <time>2018-09-13T06:06:25Z</time>
      </trkpt>
      <trkpt lat="44.8" lon="6.89713">
        <ele>1818.95</ele>
        <time>2018-09-13T06:06:41Z</time>
      </trkpt>
      <trkpt lat="44.80008" lon="6.897">
        <ele>1821.84</ele>
        <time>2018-09-13T06:07:06Z</time>
      </trkpt>
      <trkpt lat="44.80018" lon="6.89686">
        <ele>1822.8</ele>
        <time>2018-09-13T06:07:25Z</time>
      </trkpt>
      <trkpt lat="44.80027" lon="6.89679">
        <ele>1824.24</ele>
        <time>2018-09-13T06:07:38Z</time>
      </trkpt>
      <trkpt lat="44.80036" lon="6.89673">
        <ele>1825.2</ele>
        <time>2018-09-13T06:07:49Z</time>
      </trkpt>
      <trkpt lat="44.80046" lon="6.89667">
        <ele>1824.24</ele>
        <time>2018-09-13T06:07:59Z</time>
      </trkpt>
      <trkpt lat="44.80055" lon="6.8966">
        <ele>1822.8</ele>
        <time>2018-09-13T06:08:09Z</time>
      </trkpt>
      <trkpt lat="44.80068" lon="6.89659">
        <ele>1824.72</ele>
        <time>2018-09-13T06:08:24Z</time>
      </trkpt>
      <trkpt lat="44.80085" lon="6.89656">
        <ele>1826.16</ele>
        <time>2018-09-13T06:08:40Z</time>
      </trkpt>
      <trkpt lat="44.80095" lon="6.89645">
        <ele>1829.53</ele>
        <time>2018-09-13T06:09:07Z</time>
      </trkpt>
      <trkpt lat="44.8009" lon="6.8963">
        <ele>1831.45</ele>
        <time>2018-09-13T06:09:25Z</time>
      </trkpt>
      <trkpt lat="44.80084" lon="6.8962">
        <ele>1833.37</ele>
        <time>2018-09-13T06:09:47Z</time>
      </trkpt>
      <trkpt lat="44.80093" lon="6.89617">
        <ele>1836.74</ele>
        <time>2018-09-13T06:10:07Z</time>
      </trkpt>
      <trkpt lat="44.8009" lon="6.89608">
        <ele>1839.14</ele>
        <time>2018-09-13T06:10:27Z</time>
      </trkpt>
      <trkpt lat="44.80096" lon="6.89607">
        <ele>1841.06</ele>
        <time>2018-09-13T06:10:47Z</time>
      </trkpt>
      <trkpt lat="44.80089" lon="6.89601">
        <ele>1843.47</ele>
        <time>2018-09-13T06:11:08Z</time>
      </trkpt>
      <trkpt lat="44.80094" lon="6.89589">
        <ele>1846.35</ele>
        <time>2018-09-13T06:11:30Z</time>
      </trkpt>
      <trkpt lat="44.80098" lon="6.89575">
        <ele>1847.79</ele>
        <time>2018-09-13T06:11:48Z</time>
      </trkpt>
      <trkpt lat="44.801" lon="6.89563">
        <ele>1847.79</ele>
        <time>2018-09-13T06:12:19Z</time>
      </trkpt>
      <trkpt lat="44.80103" lon="6.89547">
        <ele>1847.79</ele>
        <time>2018-09-13T06:12:48Z</time>
      </trkpt>
      <trkpt lat="44.80112" lon="6.89536">
        <ele>1847.31</ele>
        <time>2018-09-13T06:12:59Z</time>
      </trkpt>
      <trkpt lat="44.8012" lon="6.89526">
        <ele>1847.79</ele>
        <time>2018-09-13T06:13:13Z</time>
      </trkpt>
      <trkpt lat="44.80125" lon="6.89517">
        <ele>1847.79</ele>
        <time>2018-09-13T06:13:32Z</time>
      </trkpt>
      <trkpt lat="44.80131" lon="6.89504">
        <ele>1848.27</ele>
        <time>2018-09-13T06:13:43Z</time>
      </trkpt>
      <trkpt lat="44.80138" lon="6.89494">
        <ele>1848.75</ele>
        <time>2018-09-13T06:13:55Z</time>
      </trkpt>
      <trkpt lat="44.80147" lon="6.89488">
        <ele>1850.68</ele>
        <time>2018-09-13T06:14:09Z</time>
      </trkpt>
      <trkpt lat="44.80156" lon="6.89478">
        <ele>1852.12</ele>
        <time>2018-09-13T06:14:26Z</time>
      </trkpt>
      <trkpt lat="44.80167" lon="6.89473">
        <ele>1852.12</ele>
        <time>2018-09-13T06:14:38Z</time>
      </trkpt>
      <trkpt lat="44.80177" lon="6.89466">
        <ele>1853.08</ele>
        <time>2018-09-13T06:14:50Z</time>
      </trkpt>
      <trkpt lat="44.80187" lon="6.89461">
        <ele>1854.04</ele>
        <time>2018-09-13T06:15:00Z</time>
      </trkpt>
      <trkpt lat="44.802" lon="6.8946">
        <ele>1854.04</ele>
        <time>2018-09-13T06:15:14Z</time>
      </trkpt>
      <trkpt lat="44.80215" lon="6.89466">
        <ele>1855.96</ele>
        <time>2018-09-13T06:15:29Z</time>
      </trkpt>
      <trkpt lat="44.80221" lon="6.89463">
        <ele>1855.96</ele>
        <time>2018-09-13T06:15:41Z</time>
      </trkpt>
      <trkpt lat="44.80226" lon="6.8945">
        <ele>1857.89</ele>
        <time>2018-09-13T06:15:55Z</time>
      </trkpt>
      <trkpt lat="44.8023" lon="6.89438">
        <ele>1858.85</ele>
        <time>2018-09-13T06:16:08Z</time>
      </trkpt>
      <trkpt lat="44.80237" lon="6.89428">
        <ele>1860.77</ele>
        <time>2018-09-13T06:16:24Z</time>
      </trkpt>
      <trkpt lat="44.80244" lon="6.89418">
        <ele>1863.17</ele>
        <time>2018-09-13T06:16:42Z</time>
      </trkpt>
      <trkpt lat="44.8025" lon="6.89407">
        <ele>1865.58</ele>
        <time>2018-09-13T06:16:58Z</time>
      </trkpt>
      <trkpt lat="44.80258" lon="6.89397">
        <ele>1867.02</ele>
        <time>2018-09-13T06:17:14Z</time>
      </trkpt>
      <trkpt lat="44.80265" lon="6.89387">
        <ele>1868.46</ele>
        <time>2018-09-13T06:17:28Z</time>
      </trkpt>
      <trkpt lat="44.8027" lon="6.89376">
        <ele>1870.38</ele>
        <time>2018-09-13T06:17:46Z</time>
      </trkpt>
      <trkpt lat="44.80273" lon="6.89363">
        <ele>1872.79</ele>
        <time>2018-09-13T06:18:02Z</time>
      </trkpt>
      <trkpt lat="44.80276" lon="6.8935">
        <ele>1875.19</ele>
        <time>2018-09-13T06:18:20Z</time>
      </trkpt>
      <trkpt lat="44.80282" lon="6.89338">
        <ele>1876.63</ele>
        <time>2018-09-13T06:18:35Z</time>
      </trkpt>
      <trkpt lat="44.80284" lon="6.89324">
        <ele>1878.07</ele>
        <time>2018-09-13T06:18:50Z</time>
      </trkpt>
      <trkpt lat="44.80286" lon="6.8931">
        <ele>1880.48</ele>
        <time>2018-09-13T06:19:07Z</time>
      </trkpt>
      <trkpt lat="44.80292" lon="6.89299">
        <ele>1882.4</ele>
        <time>2018-09-13T06:19:25Z</time>
      </trkpt>
      <trkpt lat="44.80293" lon="6.89286">
        <ele>1883.84</ele>
        <time>2018-09-13T06:19:41Z</time>
      </trkpt>
      <trkpt lat="44.80295" lon="6.89276">
        <ele>1885.76</ele>
        <time>2018-09-13T06:20:00Z</time>
      </trkpt>
      <trkpt lat="44.80301" lon="6.89263">
        <ele>1888.17</ele>
        <time>2018-09-13T06:20:17Z</time>
      </trkpt>
      <trkpt lat="44.80309" lon="6.89254">
        <ele>1889.13</ele>
        <time>2018-09-13T06:20:29Z</time>
      </trkpt>
      <trkpt lat="44.80312" lon="6.89242">
        <ele>1891.53</ele>
        <time>2018-09-13T06:20:47Z</time>
      </trkpt>
      <trkpt lat="44.8032" lon="6.89235">
        <ele>1893.45</ele>
        <time>2018-09-13T06:21:05Z</time>
      </trkpt>
      <trkpt lat="44.80327" lon="6.89224">
        <ele>1895.86</ele>
        <time>2018-09-13T06:21:23Z</time>
      </trkpt>
      <trkpt lat="44.80334" lon="6.89214">
        <ele>1896.82</ele>
        <time>2018-09-13T06:21:36Z</time>
      </trkpt>
      <trkpt lat="44.80344" lon="6.89208">
        <ele>1897.78</ele>
        <time>2018-09-13T06:21:49Z</time>
      </trkpt>
      <trkpt lat="44.80352" lon="6.89204">
        <ele>1899.22</ele>
        <time>2018-09-13T06:22:01Z</time>
      </trkpt>
      <trkpt lat="44.80358" lon="6.89196">
        <ele>1900.18</ele>
        <time>2018-09-13T06:22:14Z</time>
      </trkpt>
      <trkpt lat="44.80366" lon="6.89183">
        <ele>1902.11</ele>
        <time>2018-09-13T06:22:30Z</time>
      </trkpt>
      <trkpt lat="44.80376" lon="6.89174">
        <ele>1904.51</ele>
        <time>2018-09-13T06:22:46Z</time>
      </trkpt>
      <trkpt lat="44.80381" lon="6.89167">
        <ele>1907.39</ele>
        <time>2018-09-13T06:23:05Z</time>
      </trkpt>
      <trkpt lat="44.80387" lon="6.89154">
        <ele>1907.87</ele>
        <time>2018-09-13T06:23:17Z</time>
      </trkpt>
      <trkpt lat="44.80395" lon="6.89145">
        <ele>1909.8</ele>
        <time>2018-09-13T06:23:33Z</time>
      </trkpt>
      <trkpt lat="44.80402" lon="6.89132">
        <ele>1911.72</ele>
        <time>2018-09-13T06:23:53Z</time>
      </trkpt>
      <trkpt lat="44.80409" lon="6.89121">
        <ele>1913.16</ele>
        <time>2018-09-13T06:24:09Z</time>
      </trkpt>
      <trkpt lat="44.80416" lon="6.89112">
        <ele>1911.72</ele>
        <time>2018-09-13T06:24:19Z</time>
      </trkpt>
      <trkpt lat="44.80427" lon="6.89108">
        <ele>1912.2</ele>
        <time>2018-09-13T06:24:30Z</time>
      </trkpt>
      <trkpt lat="44.80437" lon="6.89107">
        <ele>1913.64</ele>
        <time>2018-09-13T06:24:42Z</time>
      </trkpt>
      <trkpt lat="44.80446" lon="6.89102">
        <ele>1913.16</ele>
        <time>2018-09-13T06:24:53Z</time>
      </trkpt>
      <trkpt lat="44.80455" lon="6.89094">
        <ele>1914.6</ele>
        <time>2018-09-13T06:25:06Z</time>
      </trkpt>
      <trkpt lat="44.80462" lon="6.89086">
        <ele>1916.53</ele>
        <time>2018-09-13T06:25:22Z</time>
      </trkpt>
      <trkpt lat="44.80468" lon="6.89074">
        <ele>1918.45</ele>
        <time>2018-09-13T06:25:35Z</time>
      </trkpt>
      <trkpt lat="44.80472" lon="6.89061">
        <ele>1920.85</ele>
        <time>2018-09-13T06:25:51Z</time>
      </trkpt>
      <trkpt lat="44.80479" lon="6.89053">
        <ele>1922.29</ele>
        <time>2018-09-13T06:26:05Z</time>
      </trkpt>
      <trkpt lat="44.80486" lon="6.89044">
        <ele>1923.25</ele>
        <time>2018-09-13T06:26:16Z</time>
      </trkpt>
      <trkpt lat="44.80495" lon="6.89037">
        <ele>1923.74</ele>
        <time>2018-09-13T06:26:27Z</time>
      </trkpt>
      <trkpt lat="44.80503" lon="6.89026">
        <ele>1924.7</ele>
        <time>2018-09-13T06:26:40Z</time>
      </trkpt>
      <trkpt lat="44.8051" lon="6.89016">
        <ele>1925.18</ele>
        <time>2018-09-13T06:26:51Z</time>
      </trkpt>
      <trkpt lat="44.80517" lon="6.89006">
        <ele>1925.66</ele>
        <time>2018-09-13T06:27:02Z</time>
      </trkpt>
      <trkpt lat="44.80524" lon="6.88997">
        <ele>1926.14</ele>
        <time>2018-09-13T06:27:16Z</time>
      </trkpt>
      <trkpt lat="44.80534" lon="6.88991">
        <ele>1926.62</ele>
        <time>2018-09-13T06:27:27Z</time>
      </trkpt>
      <trkpt lat="44.80545" lon="6.88984">
        <ele>1927.1</ele>
        <time>2018-09-13T06:27:38Z</time>
      </trkpt>
      <trkpt lat="44.80554" lon="6.88981">
        <ele>1926.14</ele>
        <time>2018-09-13T06:27:49Z</time>
      </trkpt>
      <trkpt lat="44.80567" lon="6.88978">
        <ele>1925.66</ele>
        <time>2018-09-13T06:28:01Z</time>
      </trkpt>
      <trkpt lat="44.80573" lon="6.88966">
        <ele>1926.62</ele>
        <time>2018-09-13T06:28:12Z</time>
      </trkpt>
      <trkpt lat="44.8058" lon="6.88952">
        <ele>1927.1</ele>
        <time>2018-09-13T06:28:24Z</time>
      </trkpt>
      <trkpt lat="44.80587" lon="6.8894">
        <ele>1927.58</ele>
        <time>2018-09-13T06:28:35Z</time>
      </trkpt>
      <trkpt lat="44.80596" lon="6.88933">
        <ele>1928.54</ele>
        <time>2018-09-13T06:28:47Z</time>
      </trkpt>
      <trkpt lat="44.80605" lon="6.88925">
        <ele>1929.98</ele>
        <time>2018-09-13T06:29:00Z</time>
      </trkpt>
      <trkpt lat="44.80615" lon="6.88914">
        <ele>1930.95</ele>
        <time>2018-09-13T06:29:12Z</time>
      </trkpt>
      <trkpt lat="44.80624" lon="6.88906">
        <ele>1931.91</ele>
        <time>2018-09-13T06:29:25Z</time>
      </trkpt>
      <trkpt lat="44.80633" lon="6.889">
        <ele>1931.43</ele>
        <time>2018-09-13T06:29:35Z</time>
      </trkpt>
      <trkpt lat="44.8064" lon="6.88891">
        <ele>1931.43</ele>
        <time>2018-09-13T06:29:46Z</time>
      </trkpt>
      <trkpt lat="44.80649" lon="6.88883">
        <ele>1934.31</ele>
        <time>2018-09-13T06:30:00Z</time>
      </trkpt>
      <trkpt lat="44.80661" lon="6.88879">
        <ele>1935.75</ele>
        <time>2018-09-13T06:30:14Z</time>
      </trkpt>
      <trkpt lat="44.80671" lon="6.88877">
        <ele>1937.19</ele>
        <time>2018-09-13T06:30:29Z</time>
      </trkpt>
      <trkpt lat="44.80681" lon="6.88877">
        <ele>1939.6</ele>
        <time>2018-09-13T06:30:51Z</time>
      </trkpt>
      <trkpt lat="44.80692" lon="6.88875">
        <ele>1941.04</ele>
        <time>2018-09-13T06:31:07Z</time>
      </trkpt>
      <trkpt lat="44.80702" lon="6.88874">
        <ele>1943.44</ele>
        <time>2018-09-13T06:31:23Z</time>
      </trkpt>
      <trkpt lat="44.8071" lon="6.8887">
        <ele>1945.85</ele>
        <time>2018-09-13T06:31:38Z</time>
      </trkpt>
      <trkpt lat="44.80719" lon="6.88864">
        <ele>1945.85</ele>
        <time>2018-09-13T06:31:52Z</time>
      </trkpt>
      <trkpt lat="44.80729" lon="6.88864">
        <ele>1947.77</ele>
        <time>2018-09-13T06:32:06Z</time>
      </trkpt>
      <trkpt lat="44.80737" lon="6.88851">
        <ele>1949.21</ele>
        <time>2018-09-13T06:32:20Z</time>
      </trkpt>
      <trkpt lat="44.80745" lon="6.88851">
        <ele>1952.09</ele>
        <time>2018-09-13T06:32:40Z</time>
      </trkpt>
      <trkpt lat="44.80753" lon="6.88846">
        <ele>1954.5</ele>
        <time>2018-09-13T06:32:57Z</time>
      </trkpt>
      <trkpt lat="44.80763" lon="6.88843">
        <ele>1957.86</ele>
        <time>2018-09-13T06:33:21Z</time>
      </trkpt>
      <trkpt lat="44.8077" lon="6.8883">
        <ele>1959.3</ele>
        <time>2018-09-13T06:33:36Z</time>
      </trkpt>
      <trkpt lat="44.8078" lon="6.88822">
        <ele>1961.71</ele>
        <time>2018-09-13T06:33:55Z</time>
      </trkpt>
      <trkpt lat="44.80783" lon="6.88813">
        <ele>1965.07</ele>
        <time>2018-09-13T06:34:14Z</time>
      </trkpt>
      <trkpt lat="44.80787" lon="6.88799">
        <ele>1967.48</ele>
        <time>2018-09-13T06:34:31Z</time>
      </trkpt>
      <trkpt lat="44.80791" lon="6.88787">
        <ele>1968.92</ele>
        <time>2018-09-13T06:34:46Z</time>
      </trkpt>
      <trkpt lat="44.80799" lon="6.88777">
        <ele>1971.8</ele>
        <time>2018-09-13T06:35:04Z</time>
      </trkpt>
      <trkpt lat="44.80807" lon="6.88768">
        <ele>1974.69</ele>
        <time>2018-09-13T06:35:24Z</time>
      </trkpt>
      <trkpt lat="44.80816" lon="6.88761">
        <ele>1977.09</ele>
        <time>2018-09-13T06:35:43Z</time>
      </trkpt>
      <trkpt lat="44.80824" lon="6.8875">
        <ele>1979.01</ele>
        <time>2018-09-13T06:36:00Z</time>
      </trkpt>
      <trkpt lat="44.80836" lon="6.88754">
        <ele>1981.9</ele>
        <time>2018-09-13T06:36:17Z</time>
      </trkpt>
      <trkpt lat="44.80845" lon="6.88749">
        <ele>1983.34</ele>
        <time>2018-09-13T06:36:34Z</time>
      </trkpt>
      <trkpt lat="44.80857" lon="6.88749">
        <ele>1984.3</ele>
        <time>2018-09-13T06:36:51Z</time>
      </trkpt>
      <trkpt lat="44.80867" lon="6.88755">
        <ele>1987.66</ele>
        <time>2018-09-13T06:37:10Z</time>
      </trkpt>
      <trkpt lat="44.80878" lon="6.88761">
        <ele>1989.59</ele>
        <time>2018-09-13T06:37:28Z</time>
      </trkpt>
      <trkpt lat="44.80888" lon="6.88769">
        <ele>1991.99</ele>
        <time>2018-09-13T06:37:48Z</time>
      </trkpt>
      <trkpt lat="44.80898" lon="6.88775">
        <ele>1994.87</ele>
        <time>2018-09-13T06:38:11Z</time>
      </trkpt>
      <trkpt lat="44.80907" lon="6.8877">
        <ele>1997.76</ele>
        <time>2018-09-13T06:38:28Z</time>
      </trkpt>
      <trkpt lat="44.80916" lon="6.88765">
        <ele>2000.16</ele>
        <time>2018-09-13T06:38:44Z</time>
      </trkpt>
      <trkpt lat="44.80922" lon="6.88753">
        <ele>2001.6</ele>
        <time>2018-09-13T06:38:58Z</time>
      </trkpt>
      <trkpt lat="44.80931" lon="6.88748">
        <ele>2001.12</ele>
        <time>2018-09-13T06:39:09Z</time>
      </trkpt>
      <trkpt lat="44.80941" lon="6.88745">
        <ele>2003.04</ele>
        <time>2018-09-13T06:39:21Z</time>
      </trkpt>
      <trkpt lat="44.80949" lon="6.8874">
        <ele>2005.45</ele>
        <time>2018-09-13T06:39:37Z</time>
      </trkpt>
      <trkpt lat="44.80955" lon="6.88728">
        <ele>2007.37</ele>
        <time>2018-09-13T06:39:54Z</time>
      </trkpt>
      <trkpt lat="44.80962" lon="6.88718">
        <ele>2009.77</ele>
        <time>2018-09-13T06:40:09Z</time>
      </trkpt>
      <trkpt lat="44.80967" lon="6.88705">
        <ele>2010.73</ele>
        <time>2018-09-13T06:40:22Z</time>
      </trkpt>
      <trkpt lat="44.80975" lon="6.88696">
        <ele>2012.18</ele>
        <time>2018-09-13T06:40:34Z</time>
      </trkpt>
      <trkpt lat="44.80984" lon="6.88686">
        <ele>2013.14</ele>
        <time>2018-09-13T06:40:49Z</time>
      </trkpt>
      <trkpt lat="44.80992" lon="6.88678">
        <ele>2014.58</ele>
        <time>2018-09-13T06:41:01Z</time>
      </trkpt>
      <trkpt lat="44.81003" lon="6.88679">
        <ele>2016.02</ele>
        <time>2018-09-13T06:41:13Z</time>
      </trkpt>
      <trkpt lat="44.81013" lon="6.88677">
        <ele>2016.02</ele>
        <time>2018-09-13T06:41:24Z</time>
      </trkpt>
      <trkpt lat="44.81024" lon="6.88679">
        <ele>2016.5</ele>
        <time>2018-09-13T06:41:35Z</time>
      </trkpt>
      <trkpt lat="44.81034" lon="6.88677">
        <ele>2016.98</ele>
        <time>2018-09-13T06:41:45Z</time>
      </trkpt>
      <trkpt lat="44.81045" lon="6.88677">
        <ele>2017.94</ele>
        <time>2018-09-13T06:41:55Z</time>
      </trkpt>
      <trkpt lat="44.81054" lon="6.88679">
        <ele>2017.46</ele>
        <time>2018-09-13T06:42:06Z</time>
      </trkpt>
      <trkpt lat="44.81061" lon="6.88672">
        <ele>2017.94</ele>
        <time>2018-09-13T06:42:16Z</time>
      </trkpt>
      <trkpt lat="44.81071" lon="6.88668">
        <ele>2018.43</ele>
        <time>2018-09-13T06:42:26Z</time>
      </trkpt>
      <trkpt lat="44.8108" lon="6.88664">
        <ele>2017.94</ele>
        <time>2018-09-13T06:42:35Z</time>
      </trkpt>
      <trkpt lat="44.81088" lon="6.88657">
        <ele>2018.43</ele>
        <time>2018-09-13T06:42:46Z</time>
      </trkpt>
      <trkpt lat="44.81098" lon="6.88651">
        <ele>2019.39</ele>
        <time>2018-09-13T06:42:58Z</time>
      </trkpt>
      <trkpt lat="44.81113" lon="6.88658">
        <ele>2019.87</ele>
        <time>2018-09-13T06:43:13Z</time>
      </trkpt>
      <trkpt lat="44.81125" lon="6.88655">
        <ele>2021.31</ele>
        <time>2018-09-13T06:43:25Z</time>
      </trkpt>
      <trkpt lat="44.81139" lon="6.88656">
        <ele>2022.27</ele>
        <time>2018-09-13T06:43:40Z</time>
      </trkpt>
      <trkpt lat="44.81153" lon="6.88648">
        <ele>2024.19</ele>
        <time>2018-09-13T06:43:54Z</time>
      </trkpt>
      <trkpt lat="44.81162" lon="6.88644">
        <ele>2025.15</ele>
        <time>2018-09-13T06:44:08Z</time>
      </trkpt>
      <trkpt lat="44.81173" lon="6.88649">
        <ele>2027.56</ele>
        <time>2018-09-13T06:44:21Z</time>
      </trkpt>
      <trkpt lat="44.81185" lon="6.8865">
        <ele>2027.56</ele>
        <time>2018-09-13T06:44:34Z</time>
      </trkpt>
      <trkpt lat="44.81197" lon="6.88653">
        <ele>2029</ele>
        <time>2018-09-13T06:44:49Z</time>
      </trkpt>
      <trkpt lat="44.81207" lon="6.88654">
        <ele>2030.44</ele>
        <time>2018-09-13T06:45:02Z</time>
      </trkpt>
      <trkpt lat="44.81218" lon="6.88658">
        <ele>2030.92</ele>
        <time>2018-09-13T06:45:15Z</time>
      </trkpt>
      <trkpt lat="44.8123" lon="6.88658">
        <ele>2030.44</ele>
        <time>2018-09-13T06:45:27Z</time>
      </trkpt>
      <trkpt lat="44.81239" lon="6.88652">
        <ele>2029.48</ele>
        <time>2018-09-13T06:45:35Z</time>
      </trkpt>
      <trkpt lat="44.81248" lon="6.88649">
        <ele>2029.96</ele>
        <time>2018-09-13T06:45:46Z</time>
      </trkpt>
      <trkpt lat="44.81258" lon="6.8865">
        <ele>2032.84</ele>
        <time>2018-09-13T06:46:03Z</time>
      </trkpt>
      <trkpt lat="44.81272" lon="6.8865">
        <ele>2033.33</ele>
        <time>2018-09-13T06:46:17Z</time>
      </trkpt>
      <trkpt lat="44.81284" lon="6.88648">
        <ele>2034.29</ele>
        <time>2018-09-13T06:46:30Z</time>
      </trkpt>
      <trkpt lat="44.81292" lon="6.88639">
        <ele>2036.21</ele>
        <time>2018-09-13T06:46:42Z</time>
      </trkpt>
      <trkpt lat="44.81303" lon="6.8864">
        <ele>2035.73</ele>
        <time>2018-09-13T06:46:52Z</time>
      </trkpt>
      <trkpt lat="44.81315" lon="6.88648">
        <ele>2034.29</ele>
        <time>2018-09-13T06:47:12Z</time>
      </trkpt>
      <trkpt lat="44.81328" lon="6.8865">
        <ele>2035.73</ele>
        <time>2018-09-13T06:47:23Z</time>
      </trkpt>
      <trkpt lat="44.81341" lon="6.8865">
        <ele>2035.73</ele>
        <time>2018-09-13T06:47:35Z</time>
      </trkpt>
      <trkpt lat="44.8135" lon="6.88643">
        <ele>2036.21</ele>
        <time>2018-09-13T06:47:46Z</time>
      </trkpt>
      <trkpt lat="44.81363" lon="6.88644">
        <ele>2033.33</ele>
        <time>2018-09-13T06:48:01Z</time>
      </trkpt>
      <trkpt lat="44.81375" lon="6.88644">
        <ele>2034.29</ele>
        <time>2018-09-13T06:48:13Z</time>
      </trkpt>
      <trkpt lat="44.81385" lon="6.88637">
        <ele>2034.29</ele>
        <time>2018-09-13T06:48:26Z</time>
      </trkpt>
      <trkpt lat="44.81395" lon="6.88639">
        <ele>2035.25</ele>
        <time>2018-09-13T06:48:38Z</time>
      </trkpt>
      <trkpt lat="44.81405" lon="6.88634">
        <ele>2036.21</ele>
        <time>2018-09-13T06:48:49Z</time>
      </trkpt>
      <trkpt lat="44.81416" lon="6.88632">
        <ele>2035.73</ele>
        <time>2018-09-13T06:48:59Z</time>
      </trkpt>
      <trkpt lat="44.81424" lon="6.88623">
        <ele>2037.65</ele>
        <time>2018-09-13T06:49:09Z</time>
      </trkpt>
      <trkpt lat="44.81433" lon="6.88615">
        <ele>2036.69</ele>
        <time>2018-09-13T06:49:18Z</time>
      </trkpt>
      <trkpt lat="44.81443" lon="6.88613">
        <ele>2036.21</ele>
        <time>2018-09-13T06:49:27Z</time>
      </trkpt>
      <trkpt lat="44.81453" lon="6.88608">
        <ele>2036.69</ele>
        <time>2018-09-13T06:49:38Z</time>
      </trkpt>
      <trkpt lat="44.81461" lon="6.88602">
        <ele>2038.13</ele>
        <time>2018-09-13T06:49:48Z</time>
      </trkpt>
      <trkpt lat="44.81471" lon="6.88596">
        <ele>2038.13</ele>
        <time>2018-09-13T06:50:01Z</time>
      </trkpt>
      <trkpt lat="44.81478" lon="6.88586">
        <ele>2038.13</ele>
        <time>2018-09-13T06:50:11Z</time>
      </trkpt>
      <trkpt lat="44.81485" lon="6.88578">
        <ele>2038.61</ele>
        <time>2018-09-13T06:50:20Z</time>
      </trkpt>
      <trkpt lat="44.81492" lon="6.88566">
        <ele>2039.57</ele>
        <time>2018-09-13T06:50:30Z</time>
      </trkpt>
      <trkpt lat="44.81499" lon="6.88555">
        <ele>2040.05</ele>
        <time>2018-09-13T06:50:39Z</time>
      </trkpt>
      <trkpt lat="44.81507" lon="6.88548">
        <ele>2041.02</ele>
        <time>2018-09-13T06:50:49Z</time>
      </trkpt>
      <trkpt lat="44.81516" lon="6.88539">
        <ele>2041.98</ele>
        <time>2018-09-13T06:51:00Z</time>
      </trkpt>
      <trkpt lat="44.81525" lon="6.88533">
        <ele>2042.46</ele>
        <time>2018-09-13T06:51:11Z</time>
      </trkpt>
      <trkpt lat="44.81534" lon="6.88525">
        <ele>2043.42</ele>
        <time>2018-09-13T06:51:21Z</time>
      </trkpt>
      <trkpt lat="44.81543" lon="6.88518">
        <ele>2043.9</ele>
        <time>2018-09-13T06:51:31Z</time>
      </trkpt>
      <trkpt lat="44.81553" lon="6.88511">
        <ele>2043.9</ele>
        <time>2018-09-13T06:51:41Z</time>
      </trkpt>
      <trkpt lat="44.81562" lon="6.88507">
        <ele>2043.9</ele>
        <time>2018-09-13T06:51:50Z</time>
      </trkpt>
      <trkpt lat="44.81572" lon="6.88504">
        <ele>2043.9</ele>
        <time>2018-09-13T06:51:59Z</time>
      </trkpt>
      <trkpt lat="44.8158" lon="6.88497">
        <ele>2043.42</ele>
        <time>2018-09-13T06:52:09Z</time>
      </trkpt>
      <trkpt lat="44.81585" lon="6.88481">
        <ele>2043.9</ele>
        <time>2018-09-13T06:52:21Z</time>
      </trkpt>
      <trkpt lat="44.81587" lon="6.88465">
        <ele>2044.38</ele>
        <time>2018-09-13T06:52:31Z</time>
      </trkpt>
      <trkpt lat="44.81596" lon="6.88458">
        <ele>2044.38</ele>
        <time>2018-09-13T06:52:42Z</time>
      </trkpt>
      <trkpt lat="44.81604" lon="6.88443">
        <ele>2045.34</ele>
        <time>2018-09-13T06:52:56Z</time>
      </trkpt>
      <trkpt lat="44.81613" lon="6.88429">
        <ele>2046.3</ele>
        <time>2018-09-13T06:53:09Z</time>
      </trkpt>
      <trkpt lat="44.81621" lon="6.88418">
        <ele>2046.78</ele>
        <time>2018-09-13T06:53:21Z</time>
      </trkpt>
      <trkpt lat="44.81629" lon="6.88408">
        <ele>2047.75</ele>
        <time>2018-09-13T06:53:32Z</time>
      </trkpt>
      <trkpt lat="44.81638" lon="6.88394">
        <ele>2048.23</ele>
        <time>2018-09-13T06:53:46Z</time>
      </trkpt>
      <trkpt lat="44.81643" lon="6.88374">
        <ele>2049.19</ele>
        <time>2018-09-13T06:53:59Z</time>
      </trkpt>
      <trkpt lat="44.81647" lon="6.88353">
        <ele>2049.67</ele>
        <time>2018-09-13T06:54:13Z</time>
      </trkpt>
      <trkpt lat="44.81646" lon="6.88339">
        <ele>2050.63</ele>
        <time>2018-09-13T06:54:23Z</time>
      </trkpt>
      <trkpt lat="44.81637" lon="6.88331">
        <ele>2051.11</ele>
        <time>2018-09-13T06:54:35Z</time>
      </trkpt>
      <trkpt lat="44.81629" lon="6.8832">
        <ele>2051.59</ele>
        <time>2018-09-13T06:54:48Z</time>
      </trkpt>
      <trkpt lat="44.81631" lon="6.88315">
        <ele>2054.96</ele>
        <time>2018-09-13T07:01:13Z</time>
      </trkpt>
      <trkpt lat="44.81634" lon="6.88297">
        <ele>2056.4</ele>
        <time>2018-09-13T07:02:08Z</time>
      </trkpt>
      <trkpt lat="44.81633" lon="6.88291">
        <ele>2058.8</ele>
        <time>2018-09-13T07:02:24Z</time>
      </trkpt>
      <trkpt lat="44.81627" lon="6.88279">
        <ele>2060.72</ele>
        <time>2018-09-13T07:02:45Z</time>
      </trkpt>
      <trkpt lat="44.81621" lon="6.88271">
        <ele>2063.61</ele>
        <time>2018-09-13T07:03:04Z</time>
      </trkpt>
      <trkpt lat="44.81621" lon="6.8826">
        <ele>2066.49</ele>
        <time>2018-09-13T07:03:29Z</time>
      </trkpt>
      <trkpt lat="44.81614" lon="6.88246">
        <ele>2069.38</ele>
        <time>2018-09-13T07:03:55Z</time>
      </trkpt>
      <trkpt lat="44.81628" lon="6.88237">
        <ele>2071.78</ele>
        <time>2018-09-13T07:04:20Z</time>
      </trkpt>
      <trkpt lat="44.81643" lon="6.88237">
        <ele>2078.99</ele>
        <time>2018-09-13T07:05:03Z</time>
      </trkpt>
      <trkpt lat="44.81656" lon="6.8824">
        <ele>2084.28</ele>
        <time>2018-09-13T07:05:37Z</time>
      </trkpt>
      <trkpt lat="44.81666" lon="6.88247">
        <ele>2089.08</ele>
        <time>2018-09-13T07:06:16Z</time>
      </trkpt>
      <trkpt lat="44.81675" lon="6.88252">
        <ele>2091.49</ele>
        <time>2018-09-13T07:06:33Z</time>
      </trkpt>
      <trkpt lat="44.81684" lon="6.88248">
        <ele>2091.97</ele>
        <time>2018-09-13T07:06:48Z</time>
      </trkpt>
      <trkpt lat="44.81694" lon="6.88247">
        <ele>2097.73</ele>
        <time>2018-09-13T07:07:07Z</time>
      </trkpt>
      <trkpt lat="44.81703" lon="6.88243">
        <ele>2094.85</ele>
        <time>2018-09-13T07:07:19Z</time>
      </trkpt>
      <trkpt lat="44.81712" lon="6.88242">
        <ele>2100.14</ele>
        <time>2018-09-13T07:07:33Z</time>
      </trkpt>
      <trkpt lat="44.81721" lon="6.88238">
        <ele>2098.21</ele>
        <time>2018-09-13T07:07:45Z</time>
      </trkpt>
      <trkpt lat="44.81727" lon="6.88228">
        <ele>2099.66</ele>
        <time>2018-09-13T07:07:56Z</time>
      </trkpt>
      <trkpt lat="44.81732" lon="6.88215">
        <ele>2100.62</ele>
        <time>2018-09-13T07:08:08Z</time>
      </trkpt>
      <trkpt lat="44.81741" lon="6.88208">
        <ele>2101.58</ele>
        <time>2018-09-13T07:08:19Z</time>
      </trkpt>
      <trkpt lat="44.8175" lon="6.882">
        <ele>2104.94</ele>
        <time>2018-09-13T07:08:30Z</time>
      </trkpt>
      <trkpt lat="44.81759" lon="6.88196">
        <ele>2104.94</ele>
        <time>2018-09-13T07:08:40Z</time>
      </trkpt>
      <trkpt lat="44.81769" lon="6.88194">
        <ele>2103.98</ele>
        <time>2018-09-13T07:08:50Z</time>
      </trkpt>
      <trkpt lat="44.81777" lon="6.88196">
        <ele>2106.39</ele>
        <time>2018-09-13T07:09:04Z</time>
      </trkpt>
      <trkpt lat="44.81784" lon="6.88186">
        <ele>2109.75</ele>
        <time>2018-09-13T07:09:16Z</time>
      </trkpt>
      <trkpt lat="44.81792" lon="6.8818">
        <ele>2109.27</ele>
        <time>2018-09-13T07:09:29Z</time>
      </trkpt>
      <trkpt lat="44.81799" lon="6.88168">
        <ele>2113.12</ele>
        <time>2018-09-13T07:09:47Z</time>
      </trkpt>
      <trkpt lat="44.81809" lon="6.88162">
        <ele>2111.67</ele>
        <time>2018-09-13T07:09:57Z</time>
      </trkpt>
      <trkpt lat="44.81816" lon="6.88155">
        <ele>2111.67</ele>
        <time>2018-09-13T07:10:07Z</time>
      </trkpt>
      <trkpt lat="44.81826" lon="6.88148">
        <ele>2115.04</ele>
        <time>2018-09-13T07:10:20Z</time>
      </trkpt>
      <trkpt lat="44.81835" lon="6.88141">
        <ele>2115.52</ele>
        <time>2018-09-13T07:10:32Z</time>
      </trkpt>
      <trkpt lat="44.81845" lon="6.88137">
        <ele>2118.4</ele>
        <time>2018-09-13T07:10:49Z</time>
      </trkpt>
      <trkpt lat="44.81855" lon="6.88128">
        <ele>2121.77</ele>
        <time>2018-09-13T07:11:06Z</time>
      </trkpt>
      <trkpt lat="44.81864" lon="6.88124">
        <ele>2123.21</ele>
        <time>2018-09-13T07:11:21Z</time>
      </trkpt>
      <trkpt lat="44.81874" lon="6.88116">
        <ele>2123.69</ele>
        <time>2018-09-13T07:11:35Z</time>
      </trkpt>
      <trkpt lat="44.81884" lon="6.88114">
        <ele>2126.57</ele>
        <time>2018-09-13T07:11:48Z</time>
      </trkpt>
      <trkpt lat="44.81893" lon="6.88107">
        <ele>2127.53</ele>
        <time>2018-09-13T07:12:01Z</time>
      </trkpt>
      <trkpt lat="44.81903" lon="6.88104">
        <ele>2128.5</ele>
        <time>2018-09-13T07:12:12Z</time>
      </trkpt>
      <trkpt lat="44.81912" lon="6.88102">
        <ele>2129.94</ele>
        <time>2018-09-13T07:12:30Z</time>
      </trkpt>
      <trkpt lat="44.81924" lon="6.88106">
        <ele>2132.34</ele>
        <time>2018-09-13T07:12:49Z</time>
      </trkpt>
      <trkpt lat="44.81932" lon="6.88102">
        <ele>2134.74</ele>
        <time>2018-09-13T07:13:05Z</time>
      </trkpt>
      <trkpt lat="44.81943" lon="6.88107">
        <ele>2135.71</ele>
        <time>2018-09-13T07:13:20Z</time>
      </trkpt>
      <trkpt lat="44.81952" lon="6.88104">
        <ele>2137.15</ele>
        <time>2018-09-13T07:13:31Z</time>
      </trkpt>
      <trkpt lat="44.81962" lon="6.881">
        <ele>2138.11</ele>
        <time>2018-09-13T07:13:42Z</time>
      </trkpt>
      <trkpt lat="44.81971" lon="6.88097">
        <ele>2139.07</ele>
        <time>2018-09-13T07:13:54Z</time>
      </trkpt>
      <trkpt lat="44.81981" lon="6.88098">
        <ele>2141.47</ele>
        <time>2018-09-13T07:14:10Z</time>
      </trkpt>
      <trkpt lat="44.81988" lon="6.88091">
        <ele>2144.36</ele>
        <time>2018-09-13T07:14:26Z</time>
      </trkpt>
      <trkpt lat="44.81997" lon="6.88094">
        <ele>2146.76</ele>
        <time>2018-09-13T07:14:54Z</time>
      </trkpt>
      <trkpt lat="44.82005" lon="6.88096">
        <ele>2148.2</ele>
        <time>2018-09-13T07:15:18Z</time>
      </trkpt>
      <trkpt lat="44.82015" lon="6.88095">
        <ele>2147.72</ele>
        <time>2018-09-13T07:15:28Z</time>
      </trkpt>
      <trkpt lat="44.82026" lon="6.88093">
        <ele>2148.68</ele>
        <time>2018-09-13T07:15:40Z</time>
      </trkpt>
      <trkpt lat="44.82035" lon="6.88098">
        <ele>2148.2</ele>
        <time>2018-09-13T07:15:51Z</time>
      </trkpt>
      <trkpt lat="44.82034" lon="6.88114">
        <ele>2149.65</ele>
        <time>2018-09-13T07:16:03Z</time>
      </trkpt>
      <trkpt lat="44.82033" lon="6.88127">
        <ele>2150.61</ele>
        <time>2018-09-13T07:16:14Z</time>
      </trkpt>
      <trkpt lat="44.82036" lon="6.88139">
        <ele>2152.53</ele>
        <time>2018-09-13T07:16:26Z</time>
      </trkpt>
      <trkpt lat="44.82043" lon="6.88133">
        <ele>2154.45</ele>
        <time>2018-09-13T07:16:39Z</time>
      </trkpt>
      <trkpt lat="44.82052" lon="6.88135">
        <ele>2156.86</ele>
        <time>2018-09-13T07:16:54Z</time>
      </trkpt>
      <trkpt lat="44.82061" lon="6.88141">
        <ele>2158.78</ele>
        <time>2018-09-13T07:17:08Z</time>
      </trkpt>
      <trkpt lat="44.8207" lon="6.88144">
        <ele>2161.18</ele>
        <time>2018-09-13T07:17:23Z</time>
      </trkpt>
      <trkpt lat="44.82078" lon="6.8815">
        <ele>2162.62</ele>
        <time>2018-09-13T07:17:36Z</time>
      </trkpt>
      <trkpt lat="44.82086" lon="6.88157">
        <ele>2164.06</ele>
        <time>2018-09-13T07:17:48Z</time>
      </trkpt>
      <trkpt lat="44.82096" lon="6.88161">
        <ele>2165.03</ele>
        <time>2018-09-13T07:18:00Z</time>
      </trkpt>
      <trkpt lat="44.82104" lon="6.88166">
        <ele>2165.99</ele>
        <time>2018-09-13T07:18:13Z</time>
      </trkpt>
      <trkpt lat="44.82112" lon="6.88167">
        <ele>2169.83</ele>
        <time>2018-09-13T07:18:30Z</time>
      </trkpt>
      <trkpt lat="44.82122" lon="6.88167">
        <ele>2170.79</ele>
        <time>2018-09-13T07:18:42Z</time>
      </trkpt>
      <trkpt lat="44.82131" lon="6.88172">
        <ele>2171.27</ele>
        <time>2018-09-13T07:18:53Z</time>
      </trkpt>
      <trkpt lat="44.82141" lon="6.88174">
        <ele>2171.27</ele>
        <time>2018-09-13T07:19:03Z</time>
      </trkpt>
      <trkpt lat="44.82149" lon="6.88179">
        <ele>2172.24</ele>
        <time>2018-09-13T07:19:14Z</time>
      </trkpt>
      <trkpt lat="44.82159" lon="6.88178">
        <ele>2173.68</ele>
        <time>2018-09-13T07:19:27Z</time>
      </trkpt>
      <trkpt lat="44.82167" lon="6.88186">
        <ele>2175.12</ele>
        <time>2018-09-13T07:19:42Z</time>
      </trkpt>
      <trkpt lat="44.82176" lon="6.88189">
        <ele>2178.48</ele>
        <time>2018-09-13T07:19:59Z</time>
      </trkpt>
      <trkpt lat="44.82186" lon="6.88197">
        <ele>2180.89</ele>
        <time>2018-09-13T07:20:14Z</time>
      </trkpt>
      <trkpt lat="44.82195" lon="6.88202">
        <ele>2182.81</ele>
        <time>2018-09-13T07:20:27Z</time>
      </trkpt>
      <trkpt lat="44.82204" lon="6.88206">
        <ele>2183.77</ele>
        <time>2018-09-13T07:20:38Z</time>
      </trkpt>
      <trkpt lat="44.82209" lon="6.88217">
        <ele>2185.21</ele>
        <time>2018-09-13T07:20:49Z</time>
      </trkpt>
      <trkpt lat="44.82217" lon="6.88223">
        <ele>2186.18</ele>
        <time>2018-09-13T07:21:02Z</time>
      </trkpt>
      <trkpt lat="44.82226" lon="6.88232">
        <ele>2188.1</ele>
        <time>2018-09-13T07:21:17Z</time>
      </trkpt>
      <trkpt lat="44.82231" lon="6.88231">
        <ele>2190.5</ele>
        <time>2018-09-13T07:21:31Z</time>
      </trkpt>
      <trkpt lat="44.82235" lon="6.8822">
        <ele>2192.42</ele>
        <time>2018-09-13T07:21:48Z</time>
      </trkpt>
      <trkpt lat="44.82244" lon="6.88218">
        <ele>2194.83</ele>
        <time>2018-09-13T07:22:04Z</time>
      </trkpt>
      <trkpt lat="44.82247" lon="6.88205">
        <ele>2196.27</ele>
        <time>2018-09-13T07:22:19Z</time>
      </trkpt>
      <trkpt lat="44.8225" lon="6.88191">
        <ele>2198.67</ele>
        <time>2018-09-13T07:22:32Z</time>
      </trkpt>
      <trkpt lat="44.82255" lon="6.88179">
        <ele>2200.11</ele>
        <time>2018-09-13T07:22:46Z</time>
      </trkpt>
      <trkpt lat="44.82263" lon="6.88171">
        <ele>2203.48</ele>
        <time>2018-09-13T07:23:03Z</time>
      </trkpt>
      <trkpt lat="44.82266" lon="6.88162">
        <ele>2205.4</ele>
        <time>2018-09-13T07:23:25Z</time>
      </trkpt>
      <trkpt lat="44.82268" lon="6.88148">
        <ele>2207.81</ele>
        <time>2018-09-13T07:23:43Z</time>
      </trkpt>
      <trkpt lat="44.82266" lon="6.88136">
        <ele>2208.77</ele>
        <time>2018-09-13T07:23:56Z</time>
      </trkpt>
      <trkpt lat="44.8226" lon="6.88125">
        <ele>2210.21</ele>
        <time>2018-09-13T07:24:07Z</time>
      </trkpt>
      <trkpt lat="44.82258" lon="6.88112">
        <ele>2212.13</ele>
        <time>2018-09-13T07:24:21Z</time>
      </trkpt>
      <trkpt lat="44.82254" lon="6.881">
        <ele>2213.57</ele>
        <time>2018-09-13T07:24:35Z</time>
      </trkpt>
      <trkpt lat="44.82252" lon="6.88089">
        <ele>2215.5</ele>
        <time>2018-09-13T07:24:47Z</time>
      </trkpt>
      <trkpt lat="44.82248" lon="6.88076">
        <ele>2217.9</ele>
        <time>2018-09-13T07:25:01Z</time>
      </trkpt>
      <trkpt lat="44.82242" lon="6.88065">
        <ele>2217.42</ele>
        <time>2018-09-13T07:25:11Z</time>
      </trkpt>
      <trkpt lat="44.82236" lon="6.88055">
        <ele>2217.42</ele>
        <time>2018-09-13T07:25:20Z</time>
      </trkpt>
      <trkpt lat="44.82231" lon="6.88043">
        <ele>2218.86</ele>
        <time>2018-09-13T07:25:30Z</time>
      </trkpt>
      <trkpt lat="44.82229" lon="6.88032">
        <ele>2220.78</ele>
        <time>2018-09-13T07:25:46Z</time>
      </trkpt>
      <trkpt lat="44.82226" lon="6.88024">
        <ele>2223.19</ele>
        <time>2018-09-13T07:26:02Z</time>
      </trkpt>
      <trkpt lat="44.82224" lon="6.88013">
        <ele>2226.07</ele>
        <time>2018-09-13T07:26:18Z</time>
      </trkpt>
      <trkpt lat="44.82214" lon="6.88003">
        <ele>2228.47</ele>
        <time>2018-09-13T07:26:37Z</time>
      </trkpt>
      <trkpt lat="44.82209" lon="6.87996">
        <ele>2230.4</ele>
        <time>2018-09-13T07:26:57Z</time>
      </trkpt>
      <trkpt lat="44.822" lon="6.87991">
        <ele>2231.84</ele>
        <time>2018-09-13T07:27:13Z</time>
      </trkpt>
      <trkpt lat="44.82189" lon="6.8798">
        <ele>2235.2</ele>
        <time>2018-09-13T07:27:36Z</time>
      </trkpt>
      <trkpt lat="44.82181" lon="6.87974">
        <ele>2236.64</ele>
        <time>2018-09-13T07:27:50Z</time>
      </trkpt>
      <trkpt lat="44.82176" lon="6.87964">
        <ele>2239.53</ele>
        <time>2018-09-13T07:28:06Z</time>
      </trkpt>
      <trkpt lat="44.82169" lon="6.87956">
        <ele>2240.97</ele>
        <time>2018-09-13T07:28:22Z</time>
      </trkpt>
      <trkpt lat="44.82166" lon="6.87942">
        <ele>2243.37</ele>
        <time>2018-09-13T07:28:37Z</time>
      </trkpt>
      <trkpt lat="44.82163" lon="6.8793">
        <ele>2243.37</ele>
        <time>2018-09-13T07:28:56Z</time>
      </trkpt>
      <trkpt lat="44.8216" lon="6.87915">
        <ele>2243.85</ele>
        <time>2018-09-13T07:29:08Z</time>
      </trkpt>
      <trkpt lat="44.82169" lon="6.87915">
        <ele>2247.7</ele>
        <time>2018-09-13T07:29:36Z</time>
      </trkpt>
      <trkpt lat="44.82177" lon="6.87923">
        <ele>2250.1</ele>
        <time>2018-09-13T07:29:53Z</time>
      </trkpt>
      <trkpt lat="44.82182" lon="6.87928">
        <ele>2253.47</ele>
        <time>2018-09-13T07:30:15Z</time>
      </trkpt>
      <trkpt lat="44.82195" lon="6.87938">
        <ele>2257.31</ele>
        <time>2018-09-13T07:30:42Z</time>
      </trkpt>
      <trkpt lat="44.82199" lon="6.87935">
        <ele>2260.68</ele>
        <time>2018-09-13T07:31:11Z</time>
      </trkpt>
      <trkpt lat="44.82192" lon="6.87924">
        <ele>2263.56</ele>
        <time>2018-09-13T07:31:28Z</time>
      </trkpt>
      <trkpt lat="44.822" lon="6.87923">
        <ele>2265</ele>
        <time>2018-09-13T07:31:43Z</time>
      </trkpt>
      <trkpt lat="44.82211" lon="6.87935">
        <ele>2267.89</ele>
        <time>2018-09-13T07:32:05Z</time>
      </trkpt>
      <trkpt lat="44.82217" lon="6.87939">
        <ele>2270.77</ele>
        <time>2018-09-13T07:32:26Z</time>
      </trkpt>
      <trkpt lat="44.82227" lon="6.87938">
        <ele>2274.62</ele>
        <time>2018-09-13T07:32:50Z</time>
      </trkpt>
      <trkpt lat="44.82238" lon="6.87938">
        <ele>2277.98</ele>
        <time>2018-09-13T07:33:13Z</time>
      </trkpt>
      <trkpt lat="44.82246" lon="6.87941">
        <ele>2281.35</ele>
        <time>2018-09-13T07:33:36Z</time>
      </trkpt>
      <trkpt lat="44.82253" lon="6.87939">
        <ele>2284.23</ele>
        <time>2018-09-13T07:33:57Z</time>
      </trkpt>
      <trkpt lat="44.82263" lon="6.87942">
        <ele>2287.11</ele>
        <time>2018-09-13T07:34:19Z</time>
      </trkpt>
      <trkpt lat="44.82271" lon="6.8794">
        <ele>2290.48</ele>
        <time>2018-09-13T07:34:42Z</time>
      </trkpt>
      <trkpt lat="44.8228" lon="6.87939">
        <ele>2292.88</ele>
        <time>2018-09-13T07:35:04Z</time>
      </trkpt>
      <trkpt lat="44.82288" lon="6.87939">
        <ele>2296.73</ele>
        <time>2018-09-13T07:35:25Z</time>
      </trkpt>
      <trkpt lat="44.82297" lon="6.87943">
        <ele>2301.05</ele>
        <time>2018-09-13T07:35:53Z</time>
      </trkpt>
      <trkpt lat="44.82307" lon="6.87936">
        <ele>2303.46</ele>
        <time>2018-09-13T07:36:18Z</time>
      </trkpt>
      <trkpt lat="44.82315" lon="6.87941">
        <ele>2306.82</ele>
        <time>2018-09-13T07:36:37Z</time>
      </trkpt>
      <trkpt lat="44.82325" lon="6.87944">
        <ele>2309.22</ele>
        <time>2018-09-13T07:36:57Z</time>
      </trkpt>
      <trkpt lat="44.82334" lon="6.87951">
        <ele>2311.15</ele>
        <time>2018-09-13T07:37:13Z</time>
      </trkpt>
      <trkpt lat="44.82342" lon="6.87961">
        <ele>2312.11</ele>
        <time>2018-09-13T07:37:32Z</time>
      </trkpt>
      <trkpt lat="44.82351" lon="6.87964">
        <ele>2314.51</ele>
        <time>2018-09-13T07:37:45Z</time>
      </trkpt>
      <trkpt lat="44.82359" lon="6.87973">
        <ele>2315.95</ele>
        <time>2018-09-13T07:37:59Z</time>
      </trkpt>
      <trkpt lat="44.82368" lon="6.87976">
        <ele>2317.4</ele>
        <time>2018-09-13T07:38:14Z</time>
      </trkpt>
      <trkpt lat="44.82375" lon="6.87974">
        <ele>2319.32</ele>
        <time>2018-09-13T07:38:52Z</time>
      </trkpt>
      <trkpt lat="44.82385" lon="6.87979">
        <ele>2321.72</ele>
        <time>2018-09-13T07:39:08Z</time>
      </trkpt>
      <trkpt lat="44.82393" lon="6.87979">
        <ele>2325.09</ele>
        <time>2018-09-13T07:39:27Z</time>
      </trkpt>
      <trkpt lat="44.8239" lon="6.87966">
        <ele>2327.49</ele>
        <time>2018-09-13T07:39:44Z</time>
      </trkpt>
      <trkpt lat="44.82387" lon="6.87955">
        <ele>2329.89</ele>
        <time>2018-09-13T07:40:05Z</time>
      </trkpt>
      <trkpt lat="44.82382" lon="6.87945">
        <ele>2332.78</ele>
        <time>2018-09-13T07:40:22Z</time>
      </trkpt>
      <trkpt lat="44.82377" lon="6.87937">
        <ele>2335.18</ele>
        <time>2018-09-13T07:40:43Z</time>
      </trkpt>
      <trkpt lat="44.82376" lon="6.87922">
        <ele>2337.58</ele>
        <time>2018-09-13T07:40:59Z</time>
      </trkpt>
      <trkpt lat="44.82372" lon="6.87912">
        <ele>2339.99</ele>
        <time>2018-09-13T07:41:16Z</time>
      </trkpt>
      <trkpt lat="44.82368" lon="6.87902">
        <ele>2341.91</ele>
        <time>2018-09-13T07:41:32Z</time>
      </trkpt>
      <trkpt lat="44.82374" lon="6.879">
        <ele>2343.35</ele>
        <time>2018-09-13T07:41:49Z</time>
      </trkpt>
      <trkpt lat="44.82383" lon="6.879">
        <ele>2347.68</ele>
        <time>2018-09-13T07:42:11Z</time>
      </trkpt>
      <trkpt lat="44.82394" lon="6.87906">
        <ele>2351.04</ele>
        <time>2018-09-13T07:42:38Z</time>
      </trkpt>
      <trkpt lat="44.82401" lon="6.87901">
        <ele>2353.93</ele>
        <time>2018-09-13T07:43:03Z</time>
      </trkpt>
      <trkpt lat="44.82412" lon="6.87906">
        <ele>2357.77</ele>
        <time>2018-09-13T07:43:31Z</time>
      </trkpt>
      <trkpt lat="44.82414" lon="6.879">
        <ele>2361.62</ele>
        <time>2018-09-13T07:44:01Z</time>
      </trkpt>
      <trkpt lat="44.8241" lon="6.87889">
        <ele>2363.06</ele>
        <time>2018-09-13T07:44:25Z</time>
      </trkpt>
      <trkpt lat="44.82406" lon="6.87876">
        <ele>2364.98</ele>
        <time>2018-09-13T07:44:41Z</time>
      </trkpt>
      <trkpt lat="44.82403" lon="6.87866">
        <ele>2364.98</ele>
        <time>2018-09-13T07:44:59Z</time>
      </trkpt>
      <trkpt lat="44.82398" lon="6.87856">
        <ele>2370.27</ele>
        <time>2018-09-13T07:45:18Z</time>
      </trkpt>
      <trkpt lat="44.82393" lon="6.87847">
        <ele>2371.71</ele>
        <time>2018-09-13T07:45:30Z</time>
      </trkpt>
      <trkpt lat="44.82387" lon="6.87839">
        <ele>2373.15</ele>
        <time>2018-09-13T07:45:43Z</time>
      </trkpt>
      <trkpt lat="44.8238" lon="6.8783">
        <ele>2374.11</ele>
        <time>2018-09-13T07:45:57Z</time>
      </trkpt>
      <trkpt lat="44.82375" lon="6.8782">
        <ele>2375.55</ele>
        <time>2018-09-13T07:46:12Z</time>
      </trkpt>
      <trkpt lat="44.82367" lon="6.87811">
        <ele>2377.96</ele>
        <time>2018-09-13T07:46:28Z</time>
      </trkpt>
      <trkpt lat="44.82358" lon="6.87802">
        <ele>2380.84</ele>
        <time>2018-09-13T07:46:50Z</time>
      </trkpt>
      <trkpt lat="44.82352" lon="6.87793">
        <ele>2382.76</ele>
        <time>2018-09-13T07:47:03Z</time>
      </trkpt>
      <trkpt lat="44.82346" lon="6.87784">
        <ele>2384.21</ele>
        <time>2018-09-13T07:47:16Z</time>
      </trkpt>
      <trkpt lat="44.82339" lon="6.87778">
        <ele>2386.13</ele>
        <time>2018-09-13T07:47:29Z</time>
      </trkpt>
      <trkpt lat="44.82331" lon="6.87768">
        <ele>2388.53</ele>
        <time>2018-09-13T07:47:45Z</time>
      </trkpt>
      <trkpt lat="44.82325" lon="6.8776">
        <ele>2390.46</ele>
        <time>2018-09-13T07:47:59Z</time>
      </trkpt>
      <trkpt lat="44.82319" lon="6.87748">
        <ele>2392.86</ele>
        <time>2018-09-13T07:48:15Z</time>
      </trkpt>
      <trkpt lat="44.82315" lon="6.87738">
        <ele>2393.82</ele>
        <time>2018-09-13T07:48:29Z</time>
      </trkpt>
      <trkpt lat="44.8231" lon="6.87728">
        <ele>2395.74</ele>
        <time>2018-09-13T07:48:42Z</time>
      </trkpt>
      <trkpt lat="44.82305" lon="6.87719">
        <ele>2396.7</ele>
        <time>2018-09-13T07:48:55Z</time>
      </trkpt>
      <trkpt lat="44.82299" lon="6.87711">
        <ele>2400.07</ele>
        <time>2018-09-13T07:49:13Z</time>
      </trkpt>
      <trkpt lat="44.82293" lon="6.877">
        <ele>2401.03</ele>
        <time>2018-09-13T07:49:30Z</time>
      </trkpt>
      <trkpt lat="44.82291" lon="6.87687">
        <ele>2402.95</ele>
        <time>2018-09-13T07:49:46Z</time>
      </trkpt>
      <trkpt lat="44.82287" lon="6.87675">
        <ele>2404.88</ele>
        <time>2018-09-13T07:50:01Z</time>
      </trkpt>
      <trkpt lat="44.82284" lon="6.87662">
        <ele>2406.32</ele>
        <time>2018-09-13T07:50:18Z</time>
      </trkpt>
      <trkpt lat="44.82277" lon="6.87651">
        <ele>2408.72</ele>
        <time>2018-09-13T07:50:34Z</time>
      </trkpt>
      <trkpt lat="44.82274" lon="6.87638">
        <ele>2408.72</ele>
        <time>2018-09-13T07:50:45Z</time>
      </trkpt>
      <trkpt lat="44.82269" lon="6.87628">
        <ele>2409.68</ele>
        <time>2018-09-13T07:50:58Z</time>
      </trkpt>
      <trkpt lat="44.82266" lon="6.87618">
        <ele>2413.53</ele>
        <time>2018-09-13T07:51:17Z</time>
      </trkpt>
      <trkpt lat="44.8226" lon="6.87609">
        <ele>2414.01</ele>
        <time>2018-09-13T07:51:31Z</time>
      </trkpt>
      <trkpt lat="44.82251" lon="6.87607">
        <ele>2415.93</ele>
        <time>2018-09-13T07:51:46Z</time>
      </trkpt>
      <trkpt lat="44.82242" lon="6.87603">
        <ele>2418.33</ele>
        <time>2018-09-13T07:52:05Z</time>
      </trkpt>
      <trkpt lat="44.82235" lon="6.87595">
        <ele>2422.18</ele>
        <time>2018-09-13T07:52:26Z</time>
      </trkpt>
      <trkpt lat="44.82226" lon="6.87595">
        <ele>2424.58</ele>
        <time>2018-09-13T07:52:42Z</time>
      </trkpt>
      <trkpt lat="44.82218" lon="6.87591">
        <ele>2425.54</ele>
        <time>2018-09-13T07:52:56Z</time>
      </trkpt>
      <trkpt lat="44.82211" lon="6.87595">
        <ele>2427.47</ele>
        <time>2018-09-13T07:53:12Z</time>
      </trkpt>
      <trkpt lat="44.82202" lon="6.87601">
        <ele>2428.91</ele>
        <time>2018-09-13T07:53:28Z</time>
      </trkpt>
      <trkpt lat="44.82193" lon="6.87607">
        <ele>2430.35</ele>
        <time>2018-09-13T07:53:50Z</time>
      </trkpt>
      <trkpt lat="44.82184" lon="6.87611">
        <ele>2430.35</ele>
        <time>2018-09-13T07:54:05Z</time>
      </trkpt>
      <trkpt lat="44.82173" lon="6.87619">
        <ele>2434.68</ele>
        <time>2018-09-13T07:54:35Z</time>
      </trkpt>
      <trkpt lat="44.82163" lon="6.87621">
        <ele>2438.52</ele>
        <time>2018-09-13T07:54:56Z</time>
      </trkpt>
      <trkpt lat="44.82153" lon="6.87621">
        <ele>2440.44</ele>
        <time>2018-09-13T07:55:12Z</time>
      </trkpt>
      <trkpt lat="44.82144" lon="6.87616">
        <ele>2443.81</ele>
        <time>2018-09-13T07:55:33Z</time>
      </trkpt>
      <trkpt lat="44.82141" lon="6.87611">
        <ele>2446.21</ele>
        <time>2018-09-13T07:55:58Z</time>
      </trkpt>
      <trkpt lat="44.8215" lon="6.87604">
        <ele>2447.17</ele>
        <time>2018-09-13T07:56:14Z</time>
      </trkpt>
      <trkpt lat="44.82158" lon="6.87598">
        <ele>2450.06</ele>
        <time>2018-09-13T07:56:32Z</time>
      </trkpt>
      <trkpt lat="44.82156" lon="6.87598">
        <ele>2451.98</ele>
        <time>2018-09-13T07:56:49Z</time>
      </trkpt>
      <trkpt lat="44.82149" lon="6.87595">
        <ele>2455.34</ele>
        <time>2018-09-13T07:57:07Z</time>
      </trkpt>
      <trkpt lat="44.8214" lon="6.87599">
        <ele>2457.27</ele>
        <time>2018-09-13T07:57:25Z</time>
      </trkpt>
      <trkpt lat="44.82129" lon="6.87597">
        <ele>2461.11</ele>
        <time>2018-09-13T07:57:45Z</time>
      </trkpt>
      <trkpt lat="44.8212" lon="6.87595">
        <ele>2462.55</ele>
        <time>2018-09-13T07:57:58Z</time>
      </trkpt>
      <trkpt lat="44.82116" lon="6.87592">
        <ele>2464.48</ele>
        <time>2018-09-13T08:00:50Z</time>
      </trkpt>
      <trkpt lat="44.82108" lon="6.87584">
        <ele>2466.4</ele>
        <time>2018-09-13T08:02:50Z</time>
      </trkpt>
      <trkpt lat="44.82099" lon="6.87577">
        <ele>2467.36</ele>
        <time>2018-09-13T08:03:01Z</time>
      </trkpt>
      <trkpt lat="44.82095" lon="6.87565">
        <ele>2469.28</ele>
        <time>2018-09-13T08:03:13Z</time>
      </trkpt>
      <trkpt lat="44.8209" lon="6.87555">
        <ele>2470.73</ele>
        <time>2018-09-13T08:03:26Z</time>
      </trkpt>
      <trkpt lat="44.82083" lon="6.87544">
        <ele>2472.65</ele>
        <time>2018-09-13T08:03:38Z</time>
      </trkpt>
      <trkpt lat="44.82076" lon="6.87538">
        <ele>2473.13</ele>
        <time>2018-09-13T08:03:50Z</time>
      </trkpt>
      <trkpt lat="44.82067" lon="6.87536">
        <ele>2475.53</ele>
        <time>2018-09-13T08:04:04Z</time>
      </trkpt>
      <trkpt lat="44.82058" lon="6.87533">
        <ele>2477.94</ele>
        <time>2018-09-13T08:04:20Z</time>
      </trkpt>
      <trkpt lat="44.8205" lon="6.87538">
        <ele>2479.38</ele>
        <time>2018-09-13T08:04:32Z</time>
      </trkpt>
      <trkpt lat="44.8204" lon="6.87537">
        <ele>2480.34</ele>
        <time>2018-09-13T08:04:45Z</time>
      </trkpt>
      <trkpt lat="44.82031" lon="6.87532">
        <ele>2481.78</ele>
        <time>2018-09-13T08:04:58Z</time>
      </trkpt>
      <trkpt lat="44.82024" lon="6.87523">
        <ele>2484.18</ele>
        <time>2018-09-13T08:05:16Z</time>
      </trkpt>
      <trkpt lat="44.82015" lon="6.87519">
        <ele>2487.55</ele>
        <time>2018-09-13T08:05:34Z</time>
      </trkpt>
      <trkpt lat="44.82008" lon="6.87513">
        <ele>2489.95</ele>
        <time>2018-09-13T08:05:53Z</time>
      </trkpt>
      <trkpt lat="44.82004" lon="6.87505">
        <ele>2492.84</ele>
        <time>2018-09-13T08:06:09Z</time>
      </trkpt>
      <trkpt lat="44.82016" lon="6.875">
        <ele>2495.72</ele>
        <time>2018-09-13T08:06:32Z</time>
      </trkpt>
      <trkpt lat="44.82025" lon="6.87496">
        <ele>2499.08</ele>
        <time>2018-09-13T08:06:53Z</time>
      </trkpt>
      <trkpt lat="44.82033" lon="6.8749">
        <ele>2501.49</ele>
        <time>2018-09-13T08:07:11Z</time>
      </trkpt>
      <trkpt lat="44.82043" lon="6.87489">
        <ele>2504.37</ele>
        <time>2018-09-13T08:07:32Z</time>
      </trkpt>
      <trkpt lat="44.82045" lon="6.87481">
        <ele>2507.74</ele>
        <time>2018-09-13T08:07:56Z</time>
      </trkpt>
      <trkpt lat="44.82039" lon="6.8747">
        <ele>2509.66</ele>
        <time>2018-09-13T08:08:12Z</time>
      </trkpt>
      <trkpt lat="44.82031" lon="6.87462">
        <ele>2513.02</ele>
        <time>2018-09-13T08:08:35Z</time>
      </trkpt>
      <trkpt lat="44.82022" lon="6.8746">
        <ele>2515.43</ele>
        <time>2018-09-13T08:08:51Z</time>
      </trkpt>
      <trkpt lat="44.82015" lon="6.87454">
        <ele>2517.35</ele>
        <time>2018-09-13T08:09:05Z</time>
      </trkpt>
      <trkpt lat="44.82011" lon="6.87444">
        <ele>2518.31</ele>
        <time>2018-09-13T08:09:19Z</time>
      </trkpt>
      <trkpt lat="44.82022" lon="6.8744">
        <ele>2521.19</ele>
        <time>2018-09-13T08:09:37Z</time>
      </trkpt>
      <trkpt lat="44.82031" lon="6.87438">
        <ele>2524.08</ele>
        <time>2018-09-13T08:10:00Z</time>
      </trkpt>
      <trkpt lat="44.8204" lon="6.87434">
        <ele>2527.92</ele>
        <time>2018-09-13T08:10:25Z</time>
      </trkpt>
      <trkpt lat="44.82034" lon="6.87422">
        <ele>2530.33</ele>
        <time>2018-09-13T08:10:45Z</time>
      </trkpt>
      <trkpt lat="44.82026" lon="6.87414">
        <ele>2531.29</ele>
        <time>2018-09-13T08:10:59Z</time>
      </trkpt>
      <trkpt lat="44.82019" lon="6.87406">
        <ele>2532.25</ele>
        <time>2018-09-13T08:11:12Z</time>
      </trkpt>
      <trkpt lat="44.82013" lon="6.87395">
        <ele>2534.17</ele>
        <time>2018-09-13T08:11:28Z</time>
      </trkpt>
      <trkpt lat="44.82007" lon="6.87384">
        <ele>2538.02</ele>
        <time>2018-09-13T08:11:46Z</time>
      </trkpt>
      <trkpt lat="44.82002" lon="6.87373">
        <ele>2539.94</ele>
        <time>2018-09-13T08:12:04Z</time>
      </trkpt>
      <trkpt lat="44.81997" lon="6.87362">
        <ele>2543.31</ele>
        <time>2018-09-13T08:12:20Z</time>
      </trkpt>
      <trkpt lat="44.8199" lon="6.87354">
        <ele>2545.71</ele>
        <time>2018-09-13T08:12:38Z</time>
      </trkpt>
      <trkpt lat="44.81993" lon="6.87341">
        <ele>2547.63</ele>
        <time>2018-09-13T08:13:07Z</time>
      </trkpt>
      <trkpt lat="44.81999" lon="6.87331">
        <ele>2549.07</ele>
        <time>2018-09-13T08:13:22Z</time>
      </trkpt>
      <trkpt lat="44.82008" lon="6.87327">
        <ele>2551</ele>
        <time>2018-09-13T08:13:39Z</time>
      </trkpt>
      <trkpt lat="44.82017" lon="6.87331">
        <ele>2553.4</ele>
        <time>2018-09-13T08:13:57Z</time>
      </trkpt>
      <trkpt lat="44.82026" lon="6.87336">
        <ele>2555.8</ele>
        <time>2018-09-13T08:14:14Z</time>
      </trkpt>
      <trkpt lat="44.82035" lon="6.87338">
        <ele>2558.21</ele>
        <time>2018-09-13T08:14:27Z</time>
      </trkpt>
      <trkpt lat="44.8204" lon="6.87331">
        <ele>2560.13</ele>
        <time>2018-09-13T08:14:46Z</time>
      </trkpt>
      <trkpt lat="44.82038" lon="6.87319">
        <ele>2562.05</ele>
        <time>2018-09-13T08:15:00Z</time>
      </trkpt>
      <trkpt lat="44.82034" lon="6.87307">
        <ele>2563.49</ele>
        <time>2018-09-13T08:15:15Z</time>
      </trkpt>
      <trkpt lat="44.82034" lon="6.87291">
        <ele>2564.93</ele>
        <time>2018-09-13T08:15:30Z</time>
      </trkpt>
      <trkpt lat="44.82037" lon="6.87277">
        <ele>2564.93</ele>
        <time>2018-09-13T08:15:42Z</time>
      </trkpt>
      <trkpt lat="44.82042" lon="6.87264">
        <ele>2564.93</ele>
        <time>2018-09-13T08:15:53Z</time>
      </trkpt>
      <trkpt lat="44.82046" lon="6.87252">
        <ele>2565.9</ele>
        <time>2018-09-13T08:16:07Z</time>
      </trkpt>
      <trkpt lat="44.82044" lon="6.87238">
        <ele>2569.74</ele>
        <time>2018-09-13T08:16:28Z</time>
      </trkpt>
      <trkpt lat="44.82044" lon="6.87223">
        <ele>2571.18</ele>
        <time>2018-09-13T08:16:43Z</time>
      </trkpt>
      <trkpt lat="44.82042" lon="6.87205">
        <ele>2572.63</ele>
        <time>2018-09-13T08:16:57Z</time>
      </trkpt>
      <trkpt lat="44.82044" lon="6.87192">
        <ele>2574.07</ele>
        <time>2018-09-13T08:17:13Z</time>
      </trkpt>
      <trkpt lat="44.82056" lon="6.87189">
        <ele>2576.47</ele>
        <time>2018-09-13T08:17:27Z</time>
      </trkpt>
      <trkpt lat="44.82063" lon="6.87181">
        <ele>2578.39</ele>
        <time>2018-09-13T08:17:49Z</time>
      </trkpt>
      <trkpt lat="44.82069" lon="6.87172">
        <ele>2580.32</ele>
        <time>2018-09-13T08:18:04Z</time>
      </trkpt>
      <trkpt lat="44.82075" lon="6.87162">
        <ele>2581.28</ele>
        <time>2018-09-13T08:18:16Z</time>
      </trkpt>
      <trkpt lat="44.8208" lon="6.87149">
        <ele>2581.76</ele>
        <time>2018-09-13T08:18:28Z</time>
      </trkpt>
      <trkpt lat="44.8209" lon="6.87146">
        <ele>2583.68</ele>
        <time>2018-09-13T08:18:43Z</time>
      </trkpt>
      <trkpt lat="44.82098" lon="6.87135">
        <ele>2584.16</ele>
        <time>2018-09-13T08:18:55Z</time>
      </trkpt>
      <trkpt lat="44.82106" lon="6.87125">
        <ele>2584.16</ele>
        <time>2018-09-13T08:19:15Z</time>
      </trkpt>
      <trkpt lat="44.8211" lon="6.8711">
        <ele>2584.16</ele>
        <time>2018-09-13T08:19:29Z</time>
      </trkpt>
      <trkpt lat="44.82105" lon="6.87105">
        <ele>2586.08</ele>
        <time>2018-09-13T08:19:47Z</time>
      </trkpt>
      <trkpt lat="44.82105" lon="6.87099">
        <ele>2587.53</ele>
        <time>2018-09-13T08:43:16Z</time>
      </trkpt>
      <trkpt lat="44.82111" lon="6.87108">
        <ele>2587.53</ele>
        <time>2018-09-13T08:43:29Z</time>
      </trkpt>
      <trkpt lat="44.82118" lon="6.87122">
        <ele>2587.53</ele>
        <time>2018-09-13T08:43:40Z</time>
      </trkpt>
      <trkpt lat="44.82127" lon="6.87127">
        <ele>2587.53</ele>
        <time>2018-09-13T08:43:52Z</time>
      </trkpt>
      <trkpt lat="44.82137" lon="6.87136">
        <ele>2587.53</ele>
        <time>2018-09-13T08:44:03Z</time>
      </trkpt>
      <trkpt lat="44.82146" lon="6.87144">
        <ele>2587.53</ele>
        <time>2018-09-13T08:44:13Z</time>
      </trkpt>
      <trkpt lat="44.82155" lon="6.87149">
        <ele>2588.49</ele>
        <time>2018-09-13T08:44:25Z</time>
      </trkpt>
      <trkpt lat="44.82151" lon="6.87161">
        <ele>2591.37</ele>
        <time>2018-09-13T08:44:39Z</time>
      </trkpt>
      <trkpt lat="44.82147" lon="6.87173">
        <ele>2592.81</ele>
        <time>2018-09-13T08:44:55Z</time>
      </trkpt>
      <trkpt lat="44.82155" lon="6.87176">
        <ele>2594.25</ele>
        <time>2018-09-13T08:45:11Z</time>
      </trkpt>
      <trkpt lat="44.82166" lon="6.87176">
        <ele>2595.7</ele>
        <time>2018-09-13T08:45:34Z</time>
      </trkpt>
      <trkpt lat="44.82174" lon="6.87175">
        <ele>2597.14</ele>
        <time>2018-09-13T08:45:48Z</time>
      </trkpt>
      <trkpt lat="44.82184" lon="6.87176">
        <ele>2600.98</ele>
        <time>2018-09-13T08:46:12Z</time>
      </trkpt>
      <trkpt lat="44.82193" lon="6.87178">
        <ele>2603.87</ele>
        <time>2018-09-13T08:46:33Z</time>
      </trkpt>
      <trkpt lat="44.82202" lon="6.87184">
        <ele>2606.75</ele>
        <time>2018-09-13T08:46:53Z</time>
      </trkpt>
      <trkpt lat="44.82209" lon="6.87185">
        <ele>2609.64</ele>
        <time>2018-09-13T08:47:15Z</time>
      </trkpt>
      <trkpt lat="44.82218" lon="6.87189">
        <ele>2611.08</ele>
        <time>2018-09-13T08:47:32Z</time>
      </trkpt>
      <trkpt lat="44.82228" lon="6.87191">
        <ele>2612.04</ele>
        <time>2018-09-13T08:47:48Z</time>
      </trkpt>
      <trkpt lat="44.82241" lon="6.87191">
        <ele>2612.04</ele>
        <time>2018-09-13T08:48:05Z</time>
      </trkpt>
      <trkpt lat="44.82248" lon="6.87188">
        <ele>2613</ele>
        <time>2018-09-13T08:48:31Z</time>
      </trkpt>
      <trkpt lat="44.82262" lon="6.87192">
        <ele>2614.44</ele>
        <time>2018-09-13T08:48:46Z</time>
      </trkpt>
      <trkpt lat="44.82272" lon="6.87195">
        <ele>2615.4</ele>
        <time>2018-09-13T08:49:02Z</time>
      </trkpt>
      <trkpt lat="44.82283" lon="6.87195">
        <ele>2617.81</ele>
        <time>2018-09-13T08:49:23Z</time>
      </trkpt>
      <trkpt lat="44.82296" lon="6.87196">
        <ele>2619.73</ele>
        <time>2018-09-13T08:49:41Z</time>
      </trkpt>
      <trkpt lat="44.82304" lon="6.87199">
        <ele>2622.13</ele>
        <time>2018-09-13T08:49:59Z</time>
      </trkpt>
      <trkpt lat="44.82312" lon="6.87199">
        <ele>2624.54</ele>
        <time>2018-09-13T08:50:18Z</time>
      </trkpt>
      <trkpt lat="44.82323" lon="6.87197">
        <ele>2626.46</ele>
        <time>2018-09-13T08:50:36Z</time>
      </trkpt>
      <trkpt lat="44.82334" lon="6.87196">
        <ele>2628.86</ele>
        <time>2018-09-13T08:51:00Z</time>
      </trkpt>
      <trkpt lat="44.82347" lon="6.87195">
        <ele>2633.67</ele>
        <time>2018-09-13T08:51:35Z</time>
      </trkpt>
      <trkpt lat="44.82358" lon="6.87203">
        <ele>2637.99</ele>
        <time>2018-09-13T08:52:14Z</time>
      </trkpt>
      <trkpt lat="44.82367" lon="6.87208">
        <ele>2642.32</ele>
        <time>2018-09-13T08:52:48Z</time>
      </trkpt>
      <trkpt lat="44.82375" lon="6.87211">
        <ele>2645.21</ele>
        <time>2018-09-13T08:53:13Z</time>
      </trkpt>
      <trkpt lat="44.82383" lon="6.87212">
        <ele>2648.09</ele>
        <time>2018-09-13T08:53:38Z</time>
      </trkpt>
      <trkpt lat="44.8239" lon="6.87218">
        <ele>2652.42</ele>
        <time>2018-09-13T08:54:07Z</time>
      </trkpt>
      <trkpt lat="44.82398" lon="6.87215">
        <ele>2655.3</ele>
        <time>2018-09-13T08:54:37Z</time>
      </trkpt>
      <trkpt lat="44.82407" lon="6.87222">
        <ele>2658.66</ele>
        <time>2018-09-13T08:55:04Z</time>
      </trkpt>
      <trkpt lat="44.82414" lon="6.87219">
        <ele>2661.55</ele>
        <time>2018-09-13T08:55:27Z</time>
      </trkpt>
      <trkpt lat="44.82421" lon="6.87221">
        <ele>2665.39</ele>
        <time>2018-09-13T08:55:56Z</time>
      </trkpt>
      <trkpt lat="44.8243" lon="6.87224">
        <ele>2668.28</ele>
        <time>2018-09-13T08:56:20Z</time>
      </trkpt>
      <trkpt lat="44.82436" lon="6.87223">
        <ele>2672.12</ele>
        <time>2018-09-13T08:56:48Z</time>
      </trkpt>
      <trkpt lat="44.82444" lon="6.87233">
        <ele>2675.49</ele>
        <time>2018-09-13T08:57:17Z</time>
      </trkpt>
      <trkpt lat="44.82452" lon="6.87244">
        <ele>2678.85</ele>
        <time>2018-09-13T08:57:43Z</time>
      </trkpt>
      <trkpt lat="44.8246" lon="6.87253">
        <ele>2682.7</ele>
        <time>2018-09-13T08:58:16Z</time>
      </trkpt>
      <trkpt lat="44.82468" lon="6.87261">
        <ele>2685.58</ele>
        <time>2018-09-13T08:58:39Z</time>
      </trkpt>
      <trkpt lat="44.82471" lon="6.87254">
        <ele>2689.43</ele>
        <time>2018-09-13T08:59:08Z</time>
      </trkpt>
      <trkpt lat="44.82477" lon="6.87253">
        <ele>2691.83</ele>
        <time>2018-09-13T08:59:29Z</time>
      </trkpt>
      <trkpt lat="44.82479" lon="6.87246">
        <ele>2693.75</ele>
        <time>2018-09-13T08:59:50Z</time>
      </trkpt>
      <trkpt lat="44.8248" lon="6.87237">
        <ele>2696.15</ele>
        <time>2018-09-13T09:00:04Z</time>
      </trkpt>
      <trkpt lat="44.82488" lon="6.87243">
        <ele>2700</ele>
        <time>2018-09-13T09:00:33Z</time>
      </trkpt>
      <trkpt lat="44.82491" lon="6.8723">
        <ele>2704.81</ele>
        <time>2018-09-13T09:01:05Z</time>
      </trkpt>
      <trkpt lat="44.82494" lon="6.87216">
        <ele>2706.73</ele>
        <time>2018-09-13T09:01:28Z</time>
      </trkpt>
      <trkpt lat="44.82501" lon="6.87216">
        <ele>2711.54</ele>
        <time>2018-09-13T09:01:58Z</time>
      </trkpt>
      <trkpt lat="44.82509" lon="6.87217">
        <ele>2714.9</ele>
        <time>2018-09-13T09:02:28Z</time>
      </trkpt>
      <trkpt lat="44.82513" lon="6.87205">
        <ele>2719.23</ele>
        <time>2018-09-13T09:03:00Z</time>
      </trkpt>
      <trkpt lat="44.82523" lon="6.87202">
        <ele>2722.11</ele>
        <time>2018-09-13T09:03:32Z</time>
      </trkpt>
      <trkpt lat="44.82531" lon="6.87202">
        <ele>2725.96</ele>
        <time>2018-09-13T09:03:59Z</time>
      </trkpt>
      <trkpt lat="44.8254" lon="6.87204">
        <ele>2728.84</ele>
        <time>2018-09-13T09:04:24Z</time>
      </trkpt>
      <trkpt lat="44.82551" lon="6.87204">
        <ele>2731.72</ele>
        <time>2018-09-13T09:04:47Z</time>
      </trkpt>
      <trkpt lat="44.82561" lon="6.87209">
        <ele>2733.65</ele>
        <time>2018-09-13T09:05:06Z</time>
      </trkpt>
      <trkpt lat="44.8257" lon="6.87213">
        <ele>2734.13</ele>
        <time>2018-09-13T09:05:20Z</time>
      </trkpt>
      <trkpt lat="44.8258" lon="6.87217">
        <ele>2735.09</ele>
        <time>2018-09-13T09:05:34Z</time>
      </trkpt>
      <trkpt lat="44.82589" lon="6.87219">
        <ele>2737.01</ele>
        <time>2018-09-13T09:05:48Z</time>
      </trkpt>
      <trkpt lat="44.82599" lon="6.8722">
        <ele>2737.49</ele>
        <time>2018-09-13T09:06:01Z</time>
      </trkpt>
      <trkpt lat="44.82609" lon="6.87218">
        <ele>2738.93</ele>
        <time>2018-09-13T09:06:15Z</time>
      </trkpt>
      <trkpt lat="44.82619" lon="6.87218">
        <ele>2740.38</ele>
        <time>2018-09-13T09:06:30Z</time>
      </trkpt>
      <trkpt lat="44.82629" lon="6.87221">
        <ele>2743.74</ele>
        <time>2018-09-13T09:06:48Z</time>
      </trkpt>
      <trkpt lat="44.82639" lon="6.87224">
        <ele>2745.66</ele>
        <time>2018-09-13T09:07:08Z</time>
      </trkpt>
      <trkpt lat="44.82649" lon="6.87227">
        <ele>2748.07</ele>
        <time>2018-09-13T09:07:24Z</time>
      </trkpt>
      <trkpt lat="44.82658" lon="6.8723">
        <ele>2749.03</ele>
        <time>2018-09-13T09:07:40Z</time>
      </trkpt>
      <trkpt lat="44.82665" lon="6.87229">
        <ele>2751.91</ele>
        <time>2018-09-13T09:07:59Z</time>
      </trkpt>
      <trkpt lat="44.82675" lon="6.87229">
        <ele>2755.28</ele>
        <time>2018-09-13T09:08:27Z</time>
      </trkpt>
      <trkpt lat="44.82685" lon="6.87226">
        <ele>2759.6</ele>
        <time>2018-09-13T09:08:59Z</time>
      </trkpt>
      <trkpt lat="44.82695" lon="6.87227">
        <ele>2763.45</ele>
        <time>2018-09-13T09:09:30Z</time>
      </trkpt>
      <trkpt lat="44.82702" lon="6.87222">
        <ele>2766.81</ele>
        <time>2018-09-13T09:10:02Z</time>
      </trkpt>
      <trkpt lat="44.8271" lon="6.87218">
        <ele>2770.18</ele>
        <time>2018-09-13T09:10:32Z</time>
      </trkpt>
      <trkpt lat="44.82719" lon="6.8722">
        <ele>2773.06</ele>
        <time>2018-09-13T09:11:00Z</time>
      </trkpt>
      <trkpt lat="44.82729" lon="6.87225">
        <ele>2776.42</ele>
        <time>2018-09-13T09:11:19Z</time>
      </trkpt>
      <trkpt lat="44.82737" lon="6.87224">
        <ele>2777.39</ele>
        <time>2018-09-13T09:11:33Z</time>
      </trkpt>
      <trkpt lat="44.82744" lon="6.87219">
        <ele>2780.27</ele>
        <time>2018-09-13T09:11:56Z</time>
      </trkpt>
      <trkpt lat="44.82753" lon="6.87219">
        <ele>2783.63</ele>
        <time>2018-09-13T09:12:19Z</time>
      </trkpt>
      <trkpt lat="44.82763" lon="6.87219">
        <ele>2786.04</ele>
        <time>2018-09-13T09:12:42Z</time>
      </trkpt>
      <trkpt lat="44.8277" lon="6.87213">
        <ele>2788.92</ele>
        <time>2018-09-13T09:13:04Z</time>
      </trkpt>
      <trkpt lat="44.8278" lon="6.8721">
        <ele>2792.77</ele>
        <time>2018-09-13T09:13:36Z</time>
      </trkpt>
      <trkpt lat="44.82789" lon="6.87207">
        <ele>2796.61</ele>
        <time>2018-09-13T09:14:04Z</time>
      </trkpt>
      <trkpt lat="44.82799" lon="6.87206">
        <ele>2799.02</ele>
        <time>2018-09-13T09:14:27Z</time>
      </trkpt>
      <trkpt lat="44.82809" lon="6.87209">
        <ele>2801.42</ele>
        <time>2018-09-13T09:14:45Z</time>
      </trkpt>
      <trkpt lat="44.82817" lon="6.87208">
        <ele>2803.82</ele>
        <time>2018-09-13T09:15:05Z</time>
      </trkpt>
      <trkpt lat="44.82825" lon="6.87206">
        <ele>2805.75</ele>
        <time>2018-09-13T09:15:26Z</time>
      </trkpt>
      <trkpt lat="44.82834" lon="6.87205">
        <ele>2809.11</ele>
        <time>2018-09-13T09:15:47Z</time>
      </trkpt>
      <trkpt lat="44.82844" lon="6.87207">
        <ele>2811.03</ele>
        <time>2018-09-13T09:16:06Z</time>
      </trkpt>
      <trkpt lat="44.82854" lon="6.87208">
        <ele>2813.92</ele>
        <time>2018-09-13T09:16:28Z</time>
      </trkpt>
      <trkpt lat="44.82864" lon="6.87208">
        <ele>2816.8</ele>
        <time>2018-09-13T09:16:49Z</time>
      </trkpt>
      <trkpt lat="44.82876" lon="6.87209">
        <ele>2818.72</ele>
        <time>2018-09-13T09:17:06Z</time>
      </trkpt>
      <trkpt lat="44.82885" lon="6.87208">
        <ele>2819.68</ele>
        <time>2018-09-13T09:17:19Z</time>
      </trkpt>
      <trkpt lat="44.82891" lon="6.87207">
        <ele>2821.61</ele>
        <time>2018-09-13T09:17:32Z</time>
      </trkpt>
      <trkpt lat="44.82901" lon="6.8721">
        <ele>2824.01</ele>
        <time>2018-09-13T09:17:53Z</time>
      </trkpt>
      <trkpt lat="44.82911" lon="6.8721">
        <ele>2825.93</ele>
        <time>2018-09-13T09:18:09Z</time>
      </trkpt>
      <trkpt lat="44.8292" lon="6.87212">
        <ele>2826.41</ele>
        <time>2018-09-13T09:18:23Z</time>
      </trkpt>
      <trkpt lat="44.82929" lon="6.87216">
        <ele>2827.85</ele>
        <time>2018-09-13T09:18:38Z</time>
      </trkpt>
      <trkpt lat="44.82941" lon="6.87211">
        <ele>2832.66</ele>
        <time>2018-09-13T09:19:11Z</time>
      </trkpt>
      <trkpt lat="44.82948" lon="6.87208">
        <ele>2835.06</ele>
        <time>2018-09-13T09:19:31Z</time>
      </trkpt>
      <trkpt lat="44.82957" lon="6.87209">
        <ele>2837.95</ele>
        <time>2018-09-13T09:19:53Z</time>
      </trkpt>
      <trkpt lat="44.82968" lon="6.87209">
        <ele>2842.76</ele>
        <time>2018-09-13T09:20:29Z</time>
      </trkpt>
      <trkpt lat="44.82978" lon="6.87211">
        <ele>2845.16</ele>
        <time>2018-09-13T09:20:52Z</time>
      </trkpt>
      <trkpt lat="44.82986" lon="6.8721">
        <ele>2849.48</ele>
        <time>2018-09-13T09:21:20Z</time>
      </trkpt>
      <trkpt lat="44.82997" lon="6.87209">
        <ele>2853.33</ele>
        <time>2018-09-13T09:21:48Z</time>
      </trkpt>
      <trkpt lat="44.83006" lon="6.87208">
        <ele>2857.18</ele>
        <time>2018-09-13T09:22:17Z</time>
      </trkpt>
      <trkpt lat="44.83015" lon="6.8721">
        <ele>2861.5</ele>
        <time>2018-09-13T09:22:48Z</time>
      </trkpt>
      <trkpt lat="44.83024" lon="6.87208">
        <ele>2866.31</ele>
        <time>2018-09-13T09:23:20Z</time>
      </trkpt>
      <trkpt lat="44.83034" lon="6.87206">
        <ele>2869.67</ele>
        <time>2018-09-13T09:23:51Z</time>
      </trkpt>
      <trkpt lat="44.8304" lon="6.87202">
        <ele>2872.56</ele>
        <time>2018-09-13T09:24:14Z</time>
      </trkpt>
      <trkpt lat="44.83045" lon="6.8719">
        <ele>2876.4</ele>
        <time>2018-09-13T09:24:42Z</time>
      </trkpt>
      <trkpt lat="44.8305" lon="6.87182">
        <ele>2879.77</ele>
        <time>2018-09-13T09:25:10Z</time>
      </trkpt>
      <trkpt lat="44.83058" lon="6.87181">
        <ele>2882.65</ele>
        <time>2018-09-13T09:25:30Z</time>
      </trkpt>
      <trkpt lat="44.83066" lon="6.87178">
        <ele>2886.02</ele>
        <time>2018-09-13T09:25:52Z</time>
      </trkpt>
      <trkpt lat="44.83072" lon="6.87175">
        <ele>2888.9</ele>
        <time>2018-09-13T09:26:13Z</time>
      </trkpt>
      <trkpt lat="44.8308" lon="6.8717">
        <ele>2891.78</ele>
        <time>2018-09-13T09:26:36Z</time>
      </trkpt>
      <trkpt lat="44.83089" lon="6.87165">
        <ele>2896.11</ele>
        <time>2018-09-13T09:27:03Z</time>
      </trkpt>
      <trkpt lat="44.8309" lon="6.8715">
        <ele>2899.47</ele>
        <time>2018-09-13T09:27:27Z</time>
      </trkpt>
      <trkpt lat="44.83092" lon="6.87139">
        <ele>2902.36</ele>
        <time>2018-09-13T09:27:54Z</time>
      </trkpt>
      <trkpt lat="44.83094" lon="6.87138">
        <ele>2903.32</ele>
        <time>2018-09-13T09:28:55Z</time>
      </trkpt>
      <trkpt lat="44.83089" lon="6.87138">
        <ele>2903.32</ele>
        <time>2018-09-13T09:30:26Z</time>
      </trkpt>
      <trkpt lat="44.83087" lon="6.87133">
        <ele>2910.05</ele>
        <time>2018-09-13T09:43:38Z</time>
      </trkpt>
      <trkpt lat="44.83083" lon="6.87128">
        <ele>2908.61</ele>
        <time>2018-09-13T09:44:26Z</time>
      </trkpt>
      <trkpt lat="44.83092" lon="6.87125">
        <ele>2907.65</ele>
        <time>2018-09-13T09:44:40Z</time>
      </trkpt>
      <trkpt lat="44.83099" lon="6.87127">
        <ele>2906.68</ele>
        <time>2018-09-13T09:45:16Z</time>
      </trkpt>
      <trkpt lat="44.83108" lon="6.87123">
        <ele>2902.84</ele>
        <time>2018-09-13T09:45:40Z</time>
      </trkpt>
      <trkpt lat="44.8311" lon="6.87116">
        <ele>2898.51</ele>
        <time>2018-09-13T09:46:05Z</time>
      </trkpt>
      <trkpt lat="44.83102" lon="6.87109">
        <ele>2898.03</ele>
        <time>2018-09-13T09:46:19Z</time>
      </trkpt>
      <trkpt lat="44.831" lon="6.87096">
        <ele>2893.71</ele>
        <time>2018-09-13T09:46:39Z</time>
      </trkpt>
      <trkpt lat="44.831" lon="6.87085">
        <ele>2889.86</ele>
        <time>2018-09-13T09:47:00Z</time>
      </trkpt>
      <trkpt lat="44.83101" lon="6.87072">
        <ele>2884.09</ele>
        <time>2018-09-13T09:47:36Z</time>
      </trkpt>
      <trkpt lat="44.83096" lon="6.8706">
        <ele>2881.21</ele>
        <time>2018-09-13T09:47:51Z</time>
      </trkpt>
      <trkpt lat="44.83093" lon="6.8705">
        <ele>2878.32</ele>
        <time>2018-09-13T09:48:09Z</time>
      </trkpt>
      <trkpt lat="44.8309" lon="6.87039">
        <ele>2875.44</ele>
        <time>2018-09-13T09:48:26Z</time>
      </trkpt>
      <trkpt lat="44.83092" lon="6.87031">
        <ele>2872.08</ele>
        <time>2018-09-13T09:48:44Z</time>
      </trkpt>
      <trkpt lat="44.83084" lon="6.87021">
        <ele>2869.67</ele>
        <time>2018-09-13T09:48:57Z</time>
      </trkpt>
      <trkpt lat="44.83079" lon="6.8701">
        <ele>2867.27</ele>
        <time>2018-09-13T09:49:17Z</time>
      </trkpt>
      <trkpt lat="44.83076" lon="6.87">
        <ele>2864.39</ele>
        <time>2018-09-13T09:49:45Z</time>
      </trkpt>
      <trkpt lat="44.83073" lon="6.86987">
        <ele>2860.54</ele>
        <time>2018-09-13T09:50:10Z</time>
      </trkpt>
      <trkpt lat="44.8307" lon="6.86975">
        <ele>2857.66</ele>
        <time>2018-09-13T09:50:25Z</time>
      </trkpt>
      <trkpt lat="44.83068" lon="6.86962">
        <ele>2853.81</ele>
        <time>2018-09-13T09:50:45Z</time>
      </trkpt>
      <trkpt lat="44.83067" lon="6.86948">
        <ele>2850.45</ele>
        <time>2018-09-13T09:51:02Z</time>
      </trkpt>
      <trkpt lat="44.83063" lon="6.86936">
        <ele>2846.6</ele>
        <time>2018-09-13T09:51:18Z</time>
      </trkpt>
      <trkpt lat="44.83057" lon="6.86928">
        <ele>2845.64</ele>
        <time>2018-09-13T09:51:28Z</time>
      </trkpt>
      <trkpt lat="44.83052" lon="6.86918">
        <ele>2846.12</ele>
        <time>2018-09-13T09:51:37Z</time>
      </trkpt>
      <trkpt lat="44.83048" lon="6.86906">
        <ele>2846.12</ele>
        <time>2018-09-13T09:51:47Z</time>
      </trkpt>
      <trkpt lat="44.83043" lon="6.86891">
        <ele>2843.72</ele>
        <time>2018-09-13T09:52:20Z</time>
      </trkpt>
      <trkpt lat="44.83042" lon="6.86878">
        <ele>2841.31</ele>
        <time>2018-09-13T09:52:32Z</time>
      </trkpt>
      <trkpt lat="44.83042" lon="6.86878">
        <ele>2840.35</ele>
        <time>2018-09-13T09:53:07Z</time>
      </trkpt>
      <trkpt lat="44.83048" lon="6.86886">
        <ele>2838.43</ele>
        <time>2018-09-13T09:53:26Z</time>
      </trkpt>
      <trkpt lat="44.83056" lon="6.86887">
        <ele>2836.03</ele>
        <time>2018-09-13T09:53:40Z</time>
      </trkpt>
      <trkpt lat="44.83064" lon="6.86892">
        <ele>2833.62</ele>
        <time>2018-09-13T09:53:53Z</time>
      </trkpt>
      <trkpt lat="44.83067" lon="6.86885">
        <ele>2830.26</ele>
        <time>2018-09-13T09:54:09Z</time>
      </trkpt>
      <trkpt lat="44.83068" lon="6.86877">
        <ele>2827.85</ele>
        <time>2018-09-13T09:54:22Z</time>
      </trkpt>
      <trkpt lat="44.83067" lon="6.86869">
        <ele>2824.97</ele>
        <time>2018-09-13T09:54:39Z</time>
      </trkpt>
      <trkpt lat="44.8307" lon="6.86852">
        <ele>2820.16</ele>
        <time>2018-09-13T09:54:56Z</time>
      </trkpt>
      <trkpt lat="44.83069" lon="6.86839">
        <ele>2816.32</ele>
        <time>2018-09-13T09:55:10Z</time>
      </trkpt>
      <trkpt lat="44.8307" lon="6.8683">
        <ele>2811.99</ele>
        <time>2018-09-13T09:55:30Z</time>
      </trkpt>
      <trkpt lat="44.83069" lon="6.86817">
        <ele>2809.11</ele>
        <time>2018-09-13T09:55:49Z</time>
      </trkpt>
      <trkpt lat="44.8307" lon="6.86809">
        <ele>2805.75</ele>
        <time>2018-09-13T09:56:11Z</time>
      </trkpt>
      <trkpt lat="44.83068" lon="6.86797">
        <ele>2800.46</ele>
        <time>2018-09-13T09:56:38Z</time>
      </trkpt>
      <trkpt lat="44.8307" lon="6.86783">
        <ele>2796.13</ele>
        <time>2018-09-13T09:56:56Z</time>
      </trkpt>
      <trkpt lat="44.83075" lon="6.86773">
        <ele>2791.33</ele>
        <time>2018-09-13T09:57:17Z</time>
      </trkpt>
      <trkpt lat="44.83075" lon="6.86758">
        <ele>2788.44</ele>
        <time>2018-09-13T09:57:35Z</time>
      </trkpt>
      <trkpt lat="44.83077" lon="6.86745">
        <ele>2784.6</ele>
        <time>2018-09-13T09:57:52Z</time>
      </trkpt>
      <trkpt lat="44.83078" lon="6.86735">
        <ele>2780.75</ele>
        <time>2018-09-13T09:58:10Z</time>
      </trkpt>
      <trkpt lat="44.83083" lon="6.86729">
        <ele>2776.42</ele>
        <time>2018-09-13T09:58:28Z</time>
      </trkpt>
      <trkpt lat="44.83089" lon="6.86723">
        <ele>2774.02</ele>
        <time>2018-09-13T09:58:44Z</time>
      </trkpt>
      <trkpt lat="44.83095" lon="6.86717">
        <ele>2771.62</ele>
        <time>2018-09-13T09:59:01Z</time>
      </trkpt>
      <trkpt lat="44.831" lon="6.86715">
        <ele>2767.77</ele>
        <time>2018-09-13T09:59:18Z</time>
      </trkpt>
      <trkpt lat="44.83099" lon="6.86701">
        <ele>2765.37</ele>
        <time>2018-09-13T09:59:35Z</time>
      </trkpt>
      <trkpt lat="44.83102" lon="6.86691">
        <ele>2762.49</ele>
        <time>2018-09-13T09:59:53Z</time>
      </trkpt>
      <trkpt lat="44.83108" lon="6.86693">
        <ele>2758.64</ele>
        <time>2018-09-13T10:00:09Z</time>
      </trkpt>
      <trkpt lat="44.83114" lon="6.86696">
        <ele>2756.72</ele>
        <time>2018-09-13T10:00:20Z</time>
      </trkpt>
      <trkpt lat="44.8312" lon="6.86689">
        <ele>2752.87</ele>
        <time>2018-09-13T10:00:42Z</time>
      </trkpt>
      <trkpt lat="44.83129" lon="6.86686">
        <ele>2749.51</ele>
        <time>2018-09-13T10:01:05Z</time>
      </trkpt>
      <trkpt lat="44.83134" lon="6.86676">
        <ele>2744.7</ele>
        <time>2018-09-13T10:01:27Z</time>
      </trkpt>
      <trkpt lat="44.83142" lon="6.8667">
        <ele>2741.82</ele>
        <time>2018-09-13T10:01:44Z</time>
      </trkpt>
      <trkpt lat="44.83145" lon="6.86664">
        <ele>2738.45</ele>
        <time>2018-09-13T10:02:06Z</time>
      </trkpt>
      <trkpt lat="44.83154" lon="6.86665">
        <ele>2736.05</ele>
        <time>2018-09-13T10:02:20Z</time>
      </trkpt>
      <trkpt lat="44.83162" lon="6.86663">
        <ele>2731.72</ele>
        <time>2018-09-13T10:02:34Z</time>
      </trkpt>
      <trkpt lat="44.83164" lon="6.86647">
        <ele>2727.88</ele>
        <time>2018-09-13T10:02:51Z</time>
      </trkpt>
      <trkpt lat="44.83166" lon="6.86638">
        <ele>2725.48</ele>
        <time>2018-09-13T10:03:06Z</time>
      </trkpt>
      <trkpt lat="44.8317" lon="6.86636">
        <ele>2722.11</ele>
        <time>2018-09-13T10:03:21Z</time>
      </trkpt>
      <trkpt lat="44.83173" lon="6.86621">
        <ele>2719.71</ele>
        <time>2018-09-13T10:03:34Z</time>
      </trkpt>
      <trkpt lat="44.83177" lon="6.86621">
        <ele>2716.34</ele>
        <time>2018-09-13T10:03:55Z</time>
      </trkpt>
      <trkpt lat="44.83176" lon="6.86613">
        <ele>2713.94</ele>
        <time>2018-09-13T10:04:17Z</time>
      </trkpt>
      <trkpt lat="44.83181" lon="6.86604">
        <ele>2710.57</ele>
        <time>2018-09-13T10:04:35Z</time>
      </trkpt>
      <trkpt lat="44.83184" lon="6.8659">
        <ele>2706.73</ele>
        <time>2018-09-13T10:04:53Z</time>
      </trkpt>
      <trkpt lat="44.83189" lon="6.8658">
        <ele>2703.36</ele>
        <time>2018-09-13T10:05:08Z</time>
      </trkpt>
      <trkpt lat="44.83196" lon="6.8658">
        <ele>2700.48</ele>
        <time>2018-09-13T10:05:23Z</time>
      </trkpt>
      <trkpt lat="44.83197" lon="6.86568">
        <ele>2698.08</ele>
        <time>2018-09-13T10:05:41Z</time>
      </trkpt>
      <trkpt lat="44.83201" lon="6.86559">
        <ele>2695.19</ele>
        <time>2018-09-13T10:05:56Z</time>
      </trkpt>
      <trkpt lat="44.83206" lon="6.86549">
        <ele>2692.31</ele>
        <time>2018-09-13T10:06:10Z</time>
      </trkpt>
      <trkpt lat="44.83209" lon="6.86538">
        <ele>2689.91</ele>
        <time>2018-09-13T10:06:23Z</time>
      </trkpt>
      <trkpt lat="44.83217" lon="6.8654">
        <ele>2687.98</ele>
        <time>2018-09-13T10:06:36Z</time>
      </trkpt>
      <trkpt lat="44.83221" lon="6.86528">
        <ele>2686.06</ele>
        <time>2018-09-13T10:06:49Z</time>
      </trkpt>
      <trkpt lat="44.83229" lon="6.86527">
        <ele>2683.18</ele>
        <time>2018-09-13T10:07:01Z</time>
      </trkpt>
      <trkpt lat="44.83237" lon="6.86521">
        <ele>2681.73</ele>
        <time>2018-09-13T10:07:14Z</time>
      </trkpt>
      <trkpt lat="44.83248" lon="6.8652">
        <ele>2678.85</ele>
        <time>2018-09-13T10:07:27Z</time>
      </trkpt>
      <trkpt lat="44.83255" lon="6.8651">
        <ele>2677.41</ele>
        <time>2018-09-13T10:07:37Z</time>
      </trkpt>
      <trkpt lat="44.83257" lon="6.86496">
        <ele>2676.93</ele>
        <time>2018-09-13T10:07:46Z</time>
      </trkpt>
      <trkpt lat="44.83256" lon="6.86487">
        <ele>2674.04</ele>
        <time>2018-09-13T10:07:59Z</time>
      </trkpt>
      <trkpt lat="44.83252" lon="6.86478">
        <ele>2672.6</ele>
        <time>2018-09-13T10:08:13Z</time>
      </trkpt>
      <trkpt lat="44.83253" lon="6.86466">
        <ele>2669.24</ele>
        <time>2018-09-13T10:08:29Z</time>
      </trkpt>
      <trkpt lat="44.83256" lon="6.86455">
        <ele>2666.83</ele>
        <time>2018-09-13T10:08:43Z</time>
      </trkpt>
      <trkpt lat="44.8326" lon="6.86439">
        <ele>2664.43</ele>
        <time>2018-09-13T10:08:57Z</time>
      </trkpt>
      <trkpt lat="44.83262" lon="6.86423">
        <ele>2662.03</ele>
        <time>2018-09-13T10:09:11Z</time>
      </trkpt>
      <trkpt lat="44.83267" lon="6.86414">
        <ele>2659.62</ele>
        <time>2018-09-13T10:09:25Z</time>
      </trkpt>
      <trkpt lat="44.83268" lon="6.86404">
        <ele>2655.78</ele>
        <time>2018-09-13T10:09:39Z</time>
      </trkpt>
      <trkpt lat="44.83269" lon="6.86396">
        <ele>2651.93</ele>
        <time>2018-09-13T10:09:53Z</time>
      </trkpt>
      <trkpt lat="44.8327" lon="6.86382">
        <ele>2650.01</ele>
        <time>2018-09-13T10:10:07Z</time>
      </trkpt>
      <trkpt lat="44.83277" lon="6.86372">
        <ele>2647.61</ele>
        <time>2018-09-13T10:10:20Z</time>
      </trkpt>
      <trkpt lat="44.83275" lon="6.86361">
        <ele>2644.72</ele>
        <time>2018-09-13T10:10:35Z</time>
      </trkpt>
      <trkpt lat="44.83271" lon="6.86354">
        <ele>2642.32</ele>
        <time>2018-09-13T10:10:47Z</time>
      </trkpt>
      <trkpt lat="44.83263" lon="6.86351">
        <ele>2640.4</ele>
        <time>2018-09-13T10:10:59Z</time>
      </trkpt>
      <trkpt lat="44.83256" lon="6.86341">
        <ele>2638.48</ele>
        <time>2018-09-13T10:11:11Z</time>
      </trkpt>
      <trkpt lat="44.83255" lon="6.86327">
        <ele>2636.55</ele>
        <time>2018-09-13T10:11:26Z</time>
      </trkpt>
      <trkpt lat="44.83254" lon="6.86313">
        <ele>2634.15</ele>
        <time>2018-09-13T10:11:39Z</time>
      </trkpt>
      <trkpt lat="44.83252" lon="6.863">
        <ele>2632.23</ele>
        <time>2018-09-13T10:11:51Z</time>
      </trkpt>
      <trkpt lat="44.83256" lon="6.86291">
        <ele>2631.27</ele>
        <time>2018-09-13T10:12:05Z</time>
      </trkpt>
      <trkpt lat="44.83266" lon="6.86291">
        <ele>2627.42</ele>
        <time>2018-09-13T10:12:21Z</time>
      </trkpt>
      <trkpt lat="44.83275" lon="6.86298">
        <ele>2625.5</ele>
        <time>2018-09-13T10:12:34Z</time>
      </trkpt>
      <trkpt lat="44.83284" lon="6.86298">
        <ele>2624.54</ele>
        <time>2018-09-13T10:12:47Z</time>
      </trkpt>
      <trkpt lat="44.83291" lon="6.86288">
        <ele>2621.17</ele>
        <time>2018-09-13T10:13:02Z</time>
      </trkpt>
      <trkpt lat="44.833" lon="6.86287">
        <ele>2620.21</ele>
        <time>2018-09-13T10:13:14Z</time>
      </trkpt>
      <trkpt lat="44.83308" lon="6.86284">
        <ele>2617.81</ele>
        <time>2018-09-13T10:13:25Z</time>
      </trkpt>
      <trkpt lat="44.83318" lon="6.86285">
        <ele>2616.37</ele>
        <time>2018-09-13T10:13:37Z</time>
      </trkpt>
      <trkpt lat="44.83325" lon="6.86276">
        <ele>2614.92</ele>
        <time>2018-09-13T10:13:47Z</time>
      </trkpt>
      <trkpt lat="44.83332" lon="6.86266">
        <ele>2612.52</ele>
        <time>2018-09-13T10:13:59Z</time>
      </trkpt>
      <trkpt lat="44.83339" lon="6.86256">
        <ele>2611.56</ele>
        <time>2018-09-13T10:14:09Z</time>
      </trkpt>
      <trkpt lat="44.83344" lon="6.86249">
        <ele>2609.64</ele>
        <time>2018-09-13T10:14:19Z</time>
      </trkpt>
      <trkpt lat="44.83345" lon="6.86234">
        <ele>2608.19</ele>
        <time>2018-09-13T10:14:29Z</time>
      </trkpt>
      <trkpt lat="44.83347" lon="6.86222">
        <ele>2606.75</ele>
        <time>2018-09-13T10:14:40Z</time>
      </trkpt>
      <trkpt lat="44.83349" lon="6.86207">
        <ele>2605.31</ele>
        <time>2018-09-13T10:14:50Z</time>
      </trkpt>
      <trkpt lat="44.8335" lon="6.86194">
        <ele>2603.87</ele>
        <time>2018-09-13T10:15:01Z</time>
      </trkpt>
      <trkpt lat="44.83348" lon="6.86182">
        <ele>2600.98</ele>
        <time>2018-09-13T10:15:13Z</time>
      </trkpt>
      <trkpt lat="44.83346" lon="6.86168">
        <ele>2599.54</ele>
        <time>2018-09-13T10:15:23Z</time>
      </trkpt>
      <trkpt lat="44.83345" lon="6.86155">
        <ele>2597.14</ele>
        <time>2018-09-13T10:15:35Z</time>
      </trkpt>
      <trkpt lat="44.83339" lon="6.86147">
        <ele>2595.22</ele>
        <time>2018-09-13T10:15:49Z</time>
      </trkpt>
      <trkpt lat="44.83333" lon="6.86137">
        <ele>2592.81</ele>
        <time>2018-09-13T10:16:01Z</time>
      </trkpt>
      <trkpt lat="44.83334" lon="6.86125">
        <ele>2589.93</ele>
        <time>2018-09-13T10:16:14Z</time>
      </trkpt>
      <trkpt lat="44.83337" lon="6.86112">
        <ele>2587.04</ele>
        <time>2018-09-13T10:16:24Z</time>
      </trkpt>
      <trkpt lat="44.83341" lon="6.86101">
        <ele>2585.12</ele>
        <time>2018-09-13T10:16:36Z</time>
      </trkpt>
      <trkpt lat="44.83345" lon="6.86086">
        <ele>2582.24</ele>
        <time>2018-09-13T10:16:50Z</time>
      </trkpt>
      <trkpt lat="44.83347" lon="6.86078">
        <ele>2579.84</ele>
        <time>2018-09-13T10:17:02Z</time>
      </trkpt>
      <trkpt lat="44.83352" lon="6.86067">
        <ele>2576.47</ele>
        <time>2018-09-13T10:17:14Z</time>
      </trkpt>
      <trkpt lat="44.83358" lon="6.86056">
        <ele>2573.11</ele>
        <time>2018-09-13T10:17:24Z</time>
      </trkpt>
      <trkpt lat="44.83359" lon="6.86046">
        <ele>2569.74</ele>
        <time>2018-09-13T10:17:36Z</time>
      </trkpt>
      <trkpt lat="44.83353" lon="6.86039">
        <ele>2566.86</ele>
        <time>2018-09-13T10:17:51Z</time>
      </trkpt>
      <trkpt lat="44.83347" lon="6.86028">
        <ele>2564.45</ele>
        <time>2018-09-13T10:18:04Z</time>
      </trkpt>
      <trkpt lat="44.8335" lon="6.86015">
        <ele>2561.09</ele>
        <time>2018-09-13T10:18:30Z</time>
      </trkpt>
      <trkpt lat="44.83355" lon="6.85998">
        <ele>2558.21</ele>
        <time>2018-09-13T10:18:42Z</time>
      </trkpt>
      <trkpt lat="44.8336" lon="6.85991">
        <ele>2555.32</ele>
        <time>2018-09-13T10:18:55Z</time>
      </trkpt>
      <trkpt lat="44.83368" lon="6.85985">
        <ele>2552.44</ele>
        <time>2018-09-13T10:19:05Z</time>
      </trkpt>
      <trkpt lat="44.83372" lon="6.85975">
        <ele>2550.51</ele>
        <time>2018-09-13T10:19:18Z</time>
      </trkpt>
      <trkpt lat="44.83375" lon="6.85964">
        <ele>2547.63</ele>
        <time>2018-09-13T10:19:28Z</time>
      </trkpt>
      <trkpt lat="44.83377" lon="6.85951">
        <ele>2544.75</ele>
        <time>2018-09-13T10:19:41Z</time>
      </trkpt>
      <trkpt lat="44.83382" lon="6.85939">
        <ele>2542.34</ele>
        <time>2018-09-13T10:19:52Z</time>
      </trkpt>
      <trkpt lat="44.83388" lon="6.85928">
        <ele>2540.42</ele>
        <time>2018-09-13T10:20:02Z</time>
      </trkpt>
      <trkpt lat="44.83392" lon="6.85914">
        <ele>2538.98</ele>
        <time>2018-09-13T10:20:12Z</time>
      </trkpt>
      <trkpt lat="44.83391" lon="6.85899">
        <ele>2536.58</ele>
        <time>2018-09-13T10:20:25Z</time>
      </trkpt>
      <trkpt lat="44.83393" lon="6.85884">
        <ele>2534.65</ele>
        <time>2018-09-13T10:20:36Z</time>
      </trkpt>
      <trkpt lat="44.83396" lon="6.85873">
        <ele>2533.21</ele>
        <time>2018-09-13T10:20:45Z</time>
      </trkpt>
      <trkpt lat="44.83399" lon="6.85862">
        <ele>2531.29</ele>
        <time>2018-09-13T10:20:55Z</time>
      </trkpt>
      <trkpt lat="44.834" lon="6.85848">
        <ele>2530.33</ele>
        <time>2018-09-13T10:21:05Z</time>
      </trkpt>
      <trkpt lat="44.83399" lon="6.85838">
        <ele>2528.89</ele>
        <time>2018-09-13T10:21:14Z</time>
      </trkpt>
      <trkpt lat="44.83398" lon="6.85825">
        <ele>2527.44</ele>
        <time>2018-09-13T10:21:24Z</time>
      </trkpt>
      <trkpt lat="44.83398" lon="6.85811">
        <ele>2526</ele>
        <time>2018-09-13T10:21:35Z</time>
      </trkpt>
      <trkpt lat="44.83401" lon="6.85798">
        <ele>2525.04</ele>
        <time>2018-09-13T10:22:26Z</time>
      </trkpt>
      <trkpt lat="44.83405" lon="6.85786">
        <ele>2523.12</ele>
        <time>2018-09-13T10:22:35Z</time>
      </trkpt>
      <trkpt lat="44.83406" lon="6.8577">
        <ele>2521.19</ele>
        <time>2018-09-13T10:22:45Z</time>
      </trkpt>
      <trkpt lat="44.83412" lon="6.85759">
        <ele>2521.68</ele>
        <time>2018-09-13T10:22:54Z</time>
      </trkpt>
      <trkpt lat="44.83417" lon="6.85749">
        <ele>2520.71</ele>
        <time>2018-09-13T10:23:02Z</time>
      </trkpt>
      <trkpt lat="44.83422" lon="6.85738">
        <ele>2519.75</ele>
        <time>2018-09-13T10:23:10Z</time>
      </trkpt>
      <trkpt lat="44.83429" lon="6.8573">
        <ele>2519.27</ele>
        <time>2018-09-13T10:23:18Z</time>
      </trkpt>
      <trkpt lat="44.83429" lon="6.85715">
        <ele>2519.27</ele>
        <time>2018-09-13T10:23:27Z</time>
      </trkpt>
      <trkpt lat="44.83429" lon="6.85701">
        <ele>2518.79</ele>
        <time>2018-09-13T10:23:36Z</time>
      </trkpt>
      <trkpt lat="44.8343" lon="6.85688">
        <ele>2518.31</ele>
        <time>2018-09-13T10:23:44Z</time>
      </trkpt>
      <trkpt lat="44.83432" lon="6.85673">
        <ele>2517.83</ele>
        <time>2018-09-13T10:23:53Z</time>
      </trkpt>
      <trkpt lat="44.83435" lon="6.85659">
        <ele>2516.87</ele>
        <time>2018-09-13T10:24:02Z</time>
      </trkpt>
      <trkpt lat="44.83439" lon="6.85646">
        <ele>2515.91</ele>
        <time>2018-09-13T10:24:10Z</time>
      </trkpt>
      <trkpt lat="44.83444" lon="6.85636">
        <ele>2514.95</ele>
        <time>2018-09-13T10:24:18Z</time>
      </trkpt>
      <trkpt lat="44.83451" lon="6.85627">
        <ele>2514.95</ele>
        <time>2018-09-13T10:24:26Z</time>
      </trkpt>
      <trkpt lat="44.83459" lon="6.85619">
        <ele>2514.47</ele>
        <time>2018-09-13T10:24:34Z</time>
      </trkpt>
      <trkpt lat="44.83466" lon="6.8561">
        <ele>2514.47</ele>
        <time>2018-09-13T10:24:44Z</time>
      </trkpt>
      <trkpt lat="44.83475" lon="6.85605">
        <ele>2514.47</ele>
        <time>2018-09-13T10:24:53Z</time>
      </trkpt>
      <trkpt lat="44.83484" lon="6.85604">
        <ele>2513.98</ele>
        <time>2018-09-13T10:25:03Z</time>
      </trkpt>
      <trkpt lat="44.83492" lon="6.856">
        <ele>2513.5</ele>
        <time>2018-09-13T10:25:12Z</time>
      </trkpt>
      <trkpt lat="44.835" lon="6.85595">
        <ele>2513.02</ele>
        <time>2018-09-13T10:25:22Z</time>
      </trkpt>
      <trkpt lat="44.83508" lon="6.85587">
        <ele>2512.54</ele>
        <time>2018-09-13T10:25:31Z</time>
      </trkpt>
      <trkpt lat="44.83516" lon="6.85579">
        <ele>2511.58</ele>
        <time>2018-09-13T10:25:40Z</time>
      </trkpt>
      <trkpt lat="44.8352" lon="6.85567">
        <ele>2511.1</ele>
        <time>2018-09-13T10:25:50Z</time>
      </trkpt>
      <trkpt lat="44.83524" lon="6.85553">
        <ele>2510.62</ele>
        <time>2018-09-13T10:26:04Z</time>
      </trkpt>
      <trkpt lat="44.83528" lon="6.85541">
        <ele>2510.14</ele>
        <time>2018-09-13T10:26:16Z</time>
      </trkpt>
      <trkpt lat="44.83529" lon="6.85527">
        <ele>2510.14</ele>
        <time>2018-09-13T10:26:31Z</time>
      </trkpt>
      <trkpt lat="44.83533" lon="6.85512">
        <ele>2508.7</ele>
        <time>2018-09-13T10:26:47Z</time>
      </trkpt>
      <trkpt lat="44.8354" lon="6.85496">
        <ele>2506.77</ele>
        <time>2018-09-13T10:27:02Z</time>
      </trkpt>
      <trkpt lat="44.83541" lon="6.85482">
        <ele>2505.81</ele>
        <time>2018-09-13T10:27:15Z</time>
      </trkpt>
      <trkpt lat="44.83542" lon="6.85466">
        <ele>2503.89</ele>
        <time>2018-09-13T10:27:26Z</time>
      </trkpt>
      <trkpt lat="44.83547" lon="6.85453">
        <ele>2502.45</ele>
        <time>2018-09-13T10:27:40Z</time>
      </trkpt>
      <trkpt lat="44.83553" lon="6.85438">
        <ele>2501.97</ele>
        <time>2018-09-13T10:27:54Z</time>
      </trkpt>
      <trkpt lat="44.83559" lon="6.85426">
        <ele>2499.08</ele>
        <time>2018-09-13T10:28:09Z</time>
      </trkpt>
      <trkpt lat="44.8356" lon="6.8541">
        <ele>2498.6</ele>
        <time>2018-09-13T10:28:21Z</time>
      </trkpt>
      <trkpt lat="44.8356" lon="6.85395">
        <ele>2498.12</ele>
        <time>2018-09-13T10:28:33Z</time>
      </trkpt>
      <trkpt lat="44.83567" lon="6.8538">
        <ele>2496.68</ele>
        <time>2018-09-13T10:28:46Z</time>
      </trkpt>
      <trkpt lat="44.83572" lon="6.8537">
        <ele>2495.72</ele>
        <time>2018-09-13T10:28:58Z</time>
      </trkpt>
      <trkpt lat="44.83576" lon="6.85358">
        <ele>2494.28</ele>
        <time>2018-09-13T10:29:11Z</time>
      </trkpt>
      <trkpt lat="44.83582" lon="6.85345">
        <ele>2491.39</ele>
        <time>2018-09-13T10:29:24Z</time>
      </trkpt>
      <trkpt lat="44.83585" lon="6.85335">
        <ele>2488.99</ele>
        <time>2018-09-13T10:29:42Z</time>
      </trkpt>
      <trkpt lat="44.83587" lon="6.85325">
        <ele>2486.59</ele>
        <time>2018-09-13T10:29:58Z</time>
      </trkpt>
      <trkpt lat="44.83589" lon="6.8531">
        <ele>2485.15</ele>
        <time>2018-09-13T10:30:11Z</time>
      </trkpt>
      <trkpt lat="44.83588" lon="6.85296">
        <ele>2485.15</ele>
        <time>2018-09-13T10:30:21Z</time>
      </trkpt>
      <trkpt lat="44.83589" lon="6.85282">
        <ele>2483.7</ele>
        <time>2018-09-13T10:30:33Z</time>
      </trkpt>
      <trkpt lat="44.83595" lon="6.85268">
        <ele>2479.38</ele>
        <time>2018-09-13T10:30:45Z</time>
      </trkpt>
      <trkpt lat="44.83599" lon="6.85257">
        <ele>2476.49</ele>
        <time>2018-09-13T10:30:54Z</time>
      </trkpt>
      <trkpt lat="44.83596" lon="6.85247">
        <ele>2476.01</ele>
        <time>2018-09-13T10:31:05Z</time>
      </trkpt>
      <trkpt lat="44.83597" lon="6.85233">
        <ele>2473.13</ele>
        <time>2018-09-13T10:31:19Z</time>
      </trkpt>
      <trkpt lat="44.83598" lon="6.85217">
        <ele>2471.21</ele>
        <time>2018-09-13T10:31:30Z</time>
      </trkpt>
      <trkpt lat="44.83595" lon="6.85206">
        <ele>2470.73</ele>
        <time>2018-09-13T10:31:40Z</time>
      </trkpt>
      <trkpt lat="44.83599" lon="6.85194">
        <ele>2469.28</ele>
        <time>2018-09-13T10:31:52Z</time>
      </trkpt>
      <trkpt lat="44.83605" lon="6.85183">
        <ele>2466.4</ele>
        <time>2018-09-13T10:32:01Z</time>
      </trkpt>
      <trkpt lat="44.83605" lon="6.85168">
        <ele>2465.44</ele>
        <time>2018-09-13T10:32:12Z</time>
      </trkpt>
      <trkpt lat="44.8361" lon="6.85154">
        <ele>2464</ele>
        <time>2018-09-13T10:32:29Z</time>
      </trkpt>
      <trkpt lat="44.83616" lon="6.85142">
        <ele>2462.07</ele>
        <time>2018-09-13T10:33:01Z</time>
      </trkpt>
      <trkpt lat="44.83614" lon="6.85129">
        <ele>2461.59</ele>
        <time>2018-09-13T10:33:13Z</time>
      </trkpt>
      <trkpt lat="44.83614" lon="6.85115">
        <ele>2459.67</ele>
        <time>2018-09-13T10:33:25Z</time>
      </trkpt>
      <trkpt lat="44.8361" lon="6.85104">
        <ele>2458.23</ele>
        <time>2018-09-13T10:33:36Z</time>
      </trkpt>
      <trkpt lat="44.83607" lon="6.8509">
        <ele>2456.79</ele>
        <time>2018-09-13T10:33:47Z</time>
      </trkpt>
      <trkpt lat="44.8361" lon="6.85076">
        <ele>2454.38</ele>
        <time>2018-09-13T10:34:02Z</time>
      </trkpt>
      <trkpt lat="44.83611" lon="6.85063">
        <ele>2451.98</ele>
        <time>2018-09-13T10:34:14Z</time>
      </trkpt>
      <trkpt lat="44.83609" lon="6.85052">
        <ele>2449.1</ele>
        <time>2018-09-13T10:34:27Z</time>
      </trkpt>
      <trkpt lat="44.83606" lon="6.8504">
        <ele>2446.21</ele>
        <time>2018-09-13T10:34:38Z</time>
      </trkpt>
      <trkpt lat="44.83604" lon="6.85027">
        <ele>2443.81</ele>
        <time>2018-09-13T10:34:50Z</time>
      </trkpt>
      <trkpt lat="44.836" lon="6.85012">
        <ele>2441.89</ele>
        <time>2018-09-13T10:35:00Z</time>
      </trkpt>
      <trkpt lat="44.83599" lon="6.84997">
        <ele>2440.92</ele>
        <time>2018-09-13T10:35:09Z</time>
      </trkpt>
      <trkpt lat="44.83601" lon="6.84985">
        <ele>2439.48</ele>
        <time>2018-09-13T10:35:18Z</time>
      </trkpt>
      <trkpt lat="44.83602" lon="6.8497">
        <ele>2439.48</ele>
        <time>2018-09-13T10:35:27Z</time>
      </trkpt>
      <trkpt lat="44.83603" lon="6.84961">
        <ele>2439</ele>
        <time>2018-09-13T10:35:51Z</time>
      </trkpt>
      <trkpt lat="44.8361" lon="6.8495">
        <ele>2437.56</ele>
        <time>2018-09-13T10:36:06Z</time>
      </trkpt>
      <trkpt lat="44.83616" lon="6.84938">
        <ele>2437.08</ele>
        <time>2018-09-13T10:36:21Z</time>
      </trkpt>
      <trkpt lat="44.8362" lon="6.84926">
        <ele>2436.12</ele>
        <time>2018-09-13T10:36:32Z</time>
      </trkpt>
      <trkpt lat="44.83623" lon="6.84913">
        <ele>2436.12</ele>
        <time>2018-09-13T10:36:43Z</time>
      </trkpt>
      <trkpt lat="44.83628" lon="6.84902">
        <ele>2434.68</ele>
        <time>2018-09-13T10:36:54Z</time>
      </trkpt>
      <trkpt lat="44.83635" lon="6.84891">
        <ele>2432.75</ele>
        <time>2018-09-13T10:37:06Z</time>
      </trkpt>
      <trkpt lat="44.83638" lon="6.84881">
        <ele>2431.31</ele>
        <time>2018-09-13T10:37:18Z</time>
      </trkpt>
      <trkpt lat="44.83643" lon="6.84869">
        <ele>2429.39</ele>
        <time>2018-09-13T10:37:30Z</time>
      </trkpt>
      <trkpt lat="44.83648" lon="6.84855">
        <ele>2428.43</ele>
        <time>2018-09-13T10:37:41Z</time>
      </trkpt>
      <trkpt lat="44.8365" lon="6.84841">
        <ele>2427.47</ele>
        <time>2018-09-13T10:37:53Z</time>
      </trkpt>
      <trkpt lat="44.83656" lon="6.8483">
        <ele>2426.5</ele>
        <time>2018-09-13T10:38:04Z</time>
      </trkpt>
      <trkpt lat="44.8366" lon="6.84818">
        <ele>2425.54</ele>
        <time>2018-09-13T10:38:15Z</time>
      </trkpt>
      <trkpt lat="44.83664" lon="6.84806">
        <ele>2425.06</ele>
        <time>2018-09-13T10:38:26Z</time>
      </trkpt>
      <trkpt lat="44.83665" lon="6.84792">
        <ele>2423.14</ele>
        <time>2018-09-13T10:38:36Z</time>
      </trkpt>
      <trkpt lat="44.8367" lon="6.84781">
        <ele>2422.66</ele>
        <time>2018-09-13T10:38:46Z</time>
      </trkpt>
      <trkpt lat="44.83678" lon="6.84772">
        <ele>2422.18</ele>
        <time>2018-09-13T10:38:56Z</time>
      </trkpt>
      <trkpt lat="44.83685" lon="6.84761">
        <ele>2420.74</ele>
        <time>2018-09-13T10:39:07Z</time>
      </trkpt>
      <trkpt lat="44.83693" lon="6.84751">
        <ele>2419.78</ele>
        <time>2018-09-13T10:39:19Z</time>
      </trkpt>
      <trkpt lat="44.83696" lon="6.84737">
        <ele>2417.85</ele>
        <time>2018-09-13T10:39:32Z</time>
      </trkpt>
      <trkpt lat="44.83704" lon="6.84726">
        <ele>2416.41</ele>
        <time>2018-09-13T10:39:45Z</time>
      </trkpt>
      <trkpt lat="44.83708" lon="6.84715">
        <ele>2414.97</ele>
        <time>2018-09-13T10:39:57Z</time>
      </trkpt>
      <trkpt lat="44.83716" lon="6.84706">
        <ele>2414.01</ele>
        <time>2018-09-13T10:40:08Z</time>
      </trkpt>
      <trkpt lat="44.83721" lon="6.84696">
        <ele>2410.64</ele>
        <time>2018-09-13T10:40:19Z</time>
      </trkpt>
      <trkpt lat="44.83726" lon="6.84684">
        <ele>2410.64</ele>
        <time>2018-09-13T10:40:30Z</time>
      </trkpt>
      <trkpt lat="44.83732" lon="6.84671">
        <ele>2409.68</ele>
        <time>2018-09-13T10:40:44Z</time>
      </trkpt>
      <trkpt lat="44.83736" lon="6.84658">
        <ele>2408.24</ele>
        <time>2018-09-13T10:40:55Z</time>
      </trkpt>
      <trkpt lat="44.83742" lon="6.84647">
        <ele>2406.8</ele>
        <time>2018-09-13T10:41:07Z</time>
      </trkpt>
      <trkpt lat="44.83753" lon="6.84642">
        <ele>2404.88</ele>
        <time>2018-09-13T10:41:20Z</time>
      </trkpt>
      <trkpt lat="44.83759" lon="6.84634">
        <ele>2402.95</ele>
        <time>2018-09-13T10:41:30Z</time>
      </trkpt>
      <trkpt lat="44.83766" lon="6.84628">
        <ele>2401.99</ele>
        <time>2018-09-13T10:41:39Z</time>
      </trkpt>
      <trkpt lat="44.83769" lon="6.84615">
        <ele>2401.03</ele>
        <time>2018-09-13T10:41:50Z</time>
      </trkpt>
      <trkpt lat="44.83771" lon="6.84602">
        <ele>2399.59</ele>
        <time>2018-09-13T10:42:00Z</time>
      </trkpt>
      <trkpt lat="44.83778" lon="6.84591">
        <ele>2399.11</ele>
        <time>2018-09-13T10:42:10Z</time>
      </trkpt>
      <trkpt lat="44.83784" lon="6.8458">
        <ele>2398.15</ele>
        <time>2018-09-13T10:42:20Z</time>
      </trkpt>
      <trkpt lat="44.83792" lon="6.8457">
        <ele>2395.74</ele>
        <time>2018-09-13T10:42:31Z</time>
      </trkpt>
      <trkpt lat="44.83801" lon="6.84561">
        <ele>2394.78</ele>
        <time>2018-09-13T10:42:40Z</time>
      </trkpt>
      <trkpt lat="44.83805" lon="6.84551">
        <ele>2393.34</ele>
        <time>2018-09-13T10:42:51Z</time>
      </trkpt>
      <trkpt lat="44.83813" lon="6.84541">
        <ele>2392.38</ele>
        <time>2018-09-13T10:43:02Z</time>
      </trkpt>
      <trkpt lat="44.8382" lon="6.8453">
        <ele>2390.46</ele>
        <time>2018-09-13T10:43:13Z</time>
      </trkpt>
      <trkpt lat="44.83827" lon="6.84522">
        <ele>2389.01</ele>
        <time>2018-09-13T10:43:21Z</time>
      </trkpt>
      <trkpt lat="44.83831" lon="6.84514">
        <ele>2387.57</ele>
        <time>2018-09-13T10:43:29Z</time>
      </trkpt>
      <trkpt lat="44.83841" lon="6.84505">
        <ele>2385.65</ele>
        <time>2018-09-13T10:43:39Z</time>
      </trkpt>
      <trkpt lat="44.83847" lon="6.84496">
        <ele>2384.69</ele>
        <time>2018-09-13T10:43:49Z</time>
      </trkpt>
      <trkpt lat="44.83856" lon="6.84488">
        <ele>2382.76</ele>
        <time>2018-09-13T10:43:58Z</time>
      </trkpt>
      <trkpt lat="44.83867" lon="6.84482">
        <ele>2381.8</ele>
        <time>2018-09-13T10:44:09Z</time>
      </trkpt>
      <trkpt lat="44.83876" lon="6.84474">
        <ele>2380.36</ele>
        <time>2018-09-13T10:44:19Z</time>
      </trkpt>
      <trkpt lat="44.83882" lon="6.84463">
        <ele>2378.92</ele>
        <time>2018-09-13T10:44:27Z</time>
      </trkpt>
      <trkpt lat="44.83888" lon="6.84453">
        <ele>2378.44</ele>
        <time>2018-09-13T10:44:36Z</time>
      </trkpt>
      <trkpt lat="44.83896" lon="6.84444">
        <ele>2377.48</ele>
        <time>2018-09-13T10:44:45Z</time>
      </trkpt>
      <trkpt lat="44.83902" lon="6.84433">
        <ele>2375.55</ele>
        <time>2018-09-13T10:45:01Z</time>
      </trkpt>
      <trkpt lat="44.83909" lon="6.84426">
        <ele>2374.59</ele>
        <time>2018-09-13T10:45:09Z</time>
      </trkpt>
      <trkpt lat="44.83918" lon="6.84416">
        <ele>2374.11</ele>
        <time>2018-09-13T10:45:19Z</time>
      </trkpt>
      <trkpt lat="44.83924" lon="6.84405">
        <ele>2373.15</ele>
        <time>2018-09-13T10:45:27Z</time>
      </trkpt>
      <trkpt lat="44.83929" lon="6.84395">
        <ele>2371.71</ele>
        <time>2018-09-13T10:45:36Z</time>
      </trkpt>
      <trkpt lat="44.83934" lon="6.84383">
        <ele>2370.75</ele>
        <time>2018-09-13T10:45:45Z</time>
      </trkpt>
      <trkpt lat="44.83934" lon="6.8437">
        <ele>2369.79</ele>
        <time>2018-09-13T10:45:55Z</time>
      </trkpt>
      <trkpt lat="44.83936" lon="6.84358">
        <ele>2369.79</ele>
        <time>2018-09-13T10:46:04Z</time>
      </trkpt>
      <trkpt lat="44.83937" lon="6.84345">
        <ele>2368.35</ele>
        <time>2018-09-13T10:46:13Z</time>
      </trkpt>
      <trkpt lat="44.83938" lon="6.84332">
        <ele>2367.38</ele>
        <time>2018-09-13T10:46:22Z</time>
      </trkpt>
      <trkpt lat="44.83941" lon="6.8432">
        <ele>2366.42</ele>
        <time>2018-09-13T10:46:32Z</time>
      </trkpt>
      <trkpt lat="44.83943" lon="6.84307">
        <ele>2366.42</ele>
        <time>2018-09-13T10:46:43Z</time>
      </trkpt>
      <trkpt lat="44.83946" lon="6.84293">
        <ele>2365.46</ele>
        <time>2018-09-13T10:46:53Z</time>
      </trkpt>
      <trkpt lat="44.83948" lon="6.84279">
        <ele>2364.5</ele>
        <time>2018-09-13T10:47:04Z</time>
      </trkpt>
      <trkpt lat="44.83951" lon="6.84265">
        <ele>2363.06</ele>
        <time>2018-09-13T10:47:14Z</time>
      </trkpt>
      <trkpt lat="44.83955" lon="6.84254">
        <ele>2361.62</ele>
        <time>2018-09-13T10:47:24Z</time>
      </trkpt>
      <trkpt lat="44.83962" lon="6.84244">
        <ele>2360.65</ele>
        <time>2018-09-13T10:47:35Z</time>
      </trkpt>
      <trkpt lat="44.83965" lon="6.8423">
        <ele>2359.69</ele>
        <time>2018-09-13T10:47:47Z</time>
      </trkpt>
      <trkpt lat="44.83963" lon="6.84217">
        <ele>2358.25</ele>
        <time>2018-09-13T10:47:57Z</time>
      </trkpt>
      <trkpt lat="44.83965" lon="6.84202">
        <ele>2356.81</ele>
        <time>2018-09-13T10:48:07Z</time>
      </trkpt>
      <trkpt lat="44.83965" lon="6.8419">
        <ele>2357.29</ele>
        <time>2018-09-13T10:48:18Z</time>
      </trkpt>
      <trkpt lat="44.83965" lon="6.84179">
        <ele>2356.81</ele>
        <time>2018-09-13T10:48:32Z</time>
      </trkpt>
      <trkpt lat="44.83967" lon="6.84164">
        <ele>2354.41</ele>
        <time>2018-09-13T10:48:44Z</time>
      </trkpt>
      <trkpt lat="44.83968" lon="6.84151">
        <ele>2353.44</ele>
        <time>2018-09-13T10:48:57Z</time>
      </trkpt>
      <trkpt lat="44.83969" lon="6.84139">
        <ele>2352</ele>
        <time>2018-09-13T10:49:07Z</time>
      </trkpt>
      <trkpt lat="44.83977" lon="6.84132">
        <ele>2350.56</ele>
        <time>2018-09-13T10:49:20Z</time>
      </trkpt>
      <trkpt lat="44.83982" lon="6.8412">
        <ele>2349.12</ele>
        <time>2018-09-13T10:49:30Z</time>
      </trkpt>
      <trkpt lat="44.83987" lon="6.84109">
        <ele>2348.16</ele>
        <time>2018-09-13T10:49:39Z</time>
      </trkpt>
      <trkpt lat="44.83991" lon="6.84097">
        <ele>2348.16</ele>
        <time>2018-09-13T10:49:48Z</time>
      </trkpt>
      <trkpt lat="44.83994" lon="6.84085">
        <ele>2347.68</ele>
        <time>2018-09-13T10:49:57Z</time>
      </trkpt>
      <trkpt lat="44.83997" lon="6.84072">
        <ele>2346.72</ele>
        <time>2018-09-13T10:50:06Z</time>
      </trkpt>
      <trkpt lat="44.84" lon="6.84059">
        <ele>2346.23</ele>
        <time>2018-09-13T10:50:15Z</time>
      </trkpt>
      <trkpt lat="44.84004" lon="6.84047">
        <ele>2344.79</ele>
        <time>2018-09-13T10:50:24Z</time>
      </trkpt>
      <trkpt lat="44.8401" lon="6.84035">
        <ele>2343.83</ele>
        <time>2018-09-13T10:50:33Z</time>
      </trkpt>
      <trkpt lat="44.84013" lon="6.84022">
        <ele>2343.35</ele>
        <time>2018-09-13T10:50:42Z</time>
      </trkpt>
      <trkpt lat="44.84018" lon="6.84011">
        <ele>2342.39</ele>
        <time>2018-09-13T10:50:50Z</time>
      </trkpt>
      <trkpt lat="44.84022" lon="6.83998">
        <ele>2340.95</ele>
        <time>2018-09-13T10:51:00Z</time>
      </trkpt>
      <trkpt lat="44.84023" lon="6.83984">
        <ele>2340.95</ele>
        <time>2018-09-13T10:51:10Z</time>
      </trkpt>
      <trkpt lat="44.84027" lon="6.83971">
        <ele>2339.02</ele>
        <time>2018-09-13T10:51:20Z</time>
      </trkpt>
      <trkpt lat="44.8403" lon="6.83958">
        <ele>2338.54</ele>
        <time>2018-09-13T10:51:30Z</time>
      </trkpt>
      <trkpt lat="44.84038" lon="6.83946">
        <ele>2337.58</ele>
        <time>2018-09-13T10:51:40Z</time>
      </trkpt>
      <trkpt lat="44.84044" lon="6.83934">
        <ele>2336.62</ele>
        <time>2018-09-13T10:51:50Z</time>
      </trkpt>
      <trkpt lat="44.84048" lon="6.83922">
        <ele>2336.62</ele>
        <time>2018-09-13T10:52:01Z</time>
      </trkpt>
      <trkpt lat="44.84054" lon="6.83911">
        <ele>2335.18</ele>
        <time>2018-09-13T10:52:10Z</time>
      </trkpt>
      <trkpt lat="44.84062" lon="6.83902">
        <ele>2334.7</ele>
        <time>2018-09-13T10:52:19Z</time>
      </trkpt>
      <trkpt lat="44.84066" lon="6.83889">
        <ele>2334.22</ele>
        <time>2018-09-13T10:52:29Z</time>
      </trkpt>
      <trkpt lat="44.84071" lon="6.83877">
        <ele>2333.74</ele>
        <time>2018-09-13T10:52:39Z</time>
      </trkpt>
      <trkpt lat="44.8408" lon="6.83868">
        <ele>2332.78</ele>
        <time>2018-09-13T10:52:49Z</time>
      </trkpt>
      <trkpt lat="44.84085" lon="6.83859">
        <ele>2330.85</ele>
        <time>2018-09-13T10:52:58Z</time>
      </trkpt>
      <trkpt lat="44.8409" lon="6.83846">
        <ele>2330.85</ele>
        <time>2018-09-13T10:53:07Z</time>
      </trkpt>
      <trkpt lat="44.84094" lon="6.83834">
        <ele>2329.41</ele>
        <time>2018-09-13T10:53:16Z</time>
      </trkpt>
      <trkpt lat="44.84099" lon="6.83824">
        <ele>2328.93</ele>
        <time>2018-09-13T10:53:26Z</time>
      </trkpt>
      <trkpt lat="44.84103" lon="6.83811">
        <ele>2327.01</ele>
        <time>2018-09-13T10:53:37Z</time>
      </trkpt>
      <trkpt lat="44.84107" lon="6.83799">
        <ele>2327.01</ele>
        <time>2018-09-13T10:53:47Z</time>
      </trkpt>
      <trkpt lat="44.8411" lon="6.83784">
        <ele>2326.05</ele>
        <time>2018-09-13T10:53:56Z</time>
      </trkpt>
      <trkpt lat="44.84114" lon="6.83775">
        <ele>2325.57</ele>
        <time>2018-09-13T10:54:10Z</time>
      </trkpt>
      <trkpt lat="44.84115" lon="6.83759">
        <ele>2324.61</ele>
        <time>2018-09-13T10:54:19Z</time>
      </trkpt>
      <trkpt lat="44.84114" lon="6.83744">
        <ele>2323.16</ele>
        <time>2018-09-13T10:54:28Z</time>
      </trkpt>
      <trkpt lat="44.84117" lon="6.83731">
        <ele>2323.16</ele>
        <time>2018-09-13T10:54:37Z</time>
      </trkpt>
      <trkpt lat="44.84119" lon="6.83719">
        <ele>2322.68</ele>
        <time>2018-09-13T10:54:47Z</time>
      </trkpt>
      <trkpt lat="44.84122" lon="6.83706">
        <ele>2321.72</ele>
        <time>2018-09-13T10:54:57Z</time>
      </trkpt>
      <trkpt lat="44.84127" lon="6.83694">
        <ele>2320.76</ele>
        <time>2018-09-13T10:55:07Z</time>
      </trkpt>
      <trkpt lat="44.84129" lon="6.83683">
        <ele>2319.8</ele>
        <time>2018-09-13T10:55:29Z</time>
      </trkpt>
      <trkpt lat="44.84126" lon="6.8367">
        <ele>2318.36</ele>
        <time>2018-09-13T10:55:41Z</time>
      </trkpt>
      <trkpt lat="44.84128" lon="6.83656">
        <ele>2316.43</ele>
        <time>2018-09-13T10:55:51Z</time>
      </trkpt>
      <trkpt lat="44.8413" lon="6.83643">
        <ele>2314.51</ele>
        <time>2018-09-13T10:56:01Z</time>
      </trkpt>
      <trkpt lat="44.84126" lon="6.83629">
        <ele>2313.07</ele>
        <time>2018-09-13T10:56:11Z</time>
      </trkpt>
      <trkpt lat="44.84128" lon="6.83616">
        <ele>2311.63</ele>
        <time>2018-09-13T10:56:23Z</time>
      </trkpt>
      <trkpt lat="44.84124" lon="6.83606">
        <ele>2309.7</ele>
        <time>2018-09-13T10:56:36Z</time>
      </trkpt>
      <trkpt lat="44.84126" lon="6.8359">
        <ele>2309.22</ele>
        <time>2018-09-13T10:56:53Z</time>
      </trkpt>
      <trkpt lat="44.8413" lon="6.83578">
        <ele>2307.78</ele>
        <time>2018-09-13T10:57:04Z</time>
      </trkpt>
      <trkpt lat="44.84128" lon="6.83565">
        <ele>2306.82</ele>
        <time>2018-09-13T10:57:15Z</time>
      </trkpt>
      <trkpt lat="44.8413" lon="6.83553">
        <ele>2306.34</ele>
        <time>2018-09-13T10:57:25Z</time>
      </trkpt>
      <trkpt lat="44.8413" lon="6.83539">
        <ele>2305.38</ele>
        <time>2018-09-13T10:57:48Z</time>
      </trkpt>
      <trkpt lat="44.84129" lon="6.83526">
        <ele>2303.94</ele>
        <time>2018-09-13T10:58:00Z</time>
      </trkpt>
      <trkpt lat="44.84126" lon="6.83514">
        <ele>2302.49</ele>
        <time>2018-09-13T10:58:17Z</time>
      </trkpt>
      <trkpt lat="44.84125" lon="6.835">
        <ele>2301.53</ele>
        <time>2018-09-13T10:58:29Z</time>
      </trkpt>
      <trkpt lat="44.84124" lon="6.83487">
        <ele>2300.09</ele>
        <time>2018-09-13T10:58:40Z</time>
      </trkpt>
      <trkpt lat="44.84118" lon="6.83479">
        <ele>2300.09</ele>
        <time>2018-09-13T10:58:50Z</time>
      </trkpt>
      <trkpt lat="44.84115" lon="6.83464">
        <ele>2299.61</ele>
        <time>2018-09-13T10:59:00Z</time>
      </trkpt>
      <trkpt lat="44.84112" lon="6.83451">
        <ele>2299.61</ele>
        <time>2018-09-13T10:59:09Z</time>
      </trkpt>
      <trkpt lat="44.8411" lon="6.83437">
        <ele>2298.65</ele>
        <time>2018-09-13T10:59:18Z</time>
      </trkpt>
      <trkpt lat="44.84107" lon="6.83424">
        <ele>2298.65</ele>
        <time>2018-09-13T10:59:28Z</time>
      </trkpt>
      <trkpt lat="44.84108" lon="6.83411">
        <ele>2297.69</ele>
        <time>2018-09-13T10:59:38Z</time>
      </trkpt>
      <trkpt lat="44.84105" lon="6.83399">
        <ele>2297.21</ele>
        <time>2018-09-13T10:59:49Z</time>
      </trkpt>
      <trkpt lat="44.84103" lon="6.83382">
        <ele>2295.77</ele>
        <time>2018-09-13T11:00:03Z</time>
      </trkpt>
      <trkpt lat="44.84104" lon="6.83367">
        <ele>2295.77</ele>
        <time>2018-09-13T11:00:12Z</time>
      </trkpt>
      <trkpt lat="44.84108" lon="6.83355">
        <ele>2295.77</ele>
        <time>2018-09-13T11:00:23Z</time>
      </trkpt>
      <trkpt lat="44.84106" lon="6.83339">
        <ele>2294.8</ele>
        <time>2018-09-13T11:00:34Z</time>
      </trkpt>
      <trkpt lat="44.84106" lon="6.83325">
        <ele>2294.32</ele>
        <time>2018-09-13T11:00:45Z</time>
      </trkpt>
      <trkpt lat="44.84107" lon="6.83312">
        <ele>2293.36</ele>
        <time>2018-09-13T11:00:57Z</time>
      </trkpt>
      <trkpt lat="44.84109" lon="6.83298">
        <ele>2293.36</ele>
        <time>2018-09-13T11:01:07Z</time>
      </trkpt>
      <trkpt lat="44.84119" lon="6.83286">
        <ele>2292.4</ele>
        <time>2018-09-13T11:01:37Z</time>
      </trkpt>
      <trkpt lat="44.84126" lon="6.83277">
        <ele>2290.96</ele>
        <time>2018-09-13T11:01:50Z</time>
      </trkpt>
      <trkpt lat="44.84131" lon="6.83265">
        <ele>2291.44</ele>
        <time>2018-09-13T11:02:02Z</time>
      </trkpt>
      <trkpt lat="44.84135" lon="6.83253">
        <ele>2291.44</ele>
        <time>2018-09-13T11:02:15Z</time>
      </trkpt>
      <trkpt lat="44.84139" lon="6.8324">
        <ele>2290.96</ele>
        <time>2018-09-13T11:02:24Z</time>
      </trkpt>
      <trkpt lat="44.84139" lon="6.83226">
        <ele>2290.48</ele>
        <time>2018-09-13T11:02:33Z</time>
      </trkpt>
      <trkpt lat="44.84139" lon="6.83212">
        <ele>2290.48</ele>
        <time>2018-09-13T11:02:42Z</time>
      </trkpt>
      <trkpt lat="44.84144" lon="6.83199">
        <ele>2289.52</ele>
        <time>2018-09-13T11:02:51Z</time>
      </trkpt>
      <trkpt lat="44.8415" lon="6.83187">
        <ele>2287.59</ele>
        <time>2018-09-13T11:03:01Z</time>
      </trkpt>
      <trkpt lat="44.84149" lon="6.83174">
        <ele>2287.59</ele>
        <time>2018-09-13T11:03:12Z</time>
      </trkpt>
      <trkpt lat="44.84148" lon="6.8316">
        <ele>2288.08</ele>
        <time>2018-09-13T11:03:22Z</time>
      </trkpt>
      <trkpt lat="44.84153" lon="6.83148">
        <ele>2286.63</ele>
        <time>2018-09-13T11:03:32Z</time>
      </trkpt>
      <trkpt lat="44.84154" lon="6.83136">
        <ele>2286.15</ele>
        <time>2018-09-13T11:04:17Z</time>
      </trkpt>
      <trkpt lat="44.84158" lon="6.83123">
        <ele>2284.23</ele>
        <time>2018-09-13T11:04:30Z</time>
      </trkpt>
      <trkpt lat="44.84156" lon="6.83111">
        <ele>2282.79</ele>
        <time>2018-09-13T11:04:59Z</time>
      </trkpt>
      <trkpt lat="44.84157" lon="6.83097">
        <ele>2281.35</ele>
        <time>2018-09-13T11:05:09Z</time>
      </trkpt>
      <trkpt lat="44.8416" lon="6.83085">
        <ele>2279.9</ele>
        <time>2018-09-13T11:05:18Z</time>
      </trkpt>
      <trkpt lat="44.84161" lon="6.83071">
        <ele>2278.94</ele>
        <time>2018-09-13T11:05:28Z</time>
      </trkpt>
      <trkpt lat="44.84163" lon="6.83058">
        <ele>2277.98</ele>
        <time>2018-09-13T11:05:38Z</time>
      </trkpt>
      <trkpt lat="44.84165" lon="6.83045">
        <ele>2277.02</ele>
        <time>2018-09-13T11:05:47Z</time>
      </trkpt>
      <trkpt lat="44.84165" lon="6.83032">
        <ele>2276.06</ele>
        <time>2018-09-13T11:05:57Z</time>
      </trkpt>
      <trkpt lat="44.84167" lon="6.83018">
        <ele>2274.62</ele>
        <time>2018-09-13T11:06:07Z</time>
      </trkpt>
      <trkpt lat="44.84168" lon="6.83005">
        <ele>2273.66</ele>
        <time>2018-09-13T11:06:17Z</time>
      </trkpt>
      <trkpt lat="44.84169" lon="6.82992">
        <ele>2272.69</ele>
        <time>2018-09-13T11:06:26Z</time>
      </trkpt>
      <trkpt lat="44.8417" lon="6.82978">
        <ele>2270.77</ele>
        <time>2018-09-13T11:06:36Z</time>
      </trkpt>
      <trkpt lat="44.84169" lon="6.82964">
        <ele>2270.29</ele>
        <time>2018-09-13T11:06:45Z</time>
      </trkpt>
      <trkpt lat="44.84166" lon="6.82952">
        <ele>2269.81</ele>
        <time>2018-09-13T11:06:53Z</time>
      </trkpt>
      <trkpt lat="44.84166" lon="6.82938">
        <ele>2268.37</ele>
        <time>2018-09-13T11:07:02Z</time>
      </trkpt>
      <trkpt lat="44.84167" lon="6.82925">
        <ele>2267.89</ele>
        <time>2018-09-13T11:07:11Z</time>
      </trkpt>
      <trkpt lat="44.84168" lon="6.82911">
        <ele>2267.89</ele>
        <time>2018-09-13T11:07:20Z</time>
      </trkpt>
      <trkpt lat="44.84176" lon="6.82902">
        <ele>2266.45</ele>
        <time>2018-09-13T11:07:31Z</time>
      </trkpt>
      <trkpt lat="44.84183" lon="6.82892">
        <ele>2265</ele>
        <time>2018-09-13T11:07:40Z</time>
      </trkpt>
      <trkpt lat="44.84187" lon="6.82881">
        <ele>2263.56</ele>
        <time>2018-09-13T11:07:49Z</time>
      </trkpt>
      <trkpt lat="44.84191" lon="6.8287">
        <ele>2261.64</ele>
        <time>2018-09-13T11:07:58Z</time>
      </trkpt>
      <trkpt lat="44.84194" lon="6.82857">
        <ele>2261.16</ele>
        <time>2018-09-13T11:08:07Z</time>
      </trkpt>
      <trkpt lat="44.84196" lon="6.82845">
        <ele>2259.72</ele>
        <time>2018-09-13T11:08:16Z</time>
      </trkpt>
      <trkpt lat="44.84196" lon="6.82832">
        <ele>2258.75</ele>
        <time>2018-09-13T11:08:25Z</time>
      </trkpt>
      <trkpt lat="44.84197" lon="6.82821">
        <ele>2257.31</ele>
        <time>2018-09-13T11:08:34Z</time>
      </trkpt>
      <trkpt lat="44.84201" lon="6.82808">
        <ele>2256.83</ele>
        <time>2018-09-13T11:08:43Z</time>
      </trkpt>
      <trkpt lat="44.84206" lon="6.82798">
        <ele>2255.39</ele>
        <time>2018-09-13T11:08:54Z</time>
      </trkpt>
      <trkpt lat="44.8421" lon="6.82786">
        <ele>2254.43</ele>
        <time>2018-09-13T11:09:02Z</time>
      </trkpt>
      <trkpt lat="44.8421" lon="6.82773">
        <ele>2253.95</ele>
        <time>2018-09-13T11:09:10Z</time>
      </trkpt>
      <trkpt lat="44.84214" lon="6.8276">
        <ele>2252.99</ele>
        <time>2018-09-13T11:09:19Z</time>
      </trkpt>
      <trkpt lat="44.84216" lon="6.82747">
        <ele>2252.03</ele>
        <time>2018-09-13T11:09:28Z</time>
      </trkpt>
      <trkpt lat="44.84219" lon="6.82736">
        <ele>2250.58</ele>
        <time>2018-09-13T11:09:37Z</time>
      </trkpt>
      <trkpt lat="44.84221" lon="6.82724">
        <ele>2249.62</ele>
        <time>2018-09-13T11:09:46Z</time>
      </trkpt>
      <trkpt lat="44.84222" lon="6.82709">
        <ele>2247.7</ele>
        <time>2018-09-13T11:09:55Z</time>
      </trkpt>
      <trkpt lat="44.84223" lon="6.82696">
        <ele>2247.22</ele>
        <time>2018-09-13T11:10:04Z</time>
      </trkpt>
      <trkpt lat="44.84223" lon="6.82683">
        <ele>2246.26</ele>
        <time>2018-09-13T11:10:13Z</time>
      </trkpt>
      <trkpt lat="44.84223" lon="6.82672">
        <ele>2245.3</ele>
        <time>2018-09-13T11:10:25Z</time>
      </trkpt>
      <trkpt lat="44.84218" lon="6.8266">
        <ele>2243.85</ele>
        <time>2018-09-13T11:10:35Z</time>
      </trkpt>
      <trkpt lat="44.84213" lon="6.82649">
        <ele>2241.45</ele>
        <time>2018-09-13T11:10:44Z</time>
      </trkpt>
      <trkpt lat="44.8421" lon="6.82635">
        <ele>2239.53</ele>
        <time>2018-09-13T11:10:53Z</time>
      </trkpt>
      <trkpt lat="44.84208" lon="6.82622">
        <ele>2238.09</ele>
        <time>2018-09-13T11:11:02Z</time>
      </trkpt>
      <trkpt lat="44.84205" lon="6.82609">
        <ele>2236.16</ele>
        <time>2018-09-13T11:11:11Z</time>
      </trkpt>
      <trkpt lat="44.84207" lon="6.82596">
        <ele>2234.72</ele>
        <time>2018-09-13T11:11:20Z</time>
      </trkpt>
      <trkpt lat="44.84209" lon="6.82582">
        <ele>2232.32</ele>
        <time>2018-09-13T11:11:31Z</time>
      </trkpt>
      <trkpt lat="44.8421" lon="6.82568">
        <ele>2230.88</ele>
        <time>2018-09-13T11:11:42Z</time>
      </trkpt>
      <trkpt lat="44.84211" lon="6.82553">
        <ele>2229.92</ele>
        <time>2018-09-13T11:11:52Z</time>
      </trkpt>
      <trkpt lat="44.84211" lon="6.8254">
        <ele>2227.51</ele>
        <time>2018-09-13T11:12:02Z</time>
      </trkpt>
      <trkpt lat="44.8421" lon="6.82528">
        <ele>2225.59</ele>
        <time>2018-09-13T11:12:14Z</time>
      </trkpt>
      <trkpt lat="44.84206" lon="6.82518">
        <ele>2222.22</ele>
        <time>2018-09-13T11:12:23Z</time>
      </trkpt>
      <trkpt lat="44.84203" lon="6.82505">
        <ele>2221.26</ele>
        <time>2018-09-13T11:12:32Z</time>
      </trkpt>
      <trkpt lat="44.84201" lon="6.82493">
        <ele>2219.82</ele>
        <time>2018-09-13T11:12:44Z</time>
      </trkpt>
      <trkpt lat="44.84201" lon="6.82483">
        <ele>2217.42</ele>
        <time>2018-09-13T11:12:56Z</time>
      </trkpt>
      <trkpt lat="44.84197" lon="6.82471">
        <ele>2215.5</ele>
        <time>2018-09-13T11:13:08Z</time>
      </trkpt>
      <trkpt lat="44.84193" lon="6.82463">
        <ele>2213.09</ele>
        <time>2018-09-13T11:13:21Z</time>
      </trkpt>
      <trkpt lat="44.8419" lon="6.8245">
        <ele>2210.21</ele>
        <time>2018-09-13T11:13:32Z</time>
      </trkpt>
      <trkpt lat="44.84188" lon="6.82439">
        <ele>2207.32</ele>
        <time>2018-09-13T11:13:44Z</time>
      </trkpt>
      <trkpt lat="44.84197" lon="6.82429">
        <ele>2205.4</ele>
        <time>2018-09-13T11:13:55Z</time>
      </trkpt>
      <trkpt lat="44.84196" lon="6.82419">
        <ele>2203</ele>
        <time>2018-09-13T11:14:07Z</time>
      </trkpt>
      <trkpt lat="44.84194" lon="6.8241">
        <ele>2200.59</ele>
        <time>2018-09-13T11:14:24Z</time>
      </trkpt>
      <trkpt lat="44.8419" lon="6.82397">
        <ele>2198.67</ele>
        <time>2018-09-13T11:14:36Z</time>
      </trkpt>
      <trkpt lat="44.84194" lon="6.82382">
        <ele>2195.31</ele>
        <time>2018-09-13T11:15:36Z</time>
      </trkpt>
      <trkpt lat="44.84198" lon="6.82369">
        <ele>2191.94</ele>
        <time>2018-09-13T11:15:51Z</time>
      </trkpt>
      <trkpt lat="44.84198" lon="6.82357">
        <ele>2190.02</ele>
        <time>2018-09-13T11:16:11Z</time>
      </trkpt>
      <trkpt lat="44.84204" lon="6.82349">
        <ele>2187.62</ele>
        <time>2018-09-13T11:17:13Z</time>
      </trkpt>
      <trkpt lat="44.84203" lon="6.82336">
        <ele>2184.73</ele>
        <time>2018-09-13T11:17:27Z</time>
      </trkpt>
      <trkpt lat="44.84205" lon="6.82323">
        <ele>2181.85</ele>
        <time>2018-09-13T11:17:39Z</time>
      </trkpt>
      <trkpt lat="44.84203" lon="6.82308">
        <ele>2179.93</ele>
        <time>2018-09-13T11:17:55Z</time>
      </trkpt>
      <trkpt lat="44.84203" lon="6.82295">
        <ele>2177.52</ele>
        <time>2018-09-13T11:18:08Z</time>
      </trkpt>
      <trkpt lat="44.84198" lon="6.82285">
        <ele>2175.12</ele>
        <time>2018-09-13T11:18:21Z</time>
      </trkpt>
      <trkpt lat="44.84197" lon="6.82273">
        <ele>2172.72</ele>
        <time>2018-09-13T11:18:35Z</time>
      </trkpt>
      <trkpt lat="44.84196" lon="6.82263">
        <ele>2169.35</ele>
        <time>2018-09-13T11:18:50Z</time>
      </trkpt>
      <trkpt lat="44.84195" lon="6.82253">
        <ele>2166.95</ele>
        <time>2018-09-13T11:19:07Z</time>
      </trkpt>
      <trkpt lat="44.84189" lon="6.82242">
        <ele>2164.06</ele>
        <time>2018-09-13T11:19:26Z</time>
      </trkpt>
      <trkpt lat="44.84185" lon="6.82229">
        <ele>2160.7</ele>
        <time>2018-09-13T11:19:39Z</time>
      </trkpt>
      <trkpt lat="44.84184" lon="6.82216">
        <ele>2156.86</ele>
        <time>2018-09-13T11:20:00Z</time>
      </trkpt>
      <trkpt lat="44.84184" lon="6.82201">
        <ele>2154.45</ele>
        <time>2018-09-13T11:20:16Z</time>
      </trkpt>
      <trkpt lat="44.84187" lon="6.82188">
        <ele>2151.09</ele>
        <time>2018-09-13T11:20:42Z</time>
      </trkpt>
      <trkpt lat="44.84188" lon="6.82173">
        <ele>2148.68</ele>
        <time>2018-09-13T11:20:55Z</time>
      </trkpt>
      <trkpt lat="44.84191" lon="6.82159">
        <ele>2146.28</ele>
        <time>2018-09-13T11:21:06Z</time>
      </trkpt>
      <trkpt lat="44.84196" lon="6.82148">
        <ele>2142.92</ele>
        <time>2018-09-13T11:21:23Z</time>
      </trkpt>
      <trkpt lat="44.84195" lon="6.82134">
        <ele>2138.59</ele>
        <time>2018-09-13T11:21:38Z</time>
      </trkpt>
      <trkpt lat="44.842" lon="6.82122">
        <ele>2135.71</ele>
        <time>2018-09-13T11:21:51Z</time>
      </trkpt>
      <trkpt lat="44.84205" lon="6.82119">
        <ele>2132.34</ele>
        <time>2018-09-13T11:22:03Z</time>
      </trkpt>
      <trkpt lat="44.84206" lon="6.82103">
        <ele>2130.9</ele>
        <time>2018-09-13T11:22:16Z</time>
      </trkpt>
      <trkpt lat="44.84206" lon="6.82091">
        <ele>2129.46</ele>
        <time>2018-09-13T11:22:25Z</time>
      </trkpt>
      <trkpt lat="44.84207" lon="6.8208">
        <ele>2130.42</ele>
        <time>2018-09-13T11:22:40Z</time>
      </trkpt>
      <trkpt lat="44.84204" lon="6.82064">
        <ele>2130.42</ele>
        <time>2018-09-13T11:22:56Z</time>
      </trkpt>
      <trkpt lat="44.84204" lon="6.82048">
        <ele>2128.98</ele>
        <time>2018-09-13T11:23:09Z</time>
      </trkpt>
      <trkpt lat="44.84209" lon="6.82034">
        <ele>2126.57</ele>
        <time>2018-09-13T11:23:20Z</time>
      </trkpt>
      <trkpt lat="44.84213" lon="6.82022">
        <ele>2124.65</ele>
        <time>2018-09-13T11:23:34Z</time>
      </trkpt>
      <trkpt lat="44.84219" lon="6.82012">
        <ele>2121.77</ele>
        <time>2018-09-13T11:23:50Z</time>
      </trkpt>
      <trkpt lat="44.84225" lon="6.82">
        <ele>2118.4</ele>
        <time>2018-09-13T11:24:07Z</time>
      </trkpt>
      <trkpt lat="44.84234" lon="6.81994">
        <ele>2114.56</ele>
        <time>2018-09-13T11:24:24Z</time>
      </trkpt>
      <trkpt lat="44.84237" lon="6.81983">
        <ele>2113.12</ele>
        <time>2018-09-13T11:24:38Z</time>
      </trkpt>
      <trkpt lat="44.84243" lon="6.81973">
        <ele>2110.23</ele>
        <time>2018-09-13T11:24:52Z</time>
      </trkpt>
      <trkpt lat="44.84246" lon="6.81959">
        <ele>2106.87</ele>
        <time>2018-09-13T11:25:09Z</time>
      </trkpt>
      <trkpt lat="44.84249" lon="6.81946">
        <ele>2103.98</ele>
        <time>2018-09-13T11:25:28Z</time>
      </trkpt>
      <trkpt lat="44.84254" lon="6.81935">
        <ele>2100.14</ele>
        <time>2018-09-13T11:25:46Z</time>
      </trkpt>
      <trkpt lat="44.84261" lon="6.81929">
        <ele>2097.73</ele>
        <time>2018-09-13T11:26:07Z</time>
      </trkpt>
      <trkpt lat="44.84266" lon="6.81918">
        <ele>2094.85</ele>
        <time>2018-09-13T11:26:26Z</time>
      </trkpt>
      <trkpt lat="44.84272" lon="6.81911">
        <ele>2092.45</ele>
        <time>2018-09-13T11:26:44Z</time>
      </trkpt>
      <trkpt lat="44.84276" lon="6.81909">
        <ele>2089.08</ele>
        <time>2018-09-13T11:26:59Z</time>
      </trkpt>
      <trkpt lat="44.84282" lon="6.81907">
        <ele>2086.68</ele>
        <time>2018-09-13T11:27:12Z</time>
      </trkpt>
      <trkpt lat="44.84285" lon="6.81897">
        <ele>2083.79</ele>
        <time>2018-09-13T11:27:27Z</time>
      </trkpt>
      <trkpt lat="44.84287" lon="6.81883">
        <ele>2082.35</ele>
        <time>2018-09-13T11:27:37Z</time>
      </trkpt>
      <trkpt lat="44.84287" lon="6.81868">
        <ele>2081.87</ele>
        <time>2018-09-13T11:27:47Z</time>
      </trkpt>
      <trkpt lat="44.84288" lon="6.81855">
        <ele>2081.39</ele>
        <time>2018-09-13T11:27:57Z</time>
      </trkpt>
      <trkpt lat="44.84286" lon="6.8184">
        <ele>2080.91</ele>
        <time>2018-09-13T11:28:07Z</time>
      </trkpt>
      <trkpt lat="44.84285" lon="6.81826">
        <ele>2079.95</ele>
        <time>2018-09-13T11:28:17Z</time>
      </trkpt>
      <trkpt lat="44.84285" lon="6.81813">
        <ele>2078.99</ele>
        <time>2018-09-13T11:28:26Z</time>
      </trkpt>
      <trkpt lat="44.84287" lon="6.81798">
        <ele>2078.51</ele>
        <time>2018-09-13T11:28:35Z</time>
      </trkpt>
      <trkpt lat="44.84288" lon="6.81785">
        <ele>2078.03</ele>
        <time>2018-09-13T11:28:44Z</time>
      </trkpt>
      <trkpt lat="44.84289" lon="6.81773">
        <ele>2076.59</ele>
        <time>2018-09-13T11:28:54Z</time>
      </trkpt>
      <trkpt lat="44.8429" lon="6.81764">
        <ele>2076.1</ele>
        <time>2018-09-13T11:29:13Z</time>
      </trkpt>
      <trkpt lat="44.84293" lon="6.81751">
        <ele>2075.62</ele>
        <time>2018-09-13T11:29:24Z</time>
      </trkpt>
      <trkpt lat="44.84293" lon="6.81742">
        <ele>2074.66</ele>
        <time>2018-09-13T11:29:35Z</time>
      </trkpt>
      <trkpt lat="44.84295" lon="6.81727">
        <ele>2073.7</ele>
        <time>2018-09-13T11:29:45Z</time>
      </trkpt>
      <trkpt lat="44.84296" lon="6.81715">
        <ele>2073.22</ele>
        <time>2018-09-13T11:29:56Z</time>
      </trkpt>
      <trkpt lat="44.84297" lon="6.81709">
        <ele>2073.22</ele>
        <time>2018-09-13T11:30:32Z</time>
      </trkpt>
      <trkpt lat="44.84306" lon="6.81707">
        <ele>2072.26</ele>
        <time>2018-09-13T11:30:42Z</time>
      </trkpt>
      <trkpt lat="44.84315" lon="6.81708">
        <ele>2072.74</ele>
        <time>2018-09-13T11:30:53Z</time>
      </trkpt>
      <trkpt lat="44.84324" lon="6.81709">
        <ele>2072.26</ele>
        <time>2018-09-13T11:31:03Z</time>
      </trkpt>
      <trkpt lat="44.84334" lon="6.81701">
        <ele>2072.26</ele>
        <time>2018-09-13T11:31:13Z</time>
      </trkpt>
      <trkpt lat="44.84344" lon="6.81697">
        <ele>2071.3</ele>
        <time>2018-09-13T11:31:22Z</time>
      </trkpt>
      <trkpt lat="44.84351" lon="6.81692">
        <ele>2071.3</ele>
        <time>2018-09-13T11:31:29Z</time>
      </trkpt>
      <trkpt lat="44.84358" lon="6.81684">
        <ele>2070.82</ele>
        <time>2018-09-13T11:31:39Z</time>
      </trkpt>
      <trkpt lat="44.84365" lon="6.81677">
        <ele>2069.86</ele>
        <time>2018-09-13T11:31:48Z</time>
      </trkpt>
      <trkpt lat="44.84374" lon="6.81674">
        <ele>2069.86</ele>
        <time>2018-09-13T11:31:58Z</time>
      </trkpt>
      <trkpt lat="44.84382" lon="6.81672">
        <ele>2068.89</ele>
        <time>2018-09-13T11:32:08Z</time>
      </trkpt>
      <trkpt lat="44.84389" lon="6.81663">
        <ele>2068.41</ele>
        <time>2018-09-13T11:32:14Z</time>
      </trkpt>
      <trkpt lat="44.84399" lon="6.81659">
        <ele>2067.93</ele>
        <time>2018-09-13T11:32:26Z</time>
      </trkpt>
      <trkpt lat="44.84406" lon="6.81658">
        <ele>2067.93</ele>
        <time>2018-09-13T11:32:36Z</time>
      </trkpt>
      <trkpt lat="44.84416" lon="6.81654">
        <ele>2067.45</ele>
        <time>2018-09-13T11:32:47Z</time>
      </trkpt>
      <trkpt lat="44.84426" lon="6.81649">
        <ele>2066.97</ele>
        <time>2018-09-13T11:32:58Z</time>
      </trkpt>
      <trkpt lat="44.84434" lon="6.81644">
        <ele>2066.01</ele>
        <time>2018-09-13T11:33:14Z</time>
      </trkpt>
      <trkpt lat="44.84439" lon="6.81637">
        <ele>2065.53</ele>
        <time>2018-09-13T11:33:27Z</time>
      </trkpt>
      <trkpt lat="44.84445" lon="6.81626">
        <ele>2065.05</ele>
        <time>2018-09-13T11:33:38Z</time>
      </trkpt>
      <trkpt lat="44.84454" lon="6.81618">
        <ele>2064.09</ele>
        <time>2018-09-13T11:33:49Z</time>
      </trkpt>
      <trkpt lat="44.84457" lon="6.81606">
        <ele>2063.61</ele>
        <time>2018-09-13T11:34:14Z</time>
      </trkpt>
      <trkpt lat="44.84458" lon="6.81602">
        <ele>2061.68</ele>
        <time>2018-09-13T11:34:58Z</time>
      </trkpt>
      <trkpt lat="44.84458" lon="6.81606">
        <ele>2007.85</ele>
        <time>2018-09-14T05:02:46Z</time>
      </trkpt>
      <trkpt lat="44.8446" lon="6.81604">
        <ele>2055.44</ele>
        <time>2018-09-14T05:08:58Z</time>
      </trkpt>
      <trkpt lat="44.8447" lon="6.81604">
        <ele>2055.44</ele>
        <time>2018-09-14T05:09:08Z</time>
      </trkpt>
      <trkpt lat="44.84482" lon="6.81601">
        <ele>2055.92</ele>
        <time>2018-09-14T05:09:18Z</time>
      </trkpt>
      <trkpt lat="44.84492" lon="6.81595">
        <ele>2055.44</ele>
        <time>2018-09-14T05:09:29Z</time>
      </trkpt>
      <trkpt lat="44.845" lon="6.81586">
        <ele>2056.4</ele>
        <time>2018-09-14T05:09:37Z</time>
      </trkpt>
      <trkpt lat="44.84508" lon="6.81577">
        <ele>2055.92</ele>
        <time>2018-09-14T05:09:45Z</time>
      </trkpt>
      <trkpt lat="44.84509" lon="6.81571">
        <ele>2054.96</ele>
        <time>2018-09-14T05:10:55Z</time>
      </trkpt>
      <trkpt lat="44.84505" lon="6.81559">
        <ele>2053.03</ele>
        <time>2018-09-14T05:11:03Z</time>
      </trkpt>
      <trkpt lat="44.84505" lon="6.81544">
        <ele>2054.47</ele>
        <time>2018-09-14T05:11:11Z</time>
      </trkpt>
      <trkpt lat="44.84505" lon="6.8153">
        <ele>2053.99</ele>
        <time>2018-09-14T05:11:19Z</time>
      </trkpt>
    </trkseg>
  </trk>
</gpx>